logo
Games tagged Text-Based
# Game Release date
Price
Score rank
(Userscore / Metascore)
Owners
Players
Playtime (Median)
Developer(s)
Publisher(s)
1 Lacuna – A Sci-Fi Noir Adventure May 20, 2021 $15.99N/A (N/A/86%)200,000 .. 500,0000%00:00 (00:00)DigiTales InteractiveAssemble Entertainment, WhisperGames, Mayflower Entertainment
2 Roadwarden Sep 12, 2022 $10.99N/A (N/A/85%)20,000 .. 50,0000%00:00 (00:00)Moral Anxiety StudioAssemble Entertainment
3 Football Manager 2022 Nov 9, 2021 N/AN/A (N/A/85%)1,000,000 .. 2,000,0002.5%64:18 (21:26)Sports InteractiveSEGA
4 The Darkside Detective: A Fumble in the Dark Apr 15, 2021 $14.99N/A (N/A/84%)20,000 .. 50,0000%00:00 (00:00)Spooky DoorwayAkupara Games
5 Digimon Survive Jul 28, 2022 $59.99N/A (N/A/83%)50,000 .. 100,0000%00:00 (00:00)HYDE, Inc.Bandai Namco Entertainment Inc.
6 The Great Ace Attorney Chronicles Jul 26, 2021 $24.79N/A (N/A/83%)100,000 .. 200,0000%00:00 (00:00)CAPCOM Co., Ltd.CAPCOM Co., Ltd.
7 Subsurface Circular Aug 17, 2017 $5.99N/A (N/A/83%)50,000 .. 100,0000%00:00 (00:00)Bithell GamesBithell Games
8 Citizen Sleeper May 5, 2022 $19.99N/A (N/A/82%)200,000 .. 500,0000%00:00 (00:00)Jump Over The AgeFellow Traveller
9 The Life and Suffering of Sir Brante Mar 4, 2021 $19.99N/A (N/A/82%)100,000 .. 200,0000%00:00 (00:00)Sever101XP
10 Doki Doki Literature Club Plus! Jun 30, 2021 $14.99N/A (N/A/81%)500,000 .. 1,000,0000%00:00 (00:00)Team SalvatoSerenity Forge
11 Overboard! Jun 2, 2021 $14.99N/A (N/A/81%)50,000 .. 100,000100%03:13 (03:13)inkle Ltdinkle Ltd
12 Doctor Who: The Lonely Assassins Mar 18, 2021 $5.99N/A (N/A/81%)100,000 .. 200,0000%00:00 (00:00)Kaigan Games OÜMaze Theory, Another Indie
13 Suzerain Dec 4, 2020 $14.99N/A (N/A/81%)500,000 .. 1,000,0000%00:00 (00:00)Torpor GamesFellow Traveller
14 Stronghold: A Hero's Fate Nov 16, 2018 $6.99N/A (N/A/81%)0 .. 20,0000%00:00 (00:00)Choice of GamesChoice of Games
15 Emily is Away Too May 26, 2017 $4.99N/A (N/A/81%)200,000 .. 500,0000%00:00 (00:00)Kyle SeeleyKyle Seeley
16 Stories Untold Feb 27, 2017 $9.99N/A (N/A/81%)100,000 .. 200,0000%00:00 (00:00)No CodeDevolver Digital
17 Wanderlust: Travel Stories Sep 26, 2019 $4.49N/A (N/A/79%)0 .. 20,0000%00:00 (00:00)Different TalesWalkabout
18 Sarawak Jan 27, 2021 $5.99N/A (N/A/78%)20,000 .. 50,0000%00:00 (00:00)Cowleyfornia StudiosCowleyfornia Studios
19 Werewolf: The Apocalypse — Heart of the Forest Oct 13, 2020 $5.99N/A (N/A/78%)50,000 .. 100,0000%00:00 (00:00)Different TalesWalkabout, Different Tales
20 Signs of the Sojourner May 14, 2020 $19.99N/A (N/A/77%)0 .. 20,0000%00:00 (00:00)Echodog GamesEchodog Games
21 Trolley Problem, Inc. Apr 21, 2022 $5.38N/A (N/A/76%)0 .. 20,0000%00:00 (00:00)Read GravesYogscast Games
22 Arcadia Fallen Nov 17, 2021 $24.99N/A (N/A/76%)0 .. 20,0000%00:00 (00:00)Galdra StudiosGaldra Studios
23 Event[0] Sep 14, 2016 $19.99N/A (N/A/75%)100,000 .. 200,0000%00:00 (00:00)Ocelot SocietyOcelot Society
24 Uplink Aug 23, 2006 $9.99N/A (N/A/75%)500,000 .. 1,000,0000%00:00 (00:00)Introversion SoftwareIntroversion Software
25 Insurmountable Apr 29, 2021 $24.99N/A (N/A/74%)20,000 .. 50,0000%00:00 (00:00)ByteRockers' GamesDaedalic Entertainment
26 The Innsmouth Case Jun 23, 2020 $12.49N/A (N/A/73%)0 .. 20,0000%00:00 (00:00)RobotPumpkin GamesAssemble Entertainment
27 A Place for the Unwilling Jul 25, 2019 $14.99N/A (N/A/73%)0 .. 20,0000%00:00 (00:00)ALPixel GamesALPixel Games
28 Quarantine Circular May 22, 2018 $5.99N/A (N/A/73%)0 .. 20,0000%00:00 (00:00)Bithell GamesBithell Games
29 Gamedec - Definitive Edition Sep 16, 2021 $29.99N/A (N/A/72%)100,000 .. 200,0003.13%08:34 (02:51)Anshar StudiosAnshar Publishing
30 Cultist Simulator May 31, 2018 $19.99N/A (N/A/71%)500,000 .. 1,000,0000%00:00 (00:00)Weather FactoryWeather Factory
31 SIMULACRA 2 Jan 30, 2020 $7.99N/A (N/A/69%)100,000 .. 200,0000%00:00 (00:00)Kaigan GamesNeon Doctrine
32 The Wanderer: Frankenstein’s Creature Oct 30, 2019 $15.99N/A (N/A/69%)0 .. 20,0000%00:00 (00:00)La Belle Games, ARTE FranceARTE France
33 Wheels of Aurelia Sep 20, 2016 $14.99N/A (N/A/63%)20,000 .. 50,0000%00:00 (00:00)Santa RagioneSanta Ragione
34 Achtung! Cthulhu Tactics Oct 4, 2018 $24.99N/A (N/A/56%)0 .. 20,0000%00:00 (00:00)Auroch DigitalRipstone
35 Idle Research Jul 31, 2022 FreeN/A (N/A)100,000 .. 200,0000%00:00 (00:00)CryptoGrounds Games LLCCryptoGrounds Games LLC
36 Stay Safe 2020 Dec 7, 2021 FreeN/A (N/A)0 .. 20,0000%00:00 (00:00)Mohamed ShiyamMohamed Shiyam
37 圣歌德嘉的晚钟 Dec 4, 2021 FreeN/A (N/A)100,000 .. 200,0000%00:00 (00:00)二律背反旅人计划
38 Blood of Titans Oct 11, 2021 FreeN/A (N/A)0 .. 20,0000%00:00 (00:00)Sugar GamesSugar Games
39 Aspiring Light Aug 5, 2021 FreeN/A (N/A)0 .. 20,0000%00:00 (00:00)JY_2000JY_2000
40 副作用之瞳-Tlicolity Eyes- Jun 29, 2021 FreeN/A (N/A)50,000 .. 100,0000%00:00 (00:00)IDEA FACTORY, Frontier Works, JoyMoe Interactive Entertainment LimitedJoyMoe Interactive Entertainment Limited
41 Last Message Jun 24, 2021 FreeN/A (N/A)20,000 .. 50,0000%00:00 (00:00)JamesGamesNZJamesGamesNZ
42 幽灵高校(Ghost College) May 28, 2021 FreeN/A (N/A)50,000 .. 100,0000%00:00 (00:00)血色双眸血色双眸
43 cyberpunkdreams May 14, 2021 FreeN/A (N/A)100,000 .. 200,0000%00:00 (00:00)Late Night GamesLate Night Games
44 Untrusted May 9, 2021 FreeN/A (N/A)100,000 .. 200,0000%00:00 (00:00)evolvedlabsevolvedlabs
45 Pandemic Love Apr 27, 2021 FreeN/A (N/A)20,000 .. 50,0000%00:00 (00:00)Red SkaldRed Skald
46 Your Chronicle Apr 4, 2021 FreeN/A (N/A)100,000 .. 200,0000%00:00 (00:00)Samurai GamesSamurai Games
47 Incremental Epic Breakers Mar 17, 2021 FreeN/A (N/A)0 .. 20,0000%00:00 (00:00)HapiwakuIdle System, Inc.
48 Silent Earth Mar 5, 2021 FreeN/A (N/A)0 .. 20,0000%00:00 (00:00)Fring Frang GamesFring Frang Games
49 Oakrot - it's literally a book Mar 5, 2021 FreeN/A (N/A)0 .. 20,0000%00:00 (00:00)louis morellouis morel
50 揭谛/GATE Mar 3, 2021 FreeN/A (N/A)0 .. 20,0000%00:00 (00:00)团购规划局团购规划局
51 RPG IDLE Mar 3, 2021 FreeN/A (N/A)0 .. 20,0000%00:00 (00:00)Renan Miguelote ViannaRenan Miguelote Vianna
52 修真之路 Feb 6, 2021 FreeN/A (N/A)0 .. 20,0000%00:00 (00:00)游韵游戏网络公司游韵游戏网络公司
53 Nostalgici Anonimi Jan 24, 2021 FreeN/A (N/A)20,000 .. 50,0000%00:00 (00:00)Hufu Interactive StorytellingFondazione MITE
54 轮回修真OL Jan 23, 2021 FreeN/A (N/A)20,000 .. 50,0000%00:00 (00:00)大鸟工作室大鸟工作室
55 Hachi Hachi Mystery Jan 19, 2021 FreeN/A (N/A)0 .. 20,0000%00:00 (00:00)Ondori GamesOndori Games
56 Empire IDLE Jan 16, 2021 N/AN/A (N/A)0 .. 20,0000%00:00 (00:00)Renan Miguelote ViannaRenan Miguelote Vianna
57 Fujiwara Bittersweet Jan 16, 2021 FreeN/A (N/A)50,000 .. 100,0000%00:00 (00:00)MagicBenchVNMagicBenchVN
58 Acolyte: Prologue Jan 10, 2021 FreeN/A (N/A)50,000 .. 100,0000%00:00 (00:00)SuperstringSuperstring
59 Horus IDLE Jan 6, 2021 N/AN/A (N/A)0 .. 20,0000%00:00 (00:00)Renan Miguelote ViannaRenan Miguelote Vianna
60 Tales From Yeoldeburg Jan 5, 2021 N/AN/A (N/A)0 .. 20,0000%00:00 (00:00)Magic Dog StudiosMagic Dog Studios
61 Mission IDLE Dec 31, 2020 FreeN/A (N/A)20,000 .. 50,0000%00:00 (00:00)Renan Miguelote ViannaRenan Miguelote Vianna
62 I Want to Fly Dec 24, 2020 FreeN/A (N/A)0 .. 20,0000%00:00 (00:00)RaharabinRaharabin Games
63 Spooky Speakeasy Dec 21, 2020 FreeN/A (N/A)0 .. 20,0000%00:00 (00:00)Open AlphaOpen Alpha
64 Gladiators IDLE Dec 17, 2020 N/AN/A (N/A)0 .. 20,0000%00:00 (00:00)Renan Miguelote ViannaRenan Miguelote Vianna
65 Soccer Manager 2021 Dec 16, 2020 FreeN/A (N/A)500,000 .. 1,000,0000%00:00 (00:00)Invincibles Studio LtdInvincibles Studio Ltd
66 These Nights Alone Dec 5, 2020 FreeN/A (N/A)20,000 .. 50,0000%00:00 (00:00)ryArtryArt
67 ALLBLACK Phase 1 Dec 5, 2020 FreeN/A (N/A)50,000 .. 100,0000%00:00 (00:00)NSAIDNSAID
68 Interactive Empathy Dec 4, 2020 FreeN/A (N/A)0 .. 20,0000%00:00 (00:00)Animafest Workshop 2019Goethe Institute in Croatia and French Institute in Croatia and Gamechuck
69 The Life and Suffering of Sir Brante — Chapter 1&2 Dec 1, 2020 FreeN/A (N/A)200,000 .. 500,0000%00:00 (00:00)Sever101XP
70 Nevermore - Documentary Kinetic Novel Nov 30, 2020 N/AN/A (N/A)20,000 .. 50,0000%00:00 (00:00)Nikita Kaf Jam ProductionsNikita Kaf Jam Publishing
71 英雄坛说X·归来 Nov 27, 2020 FreeN/A (N/A)0 .. 20,0000%00:00 (00:00)成都盟布克科技有限公司成都盟布克科技有限公司
72 Sakura Dimensions Nov 26, 2020 FreeN/A (N/A)0 .. 20,0000%00:00 (00:00)BerCh1nBerCh1n
73 Tribal Wars Nov 12, 2020 FreeN/A (N/A)100,000 .. 200,0000%00:00 (00:00)InnoGamesInnoGames
74 BO020880 Nov 4, 2020 FreeN/A (N/A)20,000 .. 50,0000%00:00 (00:00)Italian Party of Indie DeveloperIV Productions
75 Keywords of A Life Nov 2, 2020 N/AN/A (N/A)20,000 .. 50,0000%00:00 (00:00)Fatih MertFatih Mert
76 Witches x Warlocks Oct 31, 2020 FreeN/A (N/A)20,000 .. 50,0000%00:00 (00:00)Nifty VisualsNifty Productions
77 LA Monsters Oct 31, 2020 FreeN/A (N/A)20,000 .. 50,0000%00:00 (00:00)ben lunatoben lunato
78 MVorpheus "Content Organizer" Oct 22, 2020 N/AN/A (N/A)0 .. 20,0000%00:00 (00:00)MVGamesMVStudios
79 PP Puncher Oct 7, 2020 FreeN/A (N/A)20,000 .. 50,0000%00:00 (00:00)brennfeubrennfeu
80 Cooking Companions: Appetizer Edition Oct 6, 2020 FreeN/A (N/A)20,000 .. 50,0000%00:00 (00:00)Deer Dream StudiosDeer Dream Studios
81 Guilt Free Oct 2, 2020 FreeN/A (N/A)20,000 .. 50,0000%00:00 (00:00)Lateral GamesLateral Games
82 安堂的心理咨询室:杯中之心〈ANDOU:Pulse of cup〉 Oct 1, 2020 FreeN/A (N/A)20,000 .. 50,0000%00:00 (00:00)机械神狐教制作组机械神狐教制作组
83 POWER Sep 3, 2020 FreeN/A (N/A)20,000 .. 50,0000%00:00 (00:00)Oppressive GamesOppressive Games
84 Corona Sector Sep 1, 2020 N/AN/A (N/A)0 .. 20,0000%00:00 (00:00)iBlackpeniBlackpen
85 Without Romance Aug 31, 2020 FreeN/A (N/A)20,000 .. 50,0000%00:00 (00:00)Moonlit WorksMoonlit Works
86 Incremental Adventures Aug 11, 2020 FreeN/A (N/A)100,000 .. 200,0000%00:00 (00:00)GnillerGniller
87 Obreno: Chapter One Aug 3, 2020 FreeN/A (N/A)50,000 .. 100,0000%00:00 (00:00)Out Of Time InteractiveOut Of Time Interactive
88 曙光之诗 Jul 30, 2020 FreeN/A (N/A)20,000 .. 50,0000%00:00 (00:00)729白起生贺组729白起生贺组
89 be you 2 Jul 18, 2020 FreeN/A (N/A)0 .. 20,0000%00:00 (00:00)louis morellouis morel
90 ARISEN: Prologue Jul 18, 2020 N/AN/A (N/A)20,000 .. 50,0000%00:00 (00:00)MaratusMaratus
91 Jiangshi x Daoshi Jul 16, 2020 FreeN/A (N/A)50,000 .. 100,0000%00:00 (00:00)Dendo DenkidoFruitbat Factory
92 Linda & Joan Prologue: “Four Months Earlier” Jul 14, 2020 FreeN/A (N/A)0 .. 20,0000%00:00 (00:00)False Vacuum GamesFalse Vacuum Games
93 The Horrors at Castle Wülhein Jul 13, 2020 N/AN/A (N/A)50,000 .. 100,0000%00:00 (00:00)Alex RyanAlex Ryan
94 The Peresmeshnik Jul 7, 2020 FreeN/A (N/A)20,000 .. 50,0000%00:00 (00:00)Sean ArnoldSean Arnold
95 The Night Fisherman Jun 29, 2020 FreeN/A (N/A)100,000 .. 200,0000%00:00 (00:00)de Fault, Chard, Richard CampbellFar Few Giants
96 AKER FERN May 31, 2020 FreeN/A (N/A)20,000 .. 50,0000%00:00 (00:00)Chaos Group GamesChaos Group Games
97 Wanderlust: Bangkok Prelude May 28, 2020 FreeN/A (N/A)0 .. 20,0000%00:00 (00:00)Different TalesWalkabout
98 Meditation 3 ~ Sophia Code May 27, 2020 N/AN/A (N/A)0 .. 20,0000%00:00 (00:00)Kooly From ParisKooly From Paris
99 Tyrania - A Kinetic Visual Novel May 27, 2020 FreeN/A (N/A)20,000 .. 50,0000%00:00 (00:00)LeviathanimationLeviathanimation
100 Meditation 2 ~ Wisdom and Christian Art May 24, 2020 N/AN/A (N/A)0 .. 20,0000%00:00 (00:00)Kooly From ParisKooly From Paris
101 잭과 콩나무: 숨겨진 이야기 Apr 22, 2020 FreeN/A (N/A)20,000 .. 50,0000%00:00 (00:00)JAB teamJAB team
102 Genius! Mar 18, 2020 FreeN/A (N/A)0 .. 20,0000%00:00 (00:00)Hypoxanthine, ZelHypoxanthine
103 Iveri: The 1.000 Story Mar 14, 2020 N/AN/A (N/A)0 .. 20,0000%00:00 (00:00)Blender Games
104 HumanBloodSandwich Mar 6, 2020 N/AN/A (N/A)0 .. 20,0000%00:00 (00:00)AmyBerylAmyBeryl
105 Space Bear Mar 5, 2020 FreeN/A (N/A)20,000 .. 50,0000%00:00 (00:00)Damon SmithSpace Bear Games
106 Mar 3, 2020 N/AN/A (N/A)0 .. 20,0000%00:00 (00:00)Pracy Studios
107 The Crimson Diamond: Chapter 1 Feb 5, 2020 FreeN/A (N/A)0 .. 20,0000%00:00 (00:00)Julia MinamataJulia Minamata
108 Feb 4, 2020 N/AN/A (N/A)0 .. 20,0000%00:00 (00:00)Unusual Games
109 Log 141 Jan 31, 2020 FreeN/A (N/A)0 .. 20,0000%00:00 (00:00)AwesomeLeakAwesomeLeak
110 PRISON OF SON Jan 30, 2020 FreeN/A (N/A)0 .. 20,0000%00:00 (00:00)Limperopoulos AlfeiosLimperopoulos Alfeios
111 Two Love Jan 25, 2020 FreeN/A (N/A)0 .. 20,0000%00:00 (00:00)Reporter ZeroReporter Zero
112 AVROD Jan 5, 2020 FreeN/A (N/A)0 .. 20,0000%00:00 (00:00)AVROD Technologies Inc.AVROD Technologies Inc.
113 Adventure or Normality? Oct 29, 2019 N/AN/A (N/A)0 .. 20,0000%00:00 (00:00)Cannibal Interactive
114 Interactive Horror Stories Oct 25, 2019 FreeN/A (N/A)20,000 .. 50,0000%00:00 (00:00)Aslan Game StudioAslan Game Studio
115 ChatAid Jul 30, 2019 N/AN/A (N/A)0 .. 20,0000%00:00 (00:00)Miriel
116 Clickable Coffee Shop Jul 26, 2019 FreeN/A (N/A)0 .. 20,0000%00:00 (00:00)aaror874 (Ajay Arora)aaror874 (Ajay Arora)
117 Agent Of Love - Josei Otome Visual Novel Jul 14, 2019 FreeN/A (N/A)0 .. 20,0000%00:00 (00:00)Delusional IncDelusional Inc
118 Reverse Me! Rez/Ru Jun 28, 2019 N/AN/A (N/A)0 .. 20,0000%00:00 (00:00)Vaasy, Elisey Waylone
119 The Mansion Jun 13, 2019 N/AN/A (N/A)0 .. 20,0000%00:00 (00:00)TriorityTriority
120 Ivanoile ~ Christalixeur Corruption Jun 6, 2019 N/AN/A (N/A)0 .. 20,0000%00:00 (00:00)Growfall Games
121 Divine D.I.V.A. May 6, 2019 N/AN/A (N/A)20,000 .. 50,0000%00:00 (00:00)MediaSpark
122 Hotel Tutwin Apr 15, 2019 FreeN/A (N/A)0 .. 20,0000%00:00 (00:00)Roxiano CreationsRoxiano Creations
123 vApe Escape Mar 15, 2019 FreeN/A (N/A)20,000 .. 50,0000%00:00 (00:00)GamechuckGamechuck
124 Hellink Mar 7, 2019 FreeN/A (N/A)50,000 .. 100,0000%00:00 (00:00)IkigaiIkigai
125 Shantalia and Corali'hulu Mar 1, 2019 N/AN/A (N/A)0 .. 20,0000%00:00 (00:00)So Dank Studio
126 One Synth Feb 16, 2019 FreeN/A (N/A)0 .. 20,0000%00:00 (00:00)Kawaiisun GamesKawaiisun Games
127 Dream Enders RPG Feb 8, 2019 FreeN/A (N/A)20,000 .. 50,0000%00:00 (00:00)C.A.WitheyC.A.Withey
128 VKT Prime System Crash Feb 6, 2019 N/AN/A (N/A)0 .. 20,0000%00:00 (00:00)Frutgames
129 The Pepper Prince: Episode 1 - Red Hot Chili Wedding Jan 3, 2019 FreeN/A (N/A)0 .. 20,0000%00:00 (00:00)Hypnotic OwlHypnotic Owl
130 Hir Corruption Nov 28, 2018 N/AN/A (N/A)0 .. 20,0000%00:00 (00:00)JustE Publishing
131 Automobiels and the Eisenhower Hiway System the Game Nov 1, 2018 FreeN/A (N/A)0 .. 20,0000%00:00 (00:00)Jeffrey MarshJeffrey marsh
132 Red and Blue ~ Cycles of Existence Sep 25, 2018 N/AN/A (N/A)0 .. 20,0000%00:00 (00:00)Etqan Company
133 Just One Line Sep 12, 2018 FreeN/A (N/A)0 .. 20,0000%00:00 (00:00)JOL StudiosJOL Studios
134 Entre-Deux: Cursed Sep 12, 2018 N/AN/A (N/A)0 .. 20,0000%00:00 (00:00)T1 Games
135 A.L.A.N.: Rift Breakers Sep 5, 2018 N/AN/A (N/A)0 .. 20,0000%00:00 (00:00)CasGames
136 We Are Terror: The First Days Sep 1, 2018 FreeN/A (N/A)0 .. 20,0000%00:00 (00:00)KuzcopiaHDamas
137 Me Smart Orc Aug 28, 2018 FreeN/A (N/A)20,000 .. 50,0000%00:00 (00:00)Bill RicardiBill Ricardi
138 Hack the Core Aug 23, 2018 N/AN/A (N/A)0 .. 20,0000%00:00 (00:00)Plug In Digital
139 Les 4 Alice: Lorange Journey Aug 13, 2018 N/AN/A (N/A)0 .. 20,0000%00:00 (00:00)PalveGames
140 Downtown Mafia: Gang Wars Jul 25, 2018 FreeN/A (N/A)50,000 .. 100,0000%00:00 (00:00)DYNAMICNEXTDYNAMICNEXT
141 Non-Linear Text Quests Jul 24, 2018 FreeN/A (N/A)0 .. 20,0000%00:00 (00:00)NLB projectNLB project
142 Fighting Fantasy Classics Jun 5, 2018 FreeN/A (N/A)50,000 .. 100,0000%00:00 (00:00)Tin Man GamesTin Man Games
143 Penny Black May 17, 2018 FreeN/A (N/A)0 .. 20,0000%00:00 (00:00)Bobby ZealBobby Zeal
144 Idle Adventure Apr 13, 2018 FreeN/A (N/A)100,000 .. 200,0000%00:00 (00:00)zha7, Phaedruns, Yingke Wuzha7
145 Chess: King of Crowns Chess Online Mar 27, 2018 N/AN/A (N/A)20,000 .. 50,0000%00:00 (00:00)nonenone
146 Kare wa Kanojo Jan 5, 2018 N/AN/A (N/A)0 .. 20,0000%00:00 (00:00)JMF GamesJMF Games
147 Holyday City: Reloaded Dec 14, 2017 FreeN/A (N/A)200,000 .. 500,0000%00:00 (00:00)Holyday StudiosHolyday Studios
148 Vacation: dayOFF Dec 12, 2017 FreeN/A (N/A)0 .. 20,0000%00:00 (00:00)turninGear-In.
149 Don't Make Love Oct 26, 2017 FreeN/A (N/A)20,000 .. 50,0000%00:00 (00:00)MaggeseMaggese
150 City of Ages: Picture Supportive Text MUD (server and client included) Oct 23, 2017 FreeN/A (N/A)0 .. 20,0000%00:00 (00:00)Darren N LoryFormsmatter
151 Les Quatre Alices Aug 28, 2017 N/AN/A (N/A)0 .. 20,0000%00:00 (00:00)Paradise Project
152 MINDNIGHT Aug 4, 2017 FreeN/A (N/A)200,000 .. 500,0000%00:00 (00:00)No MoonNo Moon
153 The Adliberum Engine (ADLENGINE) Jun 23, 2017 FreeN/A (N/A)0 .. 20,0000%00:00 (00:00)Liam TwoseLiam Twose
154 Detective Butler: Maiden Voyage Murder May 26, 2017 FreeN/A (N/A)50,000 .. 100,0000%00:00 (00:00)Goldbar GamesGoldbar Games
155 Blossoms Bloom Brightest Apr 28, 2017 N/AN/A (N/A)0 .. 20,0000%00:00 (00:00)Reine WorksReine Works
156 Ishmael Apr 7, 2017 FreeN/A (N/A)0 .. 20,0000%00:00 (00:00)Jordan MagnusonJordan Magnuson
157 Lifeline Mar 16, 2017 N/AN/A (N/A)0 .. 20,0000%00:00 (00:00)3 Minute GamesBig Fish Games
158 Idling to Rule the Gods May 27, 2016 FreeN/A (N/A)200,000 .. 500,0000%00:00 (00:00)Shugasu GmbHShugasu GmbH
159 One Way To Die Sep 1, 2015 FreeN/A (N/A)50,000 .. 100,0000%00:00 (00:00)CoaguCo IndustriesCoaguCo Industries
160 Mainland May 8, 2015 FreeN/A (N/A)100,000 .. 200,0000%00:00 (00:00)Vasily Voronkov, Ryan Joseph, Peter KosyhINSTEAD Community
161 Depression Quest Aug 11, 2014 N/AN/A (N/A)200,000 .. 500,0000%00:00 (00:00)The Quinnspiracy, Patrick Lindsey, Isaac SchanklerThe Quinnspiracy
162 EnviroGolf Jan 15, 2014 FreeN/A (N/A)0 .. 20,0000%00:00 (00:00)Seemingly PointlessSeemingly Pointless
163 国产手机帝国-Mobile phone empire Jan 5, 2023 $3.99N/A (N/A)0 .. 20,0000%00:00 (00:00)文字TV, 文字TV文字模拟游戏TV
164 タイピングで愛を伝えよ Jan 5, 2023 $1.99N/A (N/A)0 .. 20,0000%00:00 (00:00)INORK GameINORK Game
165 The Fernweh Saga: Book One Jan 5, 2023 $7.99N/A (N/A)0 .. 20,0000%00:00 (00:00)Hosted GamesHosted Games
166 Beneath Her Starry Sky Jan 4, 2023 $14.99N/A (N/A)20,000 .. 50,0000%00:00 (00:00)Sylphsong, Inc.Sylphsong, Inc.
167 《奇门遁甲》 Jan 1, 2023 $2.99N/A (N/A)0 .. 20,000100%02:10 (02:10)CSTG-小光CSTG-小光
168 여동생 ♡ 만들기 : 당신이 바라는 소녀의 모습 - Teen version Dec 31, 2022 $3.99N/A (N/A)0 .. 20,0000%00:00 (00:00)C's earthC's earth
169 AutoSim 2 Dec 30, 2022 $9.99N/A (N/A)0 .. 20,0000%00:00 (00:00)JoeTowNetwork, Sevag HJoeTowNetwork
170 The Apple Tree Dec 30, 2022 $13.99N/A (N/A)0 .. 20,0000%00:00 (00:00)Remnants of mosaicRemnants of mosaic
171 游戏策划面试模拟器 Dec 29, 2022 $0.99N/A (N/A)0 .. 20,0000%00:00 (00:00)小W的游戏开发互助组小W的游戏开发互助组
172 The Passenger Dec 29, 2022 $6.99N/A (N/A)0 .. 20,0000%00:00 (00:00)Hosted GamesHosted Games
173 Fairy Deer Dec 29, 2022 $1.39N/A (N/A)0 .. 20,0000%00:00 (00:00)Expedition GamesExpedition Games
174 小厨杂记 Dec 23, 2022 $2.99N/A (N/A)0 .. 20,0000%00:00 (00:00)山石山石
175 Didactic Jesus Game Dec 23, 2022 $3.99N/A (N/A)0 .. 20,0000%00:00 (00:00)Joan Sabé MartínezJoan Sabé Martínez
176 Turret Girl Dec 22, 2022 $6.99N/A (N/A)20,000 .. 50,0000%00:00 (00:00)OkaeriDevOkaeriDev
177 Cloudy Days Dec 22, 2022 $6.99N/A (N/A)0 .. 20,0000%00:00 (00:00)OvercastOvercast
178 Wrestling Manager 2023 Dec 22, 2022 $9.99N/A (N/A)0 .. 20,0000%00:00 (00:00)Wrestling Games StudioWrestling Games Studio
179 The Sentient Box Dec 22, 2022 $8.99N/A (N/A)0 .. 20,0000%00:00 (00:00)Hybriona Technologies LLPHybriona Technologies LLP
180 Tyler Tactics Dec 22, 2022 $2.99N/A (N/A)0 .. 20,0000%00:00 (00:00)Bomb Sequitur GamesBomb Sequitur Games
181 《乱步馆》-断崖 -Precipice Dec 21, 2022 $0.99N/A (N/A)50,000 .. 100,0000%00:00 (00:00)多年以后的卡米拉多年以后的卡米拉
182 Warsim: The Realm of Aslona Dec 20, 2022 $9.99N/A (N/A)20,000 .. 50,0000%00:00 (00:00)Huw MillwardHuw Millward
183 Sakura Gym Girls Dec 19, 2022 $9.99N/A (N/A)0 .. 20,0000%00:00 (00:00)Winged CloudWinged Cloud
184 CaseCracker Dec 19, 2022 $9.99N/A (N/A)50,000 .. 100,00022.22%01:37 (01:04)BlackRobeIndieArk
185 The Neverland of the Mountain and Sea Dec 18, 2022 $9.99N/A (N/A)0 .. 20,0000%00:00 (00:00)Magenta FactoryMagenta Factory
186 Crystal Winter Dec 17, 2022 $2.99N/A (N/A)100,000 .. 200,0000%00:00 (00:00)Izimov A.Izimov A.
187 汉字大冒险 Dec 17, 2022 $3.49N/A (N/A)0 .. 20,0000%00:00 (00:00)InsVolcStudioInsVolcStudio
188 江湖百异图 Dec 16, 2022 $13.99N/A (N/A)20,000 .. 50,0000%00:00 (00:00)恒睿游戏恒睿游戏
189 私のリアルは充実しすぎている フルボイス版 Dec 15, 2022 $9.99N/A (N/A)50,000 .. 100,0000%00:00 (00:00)TetraScopeHotchPotch K.K., 346lab Localization
190 Insomnia: Theater in the Head Dec 15, 2022 $2.49N/A (N/A)50,000 .. 100,0000%00:00 (00:00)Perfect Day StudioPerfect Day Studio
191 Choice of the Viking Dec 15, 2022 $7.99N/A (N/A)0 .. 20,0000%00:00 (00:00)Choice of GamesChoice of Games
192 Scary pictures: Yavez - seven deadly sins Dec 14, 2022 $1.99N/A (N/A)20,000 .. 50,0000%00:00 (00:00)DeilRoXDevDeilRoXEntertainment
193 Nightmare knock Dec 14, 2022 $0.99N/A (N/A)0 .. 20,0000%00:00 (00:00)FreezyCatFreezyCat
194 Wrapped With a Kiss Dec 12, 2022 $4.99N/A (N/A)0 .. 20,0000%00:00 (00:00)LegendEx GamesLegendEx Games
195 五代十国之玉知 Dec 12, 2022 $1.99N/A (N/A)0 .. 20,0000%00:00 (00:00)也尽也尽
196 Football Coach: College Dynasty Dec 11, 2022 $11.99N/A (N/A)0 .. 20,0000%00:00 (00:00)Coach AppsCoach Apps
197 First Snow Dec 9, 2022 $9.99N/A (N/A)0 .. 20,0000%00:00 (00:00)Studio LyPsychoFlux Entertainment
198 Arcadie: Second-Born Dec 9, 2022 $7.99N/A (N/A)0 .. 20,0000%00:00 (00:00)Arcadie & UtopieArcadie & Utopie
199 The Googol Clicker Dec 9, 2022 $2.99N/A (N/A)0 .. 20,0000%00:00 (00:00)PaulArtPaulArt
200 This is a Ghost Dec 9, 2022 $14.99N/A (N/A)0 .. 20,000100%01:39 (01:39)Nuci GamesNuci Games
201 Professor of Magical Studies Dec 8, 2022 $8.99N/A (N/A)20,000 .. 50,0000%00:00 (00:00)Choice of GamesChoice of Games
202 Black Cycle Dec 6, 2022 $4.99N/A (N/A)0 .. 20,0000%00:00 (00:00)Katsuya AbeKatsuya Abe
203 Maskonauts: Chat'Attack Dec 5, 2022 $5.99N/A (N/A)0 .. 20,0000%00:00 (00:00)quanty banditquanty bandit
204 Slaughter Horse 2 Dec 5, 2022 $5.99N/A (N/A)20,000 .. 50,0000%00:00 (00:00)Catfood McFlyCatsmeat Studios
205 3 Households Dec 2, 2022 $13.99N/A (N/A)0 .. 20,0000%00:00 (00:00)EnergywhoissheEnergywhoisshe
206 Moth Lake: A Horror Story Dec 2, 2022 $7.99N/A (N/A)20,000 .. 50,0000%00:00 (00:00)Stefano Mazzotta (Il Sui)Sui Arts
207 十三月のふたり姫/The 13th month Dec 2, 2022 $19.99N/A (N/A)0 .. 20,0000%00:00 (00:00)Kobayashimaru LLCKobayashimaru LLC, kodansha games
208 Late photographer 6 Dec 1, 2022 $0.99N/A (N/A)0 .. 20,0000%00:00 (00:00)okyakusamaokyakusama
209 Lost in Memory Dec 1, 2022 $7.99N/A (N/A)0 .. 20,0000%00:00 (00:00)Snuggle bugSnuggle bug
210 幻境恋人-Fairy tale plan Dec 1, 2022 $11.99N/A (N/A)0 .. 20,0000%00:00 (00:00)橙光游戏橙光游戏
211 Super Planet Life Dec 1, 2022 $8.99N/A (N/A)0 .. 20,0000%00:00 (00:00)NorthplayNorthplay
212 Kiss the Demiurge Dec 1, 2022 $5.99N/A (N/A)0 .. 20,0000%00:00 (00:00)YuriEurekaYuriEureka
213 Scandal Notes Dec 1, 2022 $4.99N/A (N/A)0 .. 20,0000%00:00 (00:00)Heart's ChoiceHeart's Choice
214 Derision Nov 30, 2022 $0.99N/A (N/A)0 .. 20,0000%00:00 (00:00)AnatolioAnatolio
215 俺が私に変わった日…~Becoming a She~ Nov 30, 2022 $19.99N/A (N/A)0 .. 20,0000%00:00 (00:00)CyberStep, Inc., Rideon Works Co. Ltd,CyberStep, Inc.
216 EXECUTE DADDY~パパが何度も死ぬゲーム~ Nov 30, 2022 $19.99N/A (N/A)0 .. 20,0000%00:00 (00:00)Katusada Labo, カツサダ研究所Katusada Labo, カツサダ研究所
217 Chinese Characters Nov 29, 2022 $2.99N/A (N/A)0 .. 20,0000%00:00 (00:00)伏生游戏伏生游戏
218 Nightmare Inside Nov 28, 2022 $4.99N/A (N/A)0 .. 20,0000%00:00 (00:00)BeneluxBenelux
219 Elevenses: The Flask Nov 28, 2022 $2.99N/A (N/A)0 .. 20,0000%00:00 (00:00)REDRAYPsychoFlux Entertainment
220 目盲/Blind Nov 26, 2022 $2.99N/A (N/A)20,000 .. 50,0000%00:00 (00:00)GOCOREGOCORE
221 HOSPICE Vol. 1 Nov 24, 2022 $0.99N/A (N/A)0 .. 20,0000%00:00 (00:00)Dima FyuriyDima Fyuriy
222 Interplayer Nov 24, 2022 $2.99N/A (N/A)0 .. 20,0000%00:00 (00:00)hnahna
223 Teahouse of the Gods Nov 23, 2022 $6.99N/A (N/A)20,000 .. 50,0000%00:00 (00:00)Choice of GamesChoice of Games
224 Futtony y el Copón Mundial Nov 23, 2022 $4.19N/A (N/A)0 .. 20,0000%00:00 (00:00)Protony GamesElbenCraft
225 重返现场 Nov 23, 2022 $9.99N/A (N/A)0 .. 20,0000%00:00 (00:00)欢乐不二CubeGame
226 会计模拟器 Nov 21, 2022 $19.99N/A (N/A)0 .. 20,0000%00:00 (00:00)曲波曲波
227 Please Be Happy Nov 21, 2022 $19.99N/A (N/A)0 .. 20,0000%00:00 (00:00)Studio ÉlanSekai Project, Studio Élan
228 七星探偵倶楽部~黄金虫たちの帰巣~ Nov 18, 2022 $9.99N/A (N/A)20,000 .. 50,0000%00:00 (00:00)POTGAMESPOTGAMES
229 No Random Novels Nov 17, 2022 $29.99N/A (N/A)0 .. 20,0000%00:00 (00:00)IndigoAK Communications
230 I'll save the world of harem - Isekai Harem Saver - Nov 16, 2022 $19.99N/A (N/A)0 .. 20,0000%00:00 (00:00)CyberStep, Inc., Rideon Works Co. Ltd,CyberStep, Inc.
231 꿈을 빼앗긴 남자 - Dream invader Nov 16, 2022 $4.99N/A (N/A)0 .. 20,0000%00:00 (00:00)C's earthC's earth
232 GOODBYE WORLD Nov 16, 2022 $11.99N/A (N/A)0 .. 20,0000%00:00 (00:00)YO FUJIIFlyhigh Works, IndieArk
233 うんこタイピング Nov 15, 2022 $5.99N/A (N/A)0 .. 20,0000%00:00 (00:00)INORK GameINORK Game
234 그녀가 다시 노래할 때까지. Nov 14, 2022 $4.99N/A (N/A)0 .. 20,0000%00:00 (00:00)TS-ProjectTS-Project
235 The Bible Nov 14, 2022 $14.99N/A (N/A)0 .. 20,0000%00:00 (00:00)Bible GamesBible Games
236 Watashi Suzume Nov 14, 2022 $9.99N/A (N/A)0 .. 20,0000%00:00 (00:00)Shamrock Creations LLC.Shamrock Creations LLC.
237 Mining Copper Nov 11, 2022 $3.99N/A (N/A)0 .. 20,0000%00:00 (00:00)YamateYamate
238 The Sports Trivia Challenge Nov 11, 2022 $0.99N/A (N/A)0 .. 20,0000%00:00 (00:00)LoadUpGames.comLoadUpGames.com
239 Gore Screaming Show Nov 11, 2022 $29.99N/A (N/A)0 .. 20,0000%00:00 (00:00)Black CycJAST
240 Skystrike: Wings of Justice Nov 10, 2022 $7.99N/A (N/A)0 .. 20,0000%00:00 (00:00)Choice of GamesChoice of Games
241 Championship Wrestling Promoter Nov 9, 2022 $19.99N/A (N/A)0 .. 20,0000%00:00 (00:00)Pykrete GamesPykrete Games
242 Urban Night Battle Girl Nov 8, 2022 $1.99N/A (N/A)0 .. 20,0000%00:00 (00:00)OD GameOD Game
243 Franchise Hockey Manager 9 Nov 8, 2022 $39.99N/A (N/A)0 .. 20,0000%00:00 (00:00)Out of the Park Developments, game54 SoftwareOut of the Park Developments
244 Football Manager 2023 Nov 7, 2022 $47.99N/A (N/A)500,000 .. 1,000,00056.52%15:39 (25:13)Sports InteractiveSEGA
245 The Music Trivia Challenge Nov 4, 2022 $0.99N/A (N/A)0 .. 20,0000%00:00 (00:00)LoadUpGames.comLoadUpGames.com
246 Raspberry Cube Nov 4, 2022 $29.99N/A (N/A)0 .. 20,0000%00:00 (00:00)madosoftSekai Project
247 Talon City: Death from Above Nov 3, 2022 $4.99N/A (N/A)0 .. 20,0000%00:00 (00:00)Hosted GamesHosted Games
248 How to Say Goodbye Nov 3, 2022 $12.99N/A (N/A)0 .. 20,0000%00:00 (00:00)Florian Veltman, Baptiste Portefaix, ARTE FranceARTE France
249 Interrogation Simulator Oct 31, 2022 $1.99N/A (N/A)0 .. 20,0000%00:00 (00:00)Otis MillerFire Cycle Games
250 自在逍遥:风起 Tales of TianYuan Dynasty Oct 30, 2022 $5.99N/A (N/A)0 .. 20,0000%00:00 (00:00)Uniiao GameUniiao Game
251 SOWON Oct 28, 2022 $16.99N/A (N/A)0 .. 20,0000%00:00 (00:00)PUMPKIMPUMPKIM
252 恋爱绮谭 不存在的真相 Oct 28, 2022 $11.89N/A (N/A)20,000 .. 50,0000%00:00 (00:00)Never Knows BestNever Knows Best
253 ALPHA-NIGHTHAWK Oct 27, 2022 $19.99N/A (N/A)0 .. 20,0000%00:00 (00:00)Liar-softShiravune
254 A Crown of Sorcery and Steel Oct 27, 2022 $8.99N/A (N/A)0 .. 20,0000%00:00 (00:00)Choice of GamesChoice of Games
255 冒险与魔法 Oct 26, 2022 $2.99N/A (N/A)0 .. 20,0000%00:00 (00:00)简简单单说简单工作室简简单单说简单工作室
256 My Big Sister: Remastered Oct 25, 2022 $3.99N/A (N/A)0 .. 20,0000%00:00 (00:00)Stranga GamesGrabTheGames
257 WikiArena Oct 25, 2022 $1.99N/A (N/A)0 .. 20,0000%00:00 (00:00)LudokulturLudokultur
258 Murder Is Game Over Oct 25, 2022 $4.99N/A (N/A)0 .. 20,0000%00:00 (00:00)Hitheryon GamesMeridian4
259 Platonically Mauled by a Magic Cougar Oct 24, 2022 $14.99N/A (N/A)0 .. 20,0000%00:00 (00:00)AppetiteShiravune
260 Dear Nostalgia Oct 24, 2022 $1.99N/A (N/A)0 .. 20,0000%00:00 (00:00)ExoDark StudiosExoDark Studios
261 Personal Chef to the Stars Oct 24, 2022 $8.99N/A (N/A)0 .. 20,0000%00:00 (00:00)Double Peach ProductionsLittle Black Book Entertainment
262 Monster Prom 3: Monster Roadtrip Oct 21, 2022 $11.99N/A (N/A)50,000 .. 100,0000%00:00 (00:00)Beautiful GlitchBeautiful Glitch
263 With Good Intentions Oct 20, 2022 $14.99N/A (N/A)20,000 .. 50,0000%00:00 (00:00)Brezg StudioGolden Dragon Games
264 Cthulhu Mythos ADV Lunatic Whispers Oct 18, 2022 $9.99N/A (N/A)20,000 .. 50,0000%00:00 (00:00)Gotcha Gotcha GamesGotcha Gotcha Games
265 Walking In The Abyss Oct 17, 2022 $0.99N/A (N/A)0 .. 20,0000%00:00 (00:00)Studio GuirdyStudio Guirdy
266 Link Bomb☆Party/链接炸弹☆派对 Oct 14, 2022 $2.99N/A (N/A)0 .. 20,0000%00:00 (00:00)LOP GamesLOP Games
267 海峡の故郷 Oct 14, 2022 $4.99N/A (N/A)0 .. 20,0000%00:00 (00:00)ロジマガやまひ
268 Vs Chat Pack Oct 13, 2022 $11.24N/A (N/A)0 .. 20,0000%00:00 (00:00)KevDK GamesKevDK Games
269 Be My Loyal Subject - Historical Boys Love (BL) Visual Novel Oct 13, 2022 $3.49N/A (N/A)0 .. 20,0000%00:00 (00:00)ChaniMKChaniMK
270 异界双子 -Twin Souls- Oct 13, 2022 $1.99N/A (N/A)50,000 .. 100,0000%00:00 (00:00)staron animationstaron animation
271 Pitstop in Purgatory Oct 13, 2022 $4.99N/A (N/A)0 .. 20,0000%00:00 (00:00)Tymedust GamesTymedust Games
272 Africa Empire 2027 Oct 12, 2022 $4.19N/A (N/A)0 .. 20,0000%00:00 (00:00)iGindisGamesiGindisGames
273 DnD Adventure: Rogue's Choice Oct 10, 2022 $4.99N/A (N/A)0 .. 20,0000%00:00 (00:00)CCSDelight Games
274 The Blood Amulet Oct 9, 2022 $12.99N/A (N/A)20,000 .. 50,0000%00:00 (00:00)Martin Thomas FluryMartin Thomas Flury
275 Asia Empire 2027 Oct 8, 2022 $6.99N/A (N/A)20,000 .. 50,0000%00:00 (00:00)iGindisGamesiGindisGames
276 Neuro Horror Oct 6, 2022 $0.99N/A (N/A)0 .. 20,0000%00:00 (00:00)AK StudioAK Studio
277 Exotica: Petshop Simulator Oct 1, 2022 $19.99N/A (N/A)0 .. 20,0000%00:00 (00:00)Konrul GameKonrul Game
278 Tarot for Storytelling Sep 30, 2022 $1.99N/A (N/A)0 .. 20,0000%00:00 (00:00)Denis VepsVepsän vändod
279 Learning Geography: Countries of the World Sep 29, 2022 $0.99N/A (N/A)0 .. 20,0000%00:00 (00:00)Tom's Feral Cat GamesTom's Feral Cat Games
280 活字引擎 Sep 29, 2022 $13.99N/A (N/A)0 .. 20,0000%00:00 (00:00)狸子Neazle狸子Neazle
281 Dawn of Kagura: Maika's Story - The Dragon's Wrath Sep 29, 2022 $19.99N/A (N/A)0 .. 20,0000%00:00 (00:00)Debonosu WorksShiravune
282 Mosaic Chronicles Sep 29, 2022 $9.99N/A (N/A)0 .. 20,0000%00:00 (00:00)Error 300Error 300, Gamersky Games
283 Paper Bride 3 Unresolved Love Sep 28, 2022 $9.99N/A (N/A)20,000 .. 50,0000%00:00 (00:00)HeartBeat PlusHeartBeat Plus
284 ValiDate: Struggling Singles in your Area Sep 28, 2022 $14.99N/A (N/A)0 .. 20,0000%00:00 (00:00)Veritable Joy StudiosVeritable Joy Studios
285 AQRA Tenses [Learn English] Sep 27, 2022 FreeN/A (N/A)0 .. 20,0000%00:00 (00:00)Samer HammamiSamer Hammami
286 Haunted Girls Sep 25, 2022 $4.99N/A (N/A)0 .. 20,0000%00:00 (00:00)ひとりサークル「匙投げ部」Waku Waku Games
287 Project Alex Sep 23, 2022 $2.99N/A (N/A)0 .. 20,0000%00:00 (00:00)PAWorksPAGames
288 The Billion Clicker Sep 23, 2022 $4.99N/A (N/A)0 .. 20,0000%00:00 (00:00)PaulArtPaulArt
289 Watamari - A Match Made in Heaven Part1 Sep 23, 2022 $18.99N/A (N/A)0 .. 20,0000%00:00 (00:00)Kuro Irodoru YomijiSekai Project
290 Ean's End Sep 20, 2022 $1.99N/A (N/A)0 .. 20,0000%00:00 (00:00)u_twinkle_staru_twinkle_star
291 Room 301 NO.6 Sep 20, 2022 $3.99N/A (N/A)0 .. 20,0000%00:00 (00:00)Inter Frame StudioGamera Games, YLS Program
292 Plan B - Goddess's cards Sep 16, 2022 $1.99N/A (N/A)0 .. 20,0000%00:00 (00:00)PP TecPP Tec
293 Card Survival: Tropical Island Sep 16, 2022 $24.99N/A (N/A)20,000 .. 50,00033.33%47:20 (23:40)WinterSpring GamesWinterSpring Games
294 恋ひ焦がるるカミカクシ Sep 12, 2022 $14.99N/A (N/A)0 .. 20,0000%00:00 (00:00)GloryFieldGloryField
295 モノマギア・カンタービレ Sep 12, 2022 $29.99N/A (N/A)0 .. 20,0000%00:00 (00:00)MBA INTERNATIONALMBA INTERNATIONAL
296 AIdventure Sep 12, 2022 $12N/A (N/A)0 .. 20,0000%00:00 (00:00)Lyaaaaa GamesLyaaaaa Games
297 回忆画册~MemoriesAlbum~ Sep 9, 2022 $4.99N/A (N/A)0 .. 20,0000%00:00 (00:00)RubyHaruSoftwareRubyHaruSoftware
298 Socialism Simulator Sep 9, 2022 $3.99N/A (N/A)0 .. 20,0000%00:00 (00:00)Sempiternal RainSempiternal Rain
299 HimeYoku: A Sacrifice of Lust and Grace Sep 8, 2022 $19.99N/A (N/A)0 .. 20,0000%00:00 (00:00)Escu:deShiravune
300 Odd Guy Meets Odd Farmers - Comedy Boys Love (BL) Visual Novel Sep 8, 2022 $3.49N/A (N/A)0 .. 20,0000%00:00 (00:00)ChaniMKChaniMK
301 Mottia - The gem hunters Sep 8, 2022 $5.99N/A (N/A)0 .. 20,0000%00:00 (00:00)4 hats4 hats
302 Mozart Requiem Sep 7, 2022 $29.99N/A (N/A)20,000 .. 50,0000%00:00 (00:00)Hoplite Research LLCGS2 Games Inc, Funbox Media Ltd
303 From atom to modern Sep 6, 2022 $4.99N/A (N/A)0 .. 20,0000%00:00 (00:00)YamateYamate
304 Arc Intelligence Sep 6, 2022 $4.99N/A (N/A)0 .. 20,0000%00:00 (00:00)Church of AI ChristChurch of AI Christ
305 Drakkon World Builder Sep 1, 2022 $2.99N/A (N/A)20,000 .. 50,0000%00:00 (00:00)Electric Falcon LLCElectric Falcon LLC
306 Kardun Sep 1, 2022 $3.99N/A (N/A)0 .. 20,0000%00:00 (00:00)RokasRokas
307 Spam Text Sep 1, 2022 $2.99N/A (N/A)0 .. 20,0000%00:00 (00:00)Half-Eaten EntertainmentHalf-Eaten Entertainment
308 LO FI - A YEAR TO FULFILL MY DREAM.mp3 Sep 1, 2022 $6.99N/A (N/A)0 .. 20,0000%00:00 (00:00)Ponpipaipidupi, Saukutsuki, Chin_719, Wu_JoJoRotating Gear Studio
309 Omi Oh My AI Sep 1, 2022 $9.99N/A (N/A)0 .. 20,0000%00:00 (00:00)EverySecond StudioEverySecond Studio
310 Draft Day Sports: College Football 2023 Aug 31, 2022 $39.99N/A (N/A)0 .. 20,0000%00:00 (00:00)Wolverine StudiosWolverine Studios
311 I Can't Hear Your Words, So I Want To Listen To Your Heart Aug 30, 2022 $1.74N/A (N/A)0 .. 20,0000%00:00 (00:00)箱崎奈绪(Hakozaki Nao)箱崎奈绪(Hakozaki Nao)
312 The Monster Under Your Skin Aug 29, 2022 $5.99N/A (N/A)0 .. 20,0000%00:00 (00:00)Róman ORóman O
313 My Divorce Story Aug 29, 2022 $7.99N/A (N/A)0 .. 20,0000%00:00 (00:00)NONIL STUDIOCFK Co., Ltd.
314 Fishing Game Aug 25, 2022 $1.99N/A (N/A)0 .. 20,0000%00:00 (00:00)louis morelOakrot Games
315 슬픈 가족사 - 산장으로부터의 탈출 Aug 25, 2022 $6.99N/A (N/A)0 .. 20,0000%00:00 (00:00)C's earthC's earth
316 Noblesse Oblige Aug 25, 2022 $4.99N/A (N/A)0 .. 20,0000%00:00 (00:00)Choice of GamesChoice of Games
317 外道催眠術師と囚われのマリオネット - The Savage Hypnotist's Puppets - Aug 24, 2022 $19.99N/A (N/A)0 .. 20,0000%00:00 (00:00)CyberStep, Inc., Rideon Works Co. Ltd,CyberStep, Inc.
318 LA FORET DE PAGO 2 : SOUVENIR DE GLACE Aug 24, 2022 $11.99N/A (N/A)20,000 .. 50,0000%00:00 (00:00)FuturtechNova's Army
319 Are You Smarter Than A 5th Grader Aug 23, 2022 $29.99N/A (N/A)0 .. 20,0000%00:00 (00:00)Massive MiniteamHandyGames
320 The witch of the Ihanashi Aug 19, 2022 $19.99N/A (N/A)0 .. 20,0000%00:00 (00:00)FragariaFragaria, Seikei Production
321 Soul Light Aug 19, 2022 $6.99N/A (N/A)0 .. 20,0000%00:00 (00:00)VorobushekVorobushek
322 Heart of Battle Aug 18, 2022 $6.99N/A (N/A)0 .. 20,0000%00:00 (00:00)Heart's ChoiceHeart's Choice
323 Eyes Over Us Aug 18, 2022 $2.99N/A (N/A)20,000 .. 50,0000%00:00 (00:00)Curse Box StudiosCurse Box Studios
324 Anvil Life Aug 17, 2022 $2.99N/A (N/A)50,000 .. 100,0000%00:00 (00:00)Emre BulutEmre Bulut
325 Easy Poetry Aug 17, 2022 $49.99N/A (N/A)0 .. 20,0000%00:00 (00:00)Egg Fried RiceEgg Fried Rice
326 My Cat Girl Lover Aug 15, 2022 $1.99N/A (N/A)0 .. 20,0000%00:00 (00:00)琉璃花糖制作组, Garakowa MarshmallowWindField Games, 琉璃花糖制作组, Garakowa Marshmallow
327 Ferrule Instincts Aug 12, 2022 $2.99N/A (N/A)0 .. 20,0000%00:00 (00:00)Yellow OpticYellow Optic
328 Re;quartz零度 Aug 12, 2022 $34.99N/A (N/A)0 .. 20,0000%00:00 (00:00)B-clusterB-cluster
329 Animal Trail ☆ Girlish Square Aug 12, 2022 $14.99N/A (N/A)0 .. 20,0000%00:00 (00:00)WhirlpoolSekai Project
330 Paranormal Preparatory School Aug 11, 2022 $6.99N/A (N/A)0 .. 20,0000%00:00 (00:00)Choice of Games LLCChoice of Games LLC
331 Revenge of the Orcs: Flag of Conquest Aug 11, 2022 $14.99N/A (N/A)0 .. 20,0000%00:00 (00:00)DieselmineShiravune
332 Milliopoly - Language Quiz and Learning Aug 9, 2022 $9.99N/A (N/A)0 .. 20,0000%00:00 (00:00)Aurora - Mídia & GamesAurora - Mídia & Games
333 Miko no Kanata: Curious Tales from Oguni Shrine -Cycles- Aug 5, 2022 $12.99N/A (N/A)0 .. 20,0000%00:00 (00:00)Fan-naSekai Project
334 Great Deceiver Aug 4, 2022 $19.99N/A (N/A)0 .. 20,0000%00:00 (00:00)Empress, ElfShiravune
335 A Mage Reborn Aug 4, 2022 $4.99N/A (N/A)0 .. 20,0000%00:00 (00:00)Hosted GamesHosted Games
336 Hooked on You: A Dead by Daylight Dating Sim Aug 3, 2022 $9.99N/A (N/A)100,000 .. 200,00015.38%03:17 (02:11)PsyopBehaviour Interactive Inc.
337 Fight For It Aug 3, 2022 $4.99N/A (N/A)0 .. 20,0000%00:00 (00:00)3xl3xl
338 In Your Books Aug 3, 2022 $7.99N/A (N/A)0 .. 20,0000%00:00 (00:00)UnderhillUnderhill
339 All Ashes and Illusions Aug 3, 2022 $12.99N/A (N/A)0 .. 20,0000%00:00 (00:00)ebi-himeebi-hime
340 Koncolos Aug 2, 2022 $4.99N/A (N/A)0 .. 20,0000%00:00 (00:00)Deniz KayacanDeniz Kayacan
341 War of Bellrook Aug 1, 2022 $3.99N/A (N/A)0 .. 20,0000%00:00 (00:00)Plagen ShikiPlagen Shiki
342 The Dragon and the Djinn Jul 28, 2022 $8.99N/A (N/A)0 .. 20,0000%00:00 (00:00)Choice of GamesChoice of Games
343 Findme ~30才の夢追い人~ Jul 28, 2022 $4.99N/A (N/A)0 .. 20,0000%00:00 (00:00)三ノ宮グループBlue Moon
344 피랍 일지 - 그 남자로부터의 탈출 Jul 28, 2022 $3.99N/A (N/A)20,000 .. 50,0000%00:00 (00:00)C's earthC's earth
345 Star Boss Jul 28, 2022 $7.99N/A (N/A)0 .. 20,0000%00:00 (00:00)BeautifulWorldBeautifulWorld
346 Fastest Fantasy Life Simulator Jul 26, 2022 $0.99N/A (N/A)0 .. 20,0000%00:00 (00:00)Rand.Exe StudiosRand.Exe Studios
347 幻恋逢星之时 Jul 26, 2022 $13.99N/A (N/A)0 .. 20,0000%00:00 (00:00)风月同天工作室风月同天工作室
348 AnotherQuizzGame Jul 26, 2022 $5.99N/A (N/A)0 .. 20,0000%00:00 (00:00)VorTeXDevVorTeXDev
349 Chameleon - DYH Jul 25, 2022 $9.99N/A (N/A)0 .. 20,0000%00:00 (00:00)DYHWinCode
350 CozyTyper Jul 22, 2022 $4.99N/A (N/A)0 .. 20,0000%00:00 (00:00)imophiimophi
351 미연시 시뮬레이터 : 미소녀 게임의 주인공을 조종하는 게임 Jul 21, 2022 $2.99N/A (N/A)0 .. 20,0000%00:00 (00:00)C's earthC's earth
352 Pathogen Jul 21, 2022 $5.99N/A (N/A)0 .. 20,0000%00:00 (00:00)LMJLMJ
353 Azrael Jul 21, 2022 $1.99N/A (N/A)0 .. 20,0000%00:00 (00:00)Spafnar StudiosSpafnar Studios
354 Hell of Sins: soul Jul 21, 2022 $8.99N/A (N/A)0 .. 20,0000%00:00 (00:00)GHF GAMEGamera Games
355 Target:Summit(目标:登顶 ) Jul 21, 2022 $1.99N/A (N/A)0 .. 20,0000%00:00 (00:00)LosingIsFun StudioLosingIsFun Studio
356 晴末置雨 Jul 20, 2022 $1.99N/A (N/A)0 .. 20,0000%00:00 (00:00)置雨制作组龍之咲, WindField Games
357 Muv-Luv Alternative Total Eclipse Remastered Jul 20, 2022 $27.99N/A (N/A)0 .. 20,0000%00:00 (00:00)aNCHOR Inc., fuzz, Inc.aNCHOR Inc.
358 Victorian Debutante Jul 20, 2022 $4.99N/A (N/A)0 .. 20,0000%00:00 (00:00)Liquid DarknessLiquid Darkness
359 Ansiolisis Jul 19, 2022 $1.99N/A (N/A)50,000 .. 100,0000%00:00 (00:00)JuneJune
360 A Pact With Me - Boys Love (BL) Visual Novel Jul 16, 2022 $3.49N/A (N/A)0 .. 20,0000%00:00 (00:00)ChaniMKChaniMK
361 Cheese Runner Jul 14, 2022 $2.99N/A (N/A)50,000 .. 100,0000%00:00 (00:00)Kai HutchenceMassive Corporation Game Studios
362 Profession investigator Jul 13, 2022 $12.99N/A (N/A)0 .. 20,0000%00:00 (00:00)Indie-GeekIndie-Geek
363 Second Thoughts Jul 12, 2022 $1.99N/A (N/A)0 .. 20,0000%00:00 (00:00)Gestmorph GamesGestmorph Games
364 Escape From Hard Drive Jul 11, 2022 $6.99N/A (N/A)0 .. 20,0000%00:00 (00:00)FewjixFewjix
365 Drifter's Tales Jul 9, 2022 $4.99N/A (N/A)0 .. 20,0000%00:00 (00:00)Teddy GandonThe First Spine
366 The Sword of Rhivenia Jul 7, 2022 $7.99N/A (N/A)0 .. 20,0000%00:00 (00:00)Hosted GamesHosted Games
367 Seven Deadly Dates Jul 7, 2022 $6.99N/A (N/A)0 .. 20,0000%00:00 (00:00)MythiKiwiMythiKiwi
368 NIRAVASI Jul 6, 2022 $9.99N/A (N/A)0 .. 20,0000%00:00 (00:00)SOVERAMSOVERAM
369 Whisper Books Jul 1, 2022 $5.99N/A (N/A)50,000 .. 100,0000%00:00 (00:00)滑稽猫滑稽猫
370 Interactive Fiction and Adventure Creator (IFAC) Jun 30, 2022 $29.99N/A (N/A)0 .. 20,0000%00:00 (00:00)Andy JenningsCodeUpNYC
371 Pimania Jun 28, 2022 $1.99N/A (N/A)0 .. 20,0000%00:00 (00:00)Automata UKPixel Games UK
372 你与选择 You and Choice Jun 25, 2022 $0.99N/A (N/A)0 .. 20,0000%00:00 (00:00)灵虚之幽灵虚之幽
373 Yonder World: Interview with the Void Jun 23, 2022 $12.99N/A (N/A)0 .. 20,0000%00:00 (00:00)Fluttering AbyssFluttering Abyss
374 Social Services of the Doomed Jun 23, 2022 $7.99N/A (N/A)0 .. 20,0000%00:00 (00:00)Choice of GamesChoice of Games
375 30 days in red army Jun 22, 2022 $2.99N/A (N/A)0 .. 20,0000%00:00 (00:00)Eny Project s.r.o.Eny Project s.r.o.
376 Krypt Jun 21, 2022 $1.99N/A (N/A)0 .. 20,0000%00:00 (00:00)Sean Murley, Billy CoeSW Games
377 懒人修仙传2 Jun 21, 2022 $7.99N/A (N/A)50,000 .. 100,0000%00:00 (00:00)托更的修罗托更的修罗
378 xiuzhen idle Jun 20, 2022 $3.99N/A (N/A)100,000 .. 200,00050%03:11 (01:35)游戏养家工作室跪求愿望
379 我感染HIV了吗 Jun 20, 2022 $0.99N/A (N/A)20,000 .. 50,0000%00:00 (00:00)硬石工作室硬石工作室
380 New Year's Eve Miracle Jun 20, 2022 $1.99N/A (N/A)0 .. 20,0000%00:00 (00:00)Poesha GamesPoesha Games
381 WORDLAND - Let's Travel Jun 20, 2022 $1.99N/A (N/A)0 .. 20,0000%00:00 (00:00)Robotizar GamesRobotizar Games
382 三国英雄坛 Jun 17, 2022 $0.99N/A (N/A)0 .. 20,0000%00:00 (00:00)Bob GameBob Game
383 DnD Adventure: Wizard's Choice Jun 15, 2022 $4.99N/A (N/A)0 .. 20,0000%00:00 (00:00)CCSDelight Games
384 The Last Bastion Jun 15, 2022 $14.99N/A (N/A)0 .. 20,0000%00:00 (00:00)Voidpeak GamesVoidpeak Games
385 Hardcore Trivia Jun 14, 2022 $3.99N/A (N/A)0 .. 20,0000%00:00 (00:00)F-GamesJTS Development
386 Mugsy & Mugsy's Revenge Jun 13, 2022 $2.99N/A (N/A)0 .. 20,0000%00:00 (00:00)Beam Software, Melbourne HousePixel Games UK
387 『絵話 -kaiwa-』 Jun 7, 2022 $4.99N/A (N/A)0 .. 20,0000%00:00 (00:00)852話852話
388 停留此刻 Stay in the moment Jun 3, 2022 $0.99N/A (N/A)0 .. 20,0000%00:00 (00:00)遇见咖啡厅遇见咖啡厅
389 The Golden Rose: Book One Jun 2, 2022 $11.99N/A (N/A)0 .. 20,0000%00:00 (00:00)Hosted GamesHosted Games
390 Hellscape Jun 1, 2022 $1.99N/A (N/A)0 .. 20,0000%00:00 (00:00)Dawson MatthewsDawson Matthews
391 Something Strange May 31, 2022 $0.99N/A (N/A)0 .. 20,0000%00:00 (00:00)Ethan ZimmerleMr. Hand
392 Godland : The Fire Quest May 31, 2022 $2.99N/A (N/A)50,000 .. 100,0000%00:00 (00:00)Rabah ChikhiRabah Chikhi
393 Ante Mortem May 31, 2022 $3.99N/A (N/A)0 .. 20,0000%00:00 (00:00)Neil AugereauCoffee Interactive
394 Love Delivery May 30, 2022 $14.99N/A (N/A)50,000 .. 100,0000%00:00 (00:00)Onfire GamesOnfire Games
395 Charlotte: Dragon Slayer May 29, 2022 $0.39N/A (N/A)50,000 .. 100,0000%00:00 (00:00)Succubella GamesAngel And Demons
396 Upirja May 29, 2022 $2.99N/A (N/A)20,000 .. 50,0000%00:00 (00:00)Sgriu SoftSgriu Soft
397 Freshman Magic: Spellbooks and Tangled Sheets May 26, 2022 $6.99N/A (N/A)0 .. 20,0000%00:00 (00:00)Heart's Choice LLCHeart's Choice LLC
398 Fabled Lands May 26, 2022 $18.99N/A (N/A)50,000 .. 100,0000%00:00 (00:00)Prime GamesPrime Games
399 Our Fate Forsaken - Boys Love (BL) Visual Novel May 20, 2022 $2.99N/A (N/A)0 .. 20,0000%00:00 (00:00)ChaniMKChaniMK
400 Will Die Alone May 19, 2022 $4.99N/A (N/A)0 .. 20,0000%00:00 (00:00)Arianna RavioliFantastico Studio
401 Heroes of Book & Paper May 18, 2022 $6.99N/A (N/A)0 .. 20,0000%00:00 (00:00)LeMachingaLeMachinga
402 World Seed May 17, 2022 FreeN/A (N/A)20,000 .. 50,0000%00:00 (00:00)KortesApe Egg
403 Tennis Manager 2022 May 17, 2022 $39.99N/A (N/A)0 .. 20,0000%00:00 (00:00)Rebound CGRebound CG
404 烛光迷局 Candlelight May 13, 2022 $1.99N/A (N/A)20,000 .. 50,0000%00:00 (00:00)正方形劳伦斯, Lawsquare133正方形劳伦斯
405 Kaverini Nuuk Adventures May 13, 2022 $9.99N/A (N/A)20,000 .. 50,0000%00:00 (00:00)Jared Gimbel, Kaverini KorpKaverini Korp
406 Cepheus Protocol Anthology Season 1 May 12, 2022 $4.99N/A (N/A)0 .. 20,0000%00:00 (00:00)Halcyon WindsHalcyon Winds
407 Nikola Tesla: War of the Currents May 12, 2022 $6.99N/A (N/A)0 .. 20,0000%00:00 (00:00)Choice of GamesChoice of Games
408 The Liminal May 10, 2022 $4.99N/A (N/A)0 .. 20,0000%00:00 (00:00)AmygdalumAmygdalum
409 最后的仙门 The last Practice Sect May 9, 2022 $3.99N/A (N/A)50,000 .. 100,0000%00:00 (00:00)栖鸾工作室栖鸾工作室
410 Absolute Tennis Manager May 9, 2022 $11.4N/A (N/A)0 .. 20,0000%00:00 (00:00)ATEMIXATEMIX
411 Naxos May 9, 2022 $2.99N/A (N/A)0 .. 20,0000%00:00 (00:00)PixelaborPixelabor
412 The Detail's In The Devils May 6, 2022 $0.99N/A (N/A)0 .. 20,0000%00:00 (00:00)Cameron James LowCameron James Low
413 How to Sing to Open Your Heart Remastered May 5, 2022 $14.99N/A (N/A)0 .. 20,0000%00:00 (00:00)ROSEVERTEROSEVERTE
414 游戏玩家中医体质测试及养生指南 May 5, 2022 $2.99N/A (N/A)0 .. 20,0000%00:00 (00:00)曲波曲波
415 Life of a Space Force Captain May 5, 2022 $5.99N/A (N/A)0 .. 20,0000%00:00 (00:00)Hosted GamesHosted Games
416 Paradox Factor May 5, 2022 $1.99N/A (N/A)0 .. 20,0000%00:00 (00:00)Hosted GamesHosted Games
417 Sky Caravan May 5, 2022 $9.99N/A (N/A)0 .. 20,0000%00:00 (00:00)Studio BravardaStudio Bravarda
418 Dere-chat May 5, 2022 $0.99N/A (N/A)0 .. 20,0000%00:00 (00:00)Sleepy_Fox_InteractiveSleepy_Fox_Interactive
419 Age of Grit May 3, 2022 $14.99N/A (N/A)0 .. 20,0000%00:00 (00:00)IQ SoupIQ Soup
420 The Missing Thing May 1, 2022 $2.99N/A (N/A)0 .. 20,0000%00:00 (00:00)Tommy GamesTommy Games
421 Parallelia Apr 29, 2022 $1.99N/A (N/A)0 .. 20,0000%00:00 (00:00)SincArt StudioSincArt Studio
422 Tasty Love Apr 28, 2022 $15.99N/A (N/A)0 .. 20,0000%00:00 (00:00)Drunken KittenDrunken Kitten
423 Knotwords Apr 28, 2022 $11.99N/A (N/A)0 .. 20,0000%00:00 (00:00)Zach Gage, Jack SchlesingerZach Gage
424 Trapper: Drug Dealing RPG Apr 28, 2022 $14.99N/A (N/A)0 .. 20,0000%00:00 (00:00)Sancho Lathon JrSancho Lathon Jr
425 Terranova Apr 27, 2022 $20.04N/A (N/A)0 .. 20,0000%00:00 (00:00)CJ Knight, Matt KnightStudio Terranova
426 Salome's Kiss Apr 26, 2022 $12.99N/A (N/A)0 .. 20,0000%00:00 (00:00)ebi-himeebi-hime
427 Hana no No ni Saku Utakata no Apr 22, 2022 $18.59N/A (N/A)0 .. 20,0000%00:00 (00:00)AppliqueHIKARI FIELD
428 Rocco's Inferno Apr 22, 2022 $2.99N/A (N/A)0 .. 20,0000%00:00 (00:00)Pupil 19 StudiosPupil 19 Studios
429 Rockstar Life Apr 21, 2022 $7.99N/A (N/A)0 .. 20,0000%00:00 (00:00)Worthy GameWorthy Game
430 Small phrases Great stories Apr 21, 2022 $0.79N/A (N/A)0 .. 20,0000%00:00 (00:00)Mardozux StudioMardozux Studio
431 Grey Eyes of Death Apr 21, 2022 $6.99N/A (N/A)0 .. 20,0000%00:00 (00:00)Hosted GamesHosted Games
432 内卷三年竟穿越:皇帝模拟器 Apr 19, 2022 $2.99N/A (N/A)0 .. 20,0000%00:00 (00:00)HexGameStudioHexGameStudio
433 灵异爱情.冷 Apr 16, 2022 $1.99N/A (N/A)0 .. 20,0000%00:00 (00:00)ghostGame devghostGame dev
434 Siege of Treboulain Apr 14, 2022 $6.99N/A (N/A)0 .. 20,0000%00:00 (00:00)Choice of GamesChoice of Games
435 Suhoshin Apr 13, 2022 $18.99N/A (N/A)0 .. 20,0000%00:00 (00:00)No More 500No More 500
436 Athanasy Apr 13, 2022 $9.99N/A (N/A)20,000 .. 50,0000%00:00 (00:00)Wirion7DOTS
437 NEKO-MIMI SWEET HOUSEMATES Vol. 1 Apr 8, 2022 $15.99N/A (N/A)0 .. 20,0000%00:00 (00:00)Animal HerbSekai Project
438 边缘项目 / Living Island Project Apr 8, 2022 $9.99N/A (N/A)0 .. 20,0000%00:00 (00:00)LIP制作组LIP制作组
439 Relics 2: The Crusader's Tomb Apr 8, 2022 $7.99N/A (N/A)0 .. 20,0000%00:00 (00:00)Hosted GamesHosted Games
440 How to Fool a Liar King Remastered Apr 7, 2022 $14.99N/A (N/A)0 .. 20,0000%00:00 (00:00)ROSEVERTEROSEVERTE
441 Tower Words Apr 7, 2022 $1.99N/A (N/A)0 .. 20,0000%00:00 (00:00)Company Not FoundCompany Not Found
442 MOVEIT Apr 7, 2022 $0.99N/A (N/A)20,000 .. 50,0000%00:00 (00:00)DnovelTrinity Project
443 CHRONO CROSS: THE RADICAL DREAMERS EDITION Apr 7, 2022 $19.99N/A (N/A)50,000 .. 100,0000%00:00 (00:00)Square Enix, D4Enterprise Co.,Ltd.Square Enix
444 Lenin Simulator Apr 6, 2022 $4.99N/A (N/A)0 .. 20,0000%00:00 (00:00)lsimullsimul
445 Letter Bender Apr 5, 2022 $1.99N/A (N/A)0 .. 20,0000%00:00 (00:00)cosmic_dustcosmic_dust
446 Sakura Succubus 5 Apr 4, 2022 $9.99N/A (N/A)0 .. 20,0000%00:00 (00:00)Winged CloudWinged Cloud
447 SACROSANCT Apr 3, 2022 $6.99N/A (N/A)0 .. 20,0000%00:00 (00:00)FEYXUANFEYXUAN
448 Murasame Apr 3, 2022 $13.99N/A (N/A)0 .. 20,0000%00:00 (00:00)あいあんそぉどあいあんそぉど
449 Grim Quest - Old School RPG Apr 1, 2022 $7.99N/A (N/A)0 .. 20,0000%00:00 (00:00)MonomythMonomyth
450 Queen of the flies 蝇后 Mar 31, 2022 $0.99N/A (N/A)0 .. 20,0000%00:00 (00:00)吃了就睡工作室, 夜神说话吃了就睡工作室
451 start;again Mar 31, 2022 $5.99N/A (N/A)0 .. 20,0000%00:00 (00:00)Two and a Half StudiosTwo and a Half Studios
452 恋~一些小清新的猎奇故事~ Mar 29, 2022 $1.99N/A (N/A)0 .. 20,0000%00:00 (00:00)桐生バトラ(疑狐社)Miwu Studio, WindField Games
453 Satan's puzzle 666 Mar 29, 2022 $1.99N/A (N/A)0 .. 20,0000%00:00 (00:00)Silvestre Gore ArtGorestation
454 A=B Mar 29, 2022 $4.99N/A (N/A)20,000 .. 50,0000%00:00 (00:00)Artless GamesArtless Games
455 Forgotten Realms: The Archives - Collection One Mar 29, 2022 $9.99N/A (N/A)0 .. 20,0000%00:00 (00:00)Westwood Associates, Strategic SimulationsSNEG
456 League Manager 2022 Mar 24, 2022 N/AN/A (N/A)20,000 .. 50,0000%00:00 (00:00)AG SOFTAG SOFT
457 Mixed Feelings: While You Were Away - Boys Love (BL) Visual Novel Mar 24, 2022 $2.99N/A (N/A)0 .. 20,0000%00:00 (00:00)ChaniMKChaniMK
458 Vampire: The Masquerade — Sins of the Sires Mar 24, 2022 $11.99N/A (N/A)0 .. 20,0000%00:00 (00:00)Choice of GamesChoice of Games
459 Last Threshold Mar 24, 2022 $4.99N/A (N/A)0 .. 20,0000%00:00 (00:00)Astrolabe StoriesAstrolabe Stories
460 World Empire 2027 Mar 23, 2022 $10.49N/A (N/A)0 .. 20,0000%00:00 (00:00)iGindisGamesiGindisGames
461 Chronicles of Tal'Dun: The Remainder Mar 23, 2022 $19.99N/A (N/A)0 .. 20,0000%00:00 (00:00)Square Weasel StudioSquare Weasel Studio
462 Hate Free Heroes Tactics: Strategy Building MMO Mar 22, 2022 $14.99N/A (N/A)0 .. 20,0000%00:00 (00:00)Hate Free HeroesHate Free Heroes
463 9-nine-:NewEpisode Mar 18, 2022 $9.99N/A (N/A)0 .. 20,0000%00:00 (00:00)PALETTESekai Project
464 Cactus Clicker - Bofete Stories Mar 18, 2022 $0.49N/A (N/A)0 .. 20,0000%00:00 (00:00)DreamlikeDreamlike
465 A List Of People Who Went Missing In The Scheleirland National Forest Mar 14, 2022 $5.99N/A (N/A)0 .. 20,0000%00:00 (00:00)F.SDRIF.SDRI
466 道不可道 Mar 12, 2022 $1.99N/A (N/A)200,000 .. 500,0000%00:00 (00:00)乐子人乐子人
467 虫鸣 Mar 11, 2022 $7.99N/A (N/A)50,000 .. 100,0000%00:00 (00:00)深圳市创源互娱科技有限公司深圳市创源互娱科技有限公司
468 Draft Day Sports: College Basketball 2022 Mar 10, 2022 $29.99N/A (N/A)0 .. 20,0000%00:00 (00:00)Wolverine StudiosWolverine Studios
469 Coral Drive Mar 10, 2022 $1.99N/A (N/A)0 .. 20,0000%00:00 (00:00)Happy Daram Inc.Happy Daram Inc.
470 Back 2 School Mar 9, 2022 $4.99N/A (N/A)0 .. 20,0000%00:00 (00:00)Goldenrod GamesGoldenrod Games
471 LAMBDA end THEORY Mar 8, 2022 $1.99N/A (N/A)0 .. 20,0000%00:00 (00:00)PixleavesPixleaves
472 All the Words She Wrote Mar 8, 2022 $12.99N/A (N/A)0 .. 20,0000%00:00 (00:00)ebi-himeebi-hime
473 Help Me Remember, Satori-sama! Mar 7, 2022 $6.99N/A (N/A)50,000 .. 100,000100%01:49 (01:49)ISYISY
474 How to Take Off Your Mask Remastered Mar 4, 2022 $14.99N/A (N/A)20,000 .. 50,0000%00:00 (00:00)ROSEVERTEROSEVERTE
475 Dungeon Alone Mar 4, 2022 $2.99N/A (N/A)0 .. 20,0000%00:00 (00:00)HexGameStudioHexGameStudio
476 雾尽时分 Mar 3, 2022 $9.99N/A (N/A)0 .. 20,0000%00:00 (00:00)济沧海工作室Pujia8 Studio
477 AI Roguelite Mar 2, 2022 $8.99N/A (N/A)100,000 .. 200,0000%00:00 (00:00)Max LohMax Loh
478 Yumeiri Mar 1, 2022 $8N/A (N/A)0 .. 20,0000%00:00 (00:00)AffilityAffility
479 The Dark Prophecy Feb 28, 2022 $9.99N/A (N/A)0 .. 20,0000%00:00 (00:00)Start WarpMeridian4
480 Cube Runk Feb 25, 2022 $1.99N/A (N/A)50,000 .. 100,0000%00:00 (00:00)HeliongamesHeliongames
481 Showbiz Tycoon Feb 25, 2022 $10.99N/A (N/A)0 .. 20,0000%00:00 (00:00)Olie GamesOlie Games
482 ASCIILL Feb 25, 2022 $4.99N/A (N/A)0 .. 20,0000%00:00 (00:00)UAB Puzzle LabDIGITAL LOUNGE
483 Revolution Diabolique Feb 24, 2022 $8.99N/A (N/A)0 .. 20,0000%00:00 (00:00)Choice of GamesChoice of Games
484 Perfect Tides Feb 21, 2022 $14.99N/A (N/A)0 .. 20,0000%00:00 (00:00)Three BeesThree Bees
485 Learn Programming: Python - Remake Feb 21, 2022 $2.99N/A (N/A)0 .. 20,0000%00:00 (00:00)Niema MoshiriNiema Moshiri
486 Mr. Rainer's Solve-It Service Feb 21, 2022 $5.99N/A (N/A)0 .. 20,0000%00:00 (00:00)etheraneetherane
487 One day after the snow and wind Feb 20, 2022 $0.99N/A (N/A)0 .. 20,0000%00:00 (00:00)灵虚之幽灵虚之幽
488 Mysteria of the World: The forest of Death Feb 19, 2022 $5.99N/A (N/A)0 .. 20,0000%00:00 (00:00)Remnants of mosaicRemnants of mosaic
489 Bad Credit Feb 17, 2022 $5.99N/A (N/A)0 .. 20,0000%00:00 (00:00)Riley Sampson, Arthur O'KeefeSoldier Girl Interactive
490 浮生箓 Floating Life Feb 17, 2022 $2.99N/A (N/A)0 .. 20,0000%00:00 (00:00)心流工作室(Heart Stream Studio)心流工作室(Heart Stream Studio)
491 精神病大王花 Flowering Abyss Feb 13, 2022 $7.99N/A (N/A)0 .. 20,0000%00:00 (00:00)CHARONPujia8 Studio
492 To Make a Game Feb 12, 2022 $0.99N/A (N/A)0 .. 20,0000%00:00 (00:00)TheBluePenguinTheBluePenguin
493 她曾经活过啊 Feb 11, 2022 $0.99N/A (N/A)0 .. 20,0000%00:00 (00:00)shushanmaoshushanmao
494 Inua - A Story in Ice and Time Feb 10, 2022 $14.99N/A (N/A)0 .. 20,0000%00:00 (00:00)The Pixel Hunt, IKO, ARTE FranceARTE France
495 Brimstone Manor Feb 10, 2022 $4.99N/A (N/A)0 .. 20,0000%00:00 (00:00)Heart's ChoiceHeart's Choice
496 Cyanotype Daydream -The Girl Who Dreamed the World- Feb 9, 2022 $39.99N/A (N/A)0 .. 20,0000%00:00 (00:00)LaplacianLaplacian
497 OS:Memories Feb 9, 2022 $6.99N/A (N/A)0 .. 20,0000%00:00 (00:00)BASI StudiosBASI Studios
498 戛然而止的音符 Feb 7, 2022 $0.99N/A (N/A)0 .. 20,0000%00:00 (00:00)临雪制作组临雪制作组
499 挂机神话 Feb 6, 2022 $1.99N/A (N/A)200,000 .. 500,0000%00:00 (00:00)摸鱼猫工作室摸鱼猫工作室
500 7 Days to End with You Feb 6, 2022 $7.99N/A (N/A)50,000 .. 100,0000%00:00 (00:00)LizardryPLAYISM
501 Bad Faith Feb 4, 2022 $9.99N/A (N/A)0 .. 20,0000%00:00 (00:00)MadoMado
502 Community College Hero: Fun and Games Feb 3, 2022 $4.99N/A (N/A)0 .. 20,0000%00:00 (00:00)Hosted GamesHosted Games
503 Leningrad Jan 31, 2022 $0.99N/A (N/A)50,000 .. 100,0000%00:00 (00:00)Under ThreeUnder Three
504 瓔珞事件簿之誰殺了愛情 Jan 30, 2022 $4.99N/A (N/A)0 .. 20,0000%00:00 (00:00)傅真Genuine Studio Ltd
505 120 Yen Stories Jan 27, 2022 $19.99N/A (N/A)0 .. 20,0000%00:00 (00:00)NekoNeko SoftiMoe Games
506 The VII Enigma Jan 25, 2022 $9.99N/A (N/A)0 .. 20,0000%00:00 (00:00)Spire GamesSpire Games
507 我就是要红 Jan 23, 2022 $5.99N/A (N/A)0 .. 20,0000%00:00 (00:00)闪艺互动闪艺互动
508 アーキタイプ・アーカディア Jan 23, 2022 $20.99N/A (N/A)0 .. 20,0000%00:00 (00:00)Water PhoenixKEMCO
509 Lastone: Behind the Choice Jan 21, 2022 $4.99N/A (N/A)0 .. 20,0000%00:00 (00:00)Dragon Emperors, Great Conspiracy TheoryDragon Emperors
510 Word Crack Jan 21, 2022 $2.99N/A (N/A)0 .. 20,0000%00:00 (00:00)LonelyOcelotLonelyOcelot
511 NEEDY STREAMER OVERLOAD Jan 21, 2022 $15.99N/A (N/A)200,000 .. 500,0000%00:00 (00:00)WSS playground, xemonoWSS playground
512 Late Bird Jan 20, 2022 $0.99N/A (N/A)0 .. 20,0000%00:00 (00:00)Vladimir SlavColdwild Games
513 Shuzzler Jan 20, 2022 $14.99N/A (N/A)0 .. 20,0000%00:00 (00:00)DC Creation StudiosDC Creation Studios
514 Energy Island Corp. Jan 19, 2022 $5.99N/A (N/A)0 .. 20,0000%00:00 (00:00)SpirkopGamesSpirkopGames
515 Black Lazar Jan 19, 2022 $7.99N/A (N/A)50,000 .. 100,0000%00:00 (00:00)Pleon WordsPleon Words
516 Follow the Black Kitten Jan 17, 2022 $0.99N/A (N/A)0 .. 20,0000%00:00 (00:00)TotalЛД [ЛетоДайджест]
517 The Soul Stone War 2 Jan 13, 2022 $7.99N/A (N/A)0 .. 20,0000%00:00 (00:00)Hosted GamesHosted Games
518 Cataplexy Jan 12, 2022 $1.99N/A (N/A)0 .. 20,0000%00:00 (00:00)Bite The RockDiada Novels
519 My Nemesis and Hero - Slice of Life Boys Love (BL) Visual Novel Jan 11, 2022 $2.49N/A (N/A)0 .. 20,0000%00:00 (00:00)ChaniMKChaniMK
520 Sakura Alien Jan 10, 2022 $9.99N/A (N/A)0 .. 20,0000%00:00 (00:00)Winged CloudWinged Cloud
521 An Outcry Jan 5, 2022 $4.99N/A (N/A)0 .. 20,0000%00:00 (00:00)Quinn K.Quinn K.
522 Peculiar Tales of Mid-Lake Pavilion Dec 31, 2021 $8.99N/A (N/A)0 .. 20,0000%00:00 (00:00)致意致意
523 风起长安:驭骨人 Dec 30, 2021 $13.99N/A (N/A)0 .. 20,0000%00:00 (00:00)轻梨工作室咕咕工作室
524 Devil's Eyes Dec 28, 2021 $4.99N/A (N/A)0 .. 20,0000%00:00 (00:00)Rapid Duck StudioRapid Duck Studio
525 World Wide Hack Dec 22, 2021 $16.99N/A (N/A)0 .. 20,0000%00:00 (00:00)Lotus InnovationsLotus Innovations
526 江湖乐子人 Dec 21, 2021 $0.99N/A (N/A)0 .. 20,0000%00:00 (00:00)乐子人乐子人
527 Jay Schilling's Edge of Chaos Dec 21, 2020 $4.99N/A (N/A)0 .. 20,0000%00:00 (00:00)Jolt CountryJolt Country
528 陌生人 Dec 21, 2021 $1.99N/A (N/A)0 .. 20,0000%00:00 (00:00)Plot ClubPlot Club
529 Item synthesis and dungeon exploration Dec 21, 2021 $6.99N/A (N/A)0 .. 20,0000%00:00 (00:00)OikariBunchoOikariBuncho
530 The Cloud Dream of the Nine Dec 20, 2021 $19.99N/A (N/A)0 .. 20,0000%00:00 (00:00)SesisoftSesisoft
531 Code.Breaker() Dec 18, 2021 $9.99N/A (N/A)20,000 .. 50,0000%00:00 (00:00)HokaBento StudioHokaBento Studio GmbH
532 Rewrite+ Dec 17, 2021 $49.99N/A (N/A)0 .. 20,0000%00:00 (00:00)VisualArts/KeySekai Project
533 Cinemoji: Series Dec 17, 2021 $0.99N/A (N/A)0 .. 20,0000%00:00 (00:00)Gray BossGray Boss
534 Slobbish Dragon Princess 2 Dec 17, 2021 $14.99N/A (N/A)0 .. 20,0000%00:00 (00:00)WhirlpoolSekai Project
535 门里 Dec 17, 2021 $3.34N/A (N/A)0 .. 20,0000%00:00 (00:00)细分工作室BD Games
536 Milk outside a bag of milk outside a bag of milk Dec 16, 2021 $8.99N/A (N/A)200,000 .. 500,0005.56%01:58 (00:39)Nikita KryukovNikita Kryukov
537 贸易与马车 Dec 16, 2021 $2.99N/A (N/A)0 .. 20,0000%00:00 (00:00)SiTong TechSiTong Tech
538 Echoes Dec 16, 2021 $4.99N/A (N/A)0 .. 20,0000%00:00 (00:00)Baba NuraBaba Nura, Feodosiy
539 Pon Para and the Unconquerable Scorpion Dec 17, 2020 $8.99N/A (N/A)0 .. 20,0000%00:00 (00:00)Choice of GamesChoice of Games
540 Too Many Santas! Dec 14, 2021 $6.99N/A (N/A)20,000 .. 50,0000%00:00 (00:00)Oh, a Rock! StudiosOh, a Rock! Studios
541 Go to IT Dec 14, 2021 $9.99N/A (N/A)0 .. 20,0000%00:00 (00:00)Black Deck Crew, Gamera InteractiveGamera Interactive
542 Retired Men's Nude Beach Volleyball League Dec 10, 2021 $6.99N/A (N/A)0 .. 20,0000%00:00 (00:00)Snowrunner GamesSnowrunner Games
543 VOICE Dec 9, 2021 $13.99N/A (N/A)0 .. 20,0000%00:00 (00:00)WTFMANWTFMAN
544 The Wishing Stone Dec 9, 2021 $8.99N/A (N/A)0 .. 20,0000%00:00 (00:00)Dream Nyght StudioDream Nyght Studio
545 Witchcraft U Dec 9, 2021 $5.99N/A (N/A)0 .. 20,0000%00:00 (00:00)Choice of GamesChoice of Games
546 QuizPoker: Mix of Quiz and Poker Dec 8, 2021 $5.99N/A (N/A)0 .. 20,0000%00:00 (00:00)SiwaluSiwalu
547 Sports Betting Simulator Dec 6, 2021 $0.99N/A (N/A)0 .. 20,0000%00:00 (00:00)Ashina GamesAshina Games
548 The Divine Deception Dec 3, 2021 $14.99N/A (N/A)20,000 .. 50,0000%00:00 (00:00)ThemisianThemisian
549 誰是犯案者 Who is the Criminal Dec 3, 2021 $7.99N/A (N/A)0 .. 20,0000%00:00 (00:00)莉莉恩工作室莉莉恩工作室
550 Faerie's Bargain: The Price of Business Dec 2, 2021 $6.99N/A (N/A)0 .. 20,0000%00:00 (00:00)Choice of GamesChoice of Games
551 Tied by your Red Nov 28, 2021 $3.99N/A (N/A)0 .. 20,0000%00:00 (00:00)YurifYurif, Light of Creators
552 Space Hoarders Inc. Nov 26, 2021 $11.99N/A (N/A)0 .. 20,0000%00:00 (00:00)DogWater EntertainmentDogWater Entertainment
553 ファントムゾーン クリプトファシア Nov 26, 2021 $12.99N/A (N/A)0 .. 20,0000%00:00 (00:00)ファントムゾーン観測室, ケイエルケイエル
554 My Cashy Side Job at Lost&Found in the Subway of Million-Person City Nov 25, 2021 $2.99N/A (N/A)0 .. 20,0000%00:00 (00:00)Unusual MeaningUnusual Meaning
555 航天计划 Nov 25, 2021 $0.99N/A (N/A)0 .. 20,0000%00:00 (00:00)猎人飞驰猎人飞驰
556 Cliffhanger: Challenger of Tomorrow Nov 24, 2021 $6.99N/A (N/A)20,000 .. 50,0000%00:00 (00:00)Choice of GamesChoice of Games
557 Mischance Nov 23, 2021 $4.99N/A (N/A)0 .. 20,0000%00:00 (00:00)TheRagingMustangTheRagingMustang
558 异界转生 这次变成了传说中的勇者呢(受) Nov 18, 2021 $18.99N/A (N/A)0 .. 20,0000%00:00 (00:00)株式会社コンテンツシード, 株式会社プラス81株式会社クレイズ
559 Augmented Future Nov 18, 2021 $4.99N/A (N/A)0 .. 20,0000%00:00 (00:00)Spicy Noodle StudiosSpicy Noodle Studios
560 猫不语 Nov 18, 2021 $6.99N/A (N/A)0 .. 20,0000%00:00 (00:00)库库尔坎游戏工作室库库尔坎游戏工作室
561 Hardwork Simulator Nov 17, 2021 $1.99N/A (N/A)0 .. 20,0000%00:00 (00:00)MandingaMandinga
562 BOT.vinnik Chess: Mid-Century USSR Championships Nov 17, 2021 $0.99N/A (N/A)0 .. 20,0000%00:00 (00:00)Deep Green GamesAbyssal Studios
563 Guardian of the future Nov 15, 2021 $4.99N/A (N/A)0 .. 20,0000%00:00 (00:00)Lotos ProjectLotos Project
564 The Vellescian Gambit Nov 15, 2021 $4.99N/A (N/A)0 .. 20,0000%00:00 (00:00)Vellescian GamesVellescian Games
565 Sakura Forest Girls 3 Nov 15, 2021 $9.99N/A (N/A)0 .. 20,0000%00:00 (00:00)Winged CloudWinged Cloud
566 Raiders of the Icepeak Mountains Nov 12, 2021 $4.99N/A (N/A)0 .. 20,0000%00:00 (00:00)Hosted GamesHosted Games
567 Temple of Endless Night Nov 12, 2021 $5.99N/A (N/A)0 .. 20,0000%00:00 (00:00)Hosted GamesHosted Games
568 Wager Nov 11, 2021 $4.99N/A (N/A)0 .. 20,0000%00:00 (00:00)Zever GamesZever Games
569 Bobok Nov 11, 2021 $4.99N/A (N/A)0 .. 20,0000%00:00 (00:00)SectaSecta
570 ReTox Nov 10, 2021 $11.99N/A (N/A)0 .. 20,0000%00:00 (00:00)Dopamine GamesDopamine Games
571 Death Becomes You - Mystery Visual Novel Nov 9, 2021 $8.99N/A (N/A)0 .. 20,0000%00:00 (00:00)Quill Game StudiosQuill Game Studios, Quill Yuri
572 The Sin Collector: Repentless Nov 9, 2021 $14.99N/A (N/A)20,000 .. 50,0000%00:00 (00:00)Sylen StudioSylen Studio
573 琴覆天下 Nov 8, 2021 $9.99N/A (N/A)0 .. 20,0000%00:00 (00:00)闪艺互动闪艺互动
574 Winning Love by Daylight [Ep 1+2] Nov 8, 2021 $3.99N/A (N/A)0 .. 20,0000%00:00 (00:00)Cutlass BoardgamesCutlass Boardgames
575 Cinemoji: Halloween Nov 7, 2021 $0.99N/A (N/A)0 .. 20,0000%00:00 (00:00)Gray BossGray Boss
576 Gear of Glass: Eolarn's war Nov 7, 2021 $14.99N/A (N/A)0 .. 20,0000%00:00 (00:00)Remnants of mosaicRemnants of mosaic
577 4 Alice Magical Autistic Girls Nov 6, 2021 N/AN/A (N/A)0 .. 20,0000%00:00 (00:00)MiaMia
578 Meet PIP Nov 6, 2021 $5.99N/A (N/A)0 .. 20,0000%00:00 (00:00)PaperMill GamesPaperMill Games
579 舔狗模拟器 Nov 5, 2021 $4.99N/A (N/A)0 .. 20,0000%00:00 (00:00)Studio SixStudio Six
580 The Oath of The Dark Magic Queen Nov 5, 2021 $4.99N/A (N/A)0 .. 20,0000%00:00 (00:00)DessertTheorySekai Project
581 Drynk: Board and Drinking Game Nov 5, 2021 $5.99N/A (N/A)0 .. 20,0000%00:00 (00:00)SiwaluSiwalu
582 The Railway Nov 4, 2021 $1.99N/A (N/A)0 .. 20,0000%00:00 (00:00)Honest NovelsHonest Novels
583 Saimin Gakushū: Secret Desire Nov 4, 2021 $19.99N/A (N/A)0 .. 20,0000%00:00 (00:00)Dark One!Shiravune
584 方块地牢 Nov 3, 2021 $1.99N/A (N/A)50,000 .. 100,0000%00:00 (00:00)小五小五
585 Sumy Shelltris - ICEBLOCKS 1 Nov 3, 2021 $1.99N/A (N/A)0 .. 20,0000%00:00 (00:00)Mario Roberto da SilvaStar Shell
586 1f y0u're a gh0st ca11 me here! 幽铃热线 Nov 1, 2021 $6.99N/A (N/A)0 .. 20,0000%00:00 (00:00)Furoshiki Lab.WhisperGames
587 The Hunter's Journals - Tattered Sails Oct 31, 2021 $5.99N/A (N/A)0 .. 20,0000%00:00 (00:00)Grindwheel GamesGrindwheel Games
588 Atomic Cards Oct 28, 2021 $9.99N/A (N/A)20,000 .. 50,0000%00:00 (00:00)SerVGHide Head
589 Plan B from Outer Space: A Bavarian Odyssey Oct 28, 2021 $12.49N/A (N/A)50,000 .. 100,0000%00:00 (00:00)RobotPumpkin GamesAssemble Entertainment
590 Vampire: The Masquerade — Parliament of Knives Oct 28, 2021 $11.99N/A (N/A)0 .. 20,0000%00:00 (00:00)Choice of GamesChoice of Games
591 Once More Oct 27, 2021 $14.99N/A (N/A)0 .. 20,0000%00:00 (00:00)Malheur GamesMalheur Games
592 Franchise Hockey Manager 8 Oct 26, 2021 $19.99N/A (N/A)0 .. 20,0000%00:00 (00:00)Out of the Park Developments, Minos GamesOut of the Park Developments
593 Hermitage: Strange Case Files Oct 26, 2021 $19.99N/A (N/A)0 .. 20,0000%00:00 (00:00)ArrowizGiiku Games
594 Amazing Superhero Squad Oct 22, 2021 $6.99N/A (N/A)0 .. 20,0000%00:00 (00:00)Siberian KoalaSiberian Koala
595 Foul Play - Yuri Visual Novel Oct 21, 2021 $13.99N/A (N/A)0 .. 20,0000%00:00 (00:00)Bandit Visual GamesBandit Visual Games
596 Sword Princess Amaltea - The Visual Novel Oct 21, 2021 $24.99N/A (N/A)0 .. 20,0000%00:00 (00:00)Senpai Media GroupNatalia Batista
597 Motivational Hero Vol. 2 Oct 21, 2021 $0.99N/A (N/A)0 .. 20,0000%00:00 (00:00)Euclides LopesEuclides Lopes
598 Rubicon : a conspiracy of silence Oct 20, 2021 $9.99N/A (N/A)0 .. 20,0000%00:00 (00:00)Midnight Mood Studio, La Belle GamesLa Belle Games
599 Summer In Trigue Oct 18, 2021 $17.99N/A (N/A)0 .. 20,0000%00:00 (00:00)Winter WolvesWinter Wolves
600 Sacred Fire: A Role Playing Game Oct 18, 2021 $13.49N/A (N/A)50,000 .. 100,0000%00:00 (00:00)PoeticIceberg Interactive
601 Chronicles of Tal'Dun: The Remainder - Act 2 Oct 18, 2021 N/AN/A (N/A)0 .. 20,0000%00:00 (00:00)Square Weasel StudioSquare Weasel Studio
602 Love Duction! The Guide for Galactic Lovers Oct 15, 2021 $12.99N/A (N/A)0 .. 20,0000%00:00 (00:00)US8Sekai Project
603 Tales of the Black Death Oct 15, 2021 $9.99N/A (N/A)0 .. 20,0000%00:00 (00:00)Doubleton Game StudioDoubleton Game Studio
604 Draft Day Sports: Pro Football 2022 Oct 14, 2021 $24.99N/A (N/A)0 .. 20,0000%00:00 (00:00)Wolverine StudiosWolverine Studios
605 Ninki Seiyuu: How to Make a Pop Voice Actress Oct 14, 2021 $39.99N/A (N/A)0 .. 20,0000%00:00 (00:00)MintCUBEShiravune
606 Copy Editor: A RegEx Puzzle Oct 14, 2021 $6.99N/A (N/A)0 .. 20,0000%00:00 (00:00)Christopher JarvisCinq-Mars Media
607 SCP Foundation: ITTLG - Chapter 1 Oct 13, 2021 $1.99N/A (N/A)0 .. 20,0000%00:00 (00:00)Deniz DzhevatovNek-Orb Studios
608 The Last Will Oct 13, 2021 $1.99N/A (N/A)0 .. 20,0000%00:00 (00:00)ODBear StudiosODBear Studios
609 Toolnich Village Oct 13, 2021 $0.99N/A (N/A)0 .. 20,0000%00:00 (00:00)BionutulBionutul
610 Increlution Oct 13, 2021 $2.99N/A (N/A)50,000 .. 100,00050%116:34 (103:29)GnillerGniller
611 风信楼 Oct 13, 2021 $11.99N/A (N/A)100,000 .. 200,0000%00:00 (00:00)Pingfang GamesPingfang Games
612 ASTRA Oct 12, 2021 $9.99N/A (N/A)20,000 .. 50,0000%00:00 (00:00)Crooked RoadPiece Of Voxel
613 Not It: Spookiest Edition Oct 12, 2021 $6.99N/A (N/A)20,000 .. 50,0000%00:00 (00:00)Snowhaven StudiosSnowhaven Studios
614 Hidden Words Oct 8, 2021 $4.99N/A (N/A)0 .. 20,0000%00:00 (00:00)Alcedo GamesAlcedo Games
615 Interstellar Airgap Oct 7, 2021 $5.99N/A (N/A)20,000 .. 50,0000%00:00 (00:00)Hosted GamesHosted Games
616 投资模拟器:打工人 Oct 7, 2021 $11.99N/A (N/A)50,000 .. 100,0000%00:00 (00:00)Bosa-GamesBosa-Games
617 This Game is Crap Oct 5, 2021 $6.99N/A (N/A)0 .. 20,0000%00:00 (00:00)Marek SlowigMarek Slowig
618 CLOSED HANDS Oct 4, 2021 $5.99N/A (N/A)0 .. 20,0000%00:00 (00:00)PASSENGERPASSENGER
619 Typer Hero (打字英雄) Oct 2, 2021 $0.99N/A (N/A)0 .. 20,0000%00:00 (00:00)KeKaiXinLeKeKaiXinLe
620 Last Days Oct 2, 2021 $2.99N/A (N/A)20,000 .. 50,0000%00:00 (00:00)琉璃花糖制作组, Garakowa Marshmallow琉璃花糖制作组, Garakowa Marshmallow
621 The prisoner of the Night Oct 1, 2021 $16.99N/A (N/A)0 .. 20,0000%00:00 (00:00)RMALRMAL
622 Dear Agony Aunt Oct 1, 2021 $4.99N/A (N/A)0 .. 20,0000%00:00 (00:00)Faye StrawberryFaye Strawberry
623 Legends of Murder Collection Oct 1, 2021 $6.99N/A (N/A)50,000 .. 100,0000%00:00 (00:00)Softdisk PublishingZiggurat
624 The Summit High School: Prologue Episode Sep 30, 2021 N/AN/A (N/A)0 .. 20,0000%00:00 (00:00)GLOBINSGLOBINS
625 WORDDING Sep 30, 2021 FreeN/A (N/A)0 .. 20,0000%00:00 (00:00)RoomsForRocketsRoomsForRockets
626 Would you like to run an idol café? 2 Sep 27, 2021 $9.99N/A (N/A)0 .. 20,0000%00:00 (00:00)StarlightTree GamesWinged Cloud
627 Visual Novel Sisters Sep 23, 2021 $4.99N/A (N/A)20,000 .. 50,0000%00:00 (00:00)Whale Rock GamesWhale Rock Games
628 ARISEN - Chronicles of Var'Nagal Sep 21, 2021 $15.99N/A (N/A)0 .. 20,0000%00:00 (00:00)Maratus, Homecoming StudioMaratus, Homecoming Studio
629 当火车鸣笛三秒 Sep 19, 2021 $9.99N/A (N/A)20,000 .. 50,0000%00:00 (00:00)蒐藏馆工作室MedusasGame
630 Wraiths of SENTINEL Sep 16, 2021 $6.99N/A (N/A)0 .. 20,0000%00:00 (00:00)Choice of GamesChoice of Games
631 Motivational Hero Sep 14, 2021 $1.99N/A (N/A)0 .. 20,0000%00:00 (00:00)Euclides LopesEuclides Lopes
632 BASIC ROGUE Sep 11, 2021 $2.99N/A (N/A)20,000 .. 50,0000%00:00 (00:00)Indie Jon S.The Doomed Studio
633 ANYEK - The Keyboard Puzzle Sep 10, 2021 $7.99N/A (N/A)0 .. 20,0000%00:00 (00:00)Garage StudioGarage Studio
634 Cauldrons of War - Stalingrad Sep 10, 2021 $14.99N/A (N/A)0 .. 20,0000%00:00 (00:00)Maestro CinetikGaming at Work
635 The Vampire Regent Sep 9, 2021 $7.99N/A (N/A)0 .. 20,0000%00:00 (00:00)Hosted GamesHosted Games
636 Dull Grey Sep 8, 2021 $4.99N/A (N/A)20,000 .. 50,0000%00:00 (00:00)Provodnik GamesProvodnik Games
637 Idle Trading Simulator Sep 2, 2021 $0.37N/A (N/A)20,000 .. 50,0000%00:00 (00:00)DiamosDevDiamosDev
638 Timothy Leary's Mind Mirror Sep 2, 2021 $5.99N/A (N/A)0 .. 20,0000%00:00 (00:00)Futique, Inc.Moon Books LLC
639 BOT.vinnik Chess: Early USSR Championships Sep 2, 2021 $0.99N/A (N/A)0 .. 20,0000%00:00 (00:00)Deep Green GamesAbyssal Studios
640 A Curse From Beyond Aug 30, 2021 $4.99N/A (N/A)0 .. 20,0000%00:00 (00:00)Cave Ghost GamesCave Ghost Games
641 幸存者乐园 Aug 28, 2021 $4.99N/A (N/A)0 .. 20,0000%00:00 (00:00)幸存者乐园幸存者乐园
642 Arcade Boy Aug 27, 2021 FreeN/A (N/A)100,000 .. 200,0000%00:00 (00:00)Edvar StudioEdvar Studio
643 The Play's the Thing Aug 26, 2021 $5.99N/A (N/A)0 .. 20,0000%00:00 (00:00)Choice of GamesChoice of Games
644 The Craft of the Samurai Aug 25, 2021 FreeN/A (N/A)0 .. 20,0000%00:00 (00:00)Evgeniy SevostyanovEvgeniy Sevostyanov
645 Embraced by Autumn Aug 24, 2021 $18.99N/A (N/A)0 .. 20,0000%00:00 (00:00)ebi-himeebi-hime
646 WAVER: A Typing Adventure Aug 20, 2021 $7.19N/A (N/A)0 .. 20,0000%00:00 (00:00)Buried ThingsBuried Things
647 Help Me! Aug 20, 2021 $17.99N/A (N/A)0 .. 20,0000%00:00 (00:00)UnicONUnicON
648 Vain Riser Aug 19, 2021 $12.99N/A (N/A)0 .. 20,0000%00:00 (00:00)弦语蝶梦弦语蝶梦
649 BlackberryNOVA Aug 19, 2021 $4.99N/A (N/A)0 .. 20,0000%00:00 (00:00)Nova B12Nova B12
650 Blood for Poppies Aug 19, 2021 $5.99N/A (N/A)20,000 .. 50,0000%00:00 (00:00)Hosted GamesHosted Games
651 Blackout: The Darkest Night Aug 19, 2021 $5.99N/A (N/A)0 .. 20,0000%00:00 (00:00)MiniChimera Game StudioMiniChimera Game Studio
652 Confessions Aug 18, 2021 $2.99N/A (N/A)0 .. 20,0000%00:00 (00:00)Peace & Love GamesPeace & Love Games
653 START AGAIN: a prologue Aug 18, 2021 $10.99N/A (N/A)50,000 .. 100,0000%00:00 (00:00)insertdisc5insertdisc5
654 Space to Grow Aug 13, 2021 $9.99N/A (N/A)0 .. 20,0000%00:00 (00:00)Metasepia GamesMetasepia Games
655 Battlemage: Magic by Mail Aug 12, 2021 $4.99N/A (N/A)0 .. 20,0000%00:00 (00:00)Choice of GamesChoice of Games
656 You Can Kana - Learn Japanese Hiragana & Katakana Aug 11, 2021 $9.99N/A (N/A)0 .. 20,0000%00:00 (00:00)James MoulangJames Moulang
657 Tales of the Mirror Aug 11, 2021 $7.99N/A (N/A)20,000 .. 50,0000%00:00 (00:00)Cotton GameCotton Game
658 Deus Lo Veult Aug 10, 2021 $9.99N/A (N/A)0 .. 20,0000%00:00 (00:00)PageBoyGamePageBoyGame
659 Do 11 Aug 9, 2021 $1.99N/A (N/A)0 .. 20,0000%00:00 (00:00)SJR TeamSJR Team
660 IdolDays Aug 5, 2021 $12.99N/A (N/A)0 .. 20,0000%00:00 (00:00)iMel, qureatequreate
661 Medium: The Psychic Party Game Aug 2, 2021 $9.99N/A (N/A)0 .. 20,0000%00:00 (00:00)Unboxed Games LLC, Oh My GamesUnboxed Games LLC
662 Eternal Secret Jul 30, 2021 $2.99N/A (N/A)20,000 .. 50,0000%00:00 (00:00)Piotr KaniewskiGGEntertainment
663 kana!kana? Jul 30, 2021 $0.99N/A (N/A)0 .. 20,0000%00:00 (00:00)花果山勇士神选OFFICIAL花果山勇士神选OFFICIAL
664 BUSTAFELLOWS Jul 30, 2021 $39.99N/A (N/A)20,000 .. 50,0000%00:00 (00:00)NIPPON CULTURAL BROADCASTING EXTEND INC.PQube
665 Murder on the Marine Express Jul 30, 2021 $4.99N/A (N/A)0 .. 20,0000%00:00 (00:00)1564 Studio1564 Studio
666 Nothing To Remember Jul 29, 2021 $1.99N/A (N/A)0 .. 20,0000%00:00 (00:00)Guts UnitedGuts United
667 Fairy Sister Jul 29, 2021 $1.99N/A (N/A)0 .. 20,0000%00:00 (00:00)玫瑰工作室玫瑰工作室
668 Vampire: The Masquerade — Out for Blood Jul 29, 2021 $11.99N/A (N/A)0 .. 20,0000%00:00 (00:00)Choice of GamesChoice of Games
669 Wishlair Jul 28, 2021 $4.99N/A (N/A)0 .. 20,0000%00:00 (00:00)ChronogearsChronogears
670 Traditional Chinese Medicine Simulator Jul 28, 2021 $19.99N/A (N/A)0 .. 20,0000%00:00 (00:00)曲波曲波
671 Shadows on the Vatican: Nightingale Jul 27, 2021 $2.99N/A (N/A)0 .. 20,0000%00:00 (00:00)Binary Charm, Daring TouchBinary Charm
672 Game of Love Jul 26, 2021 $4.99N/A (N/A)0 .. 20,0000%00:00 (00:00)Golden Castle StudioGolden Castle Studio
673 Sakura Forest Girls 2 Jul 26, 2021 $9.99N/A (N/A)0 .. 20,0000%00:00 (00:00)Winged CloudWinged Cloud
674 Reality's Reverse Side Jul 22, 2021 FreeN/A (N/A)20,000 .. 50,0000%00:00 (00:00)CupcakeTime TeamPhoenix_co
675 Heal Hitler Jul 22, 2021 $4.99N/A (N/A)0 .. 20,0000%00:00 (00:00)Jon AegisJon Aegis
676 Dead-End Detective: The Sixpence Strangler Jul 21, 2021 $3.99N/A (N/A)20,000 .. 50,0000%00:00 (00:00)A RanDom FellaA RanDom Fella
677 Evil Shogun Jul 20, 2021 $1N/A (N/A)50,000 .. 100,0000%00:00 (00:00)A. A. Bills, Rino ItoFlat 47 Productions
678 Follow Your Heart Jul 20, 2021 $24.99N/A (N/A)0 .. 20,0000%00:00 (00:00)玫瑰工作室玫瑰工作室
679 秘封フラグメント Jul 16, 2021 $14.99N/A (N/A)0 .. 20,0000%00:00 (00:00)シカクゲームズPhoenixx Inc.
680 Pugmire: Treasure of the Sea Dogs Jul 15, 2021 $4.99N/A (N/A)0 .. 20,0000%00:00 (00:00)Choice of GamesChoice of Games
681 Phantom Typist Jul 14, 2021 $2.99N/A (N/A)0 .. 20,0000%00:00 (00:00)Wysiwyg InteractiveWysiwyg Interactive
682 古代人生 Ancient Life Jul 12, 2021 $4.99N/A (N/A)0 .. 20,0000%00:00 (00:00)HeroWJ GamesHeroWJ Games
683 摆地摊 Jul 12, 2021 $0.99N/A (N/A)0 .. 20,0000%00:00 (00:00)皮蛋打番茄皮蛋打番茄
684 猫头鹰和灯塔 Jul 11, 2021 $14.99N/A (N/A)0 .. 20,0000%00:00 (00:00)WoodenWolfWoodenWolf
685 functional Jul 9, 2021 $6.99N/A (N/A)0 .. 20,0000%00:00 (00:00)yancoutoMarvellous Soft
686 Legend of Homebody Jul 8, 2021 $5.99N/A (N/A)50,000 .. 100,0000%00:00 (00:00)疯王子CrazyPrince
687 Death Realm Jul 7, 2021 $12.99N/A (N/A)0 .. 20,0000%00:00 (00:00)PEPOLA Private LimitedPEPOLA Private Limited
688 Billionaire Lovers Jul 2, 2021 $2.99N/A (N/A)100,000 .. 200,0000%00:00 (00:00)Ayacat GamesAyacat Games
689 Revizor Jul 2, 2021 $4.99N/A (N/A)0 .. 20,0000%00:00 (00:00)RevizorGameStudioRevizorGameStudio
690 CompactO - Idle Game Jun 30, 2021 $2.99N/A (N/A)20,000 .. 50,0000%00:00 (00:00)CryptoGrounds Games LLCCryptoGrounds Games LLC
691 BeeFense BeeMastered Jun 24, 2021 $9.99N/A (N/A)0 .. 20,0000%00:00 (00:00)ByteRockers' GamesByteRockers' Games
692 Equestrian Training Jun 24, 2021 $19.99N/A (N/A)0 .. 20,0000%00:00 (00:00)Smart Tale GamesMicroids
693 *NEW* SCUFFED EPIC VISUAL NOVEL Jun 23, 2021 FreeN/A (N/A)0 .. 20,0000%00:00 (00:00)Chris Shanaz, Scuffed Developmentshanaz game studios
694 Belle-de-Nuit Jun 17, 2021 $4.99N/A (N/A)20,000 .. 50,0000%00:00 (00:00)Heart's ChoiceHeart's Choice
695 WORDLAND 3 Jun 17, 2021 $1.99N/A (N/A)0 .. 20,0000%00:00 (00:00)Robotizar GamesRobotizar Games
696 The Terrible Persistence of Memory Jun 15, 2021 $1.99N/A (N/A)0 .. 20,0000%00:00 (00:00)Pixels and Pins StudioPixels and Pins Studio
697 The Chatters Show Jun 11, 2021 $4.99N/A (N/A)0 .. 20,0000%00:00 (00:00)FumetsuHitoFumetsuHito
698 The Hurt in Secret Jun 11, 2021 $2.99N/A (N/A)0 .. 20,0000%00:00 (00:00)Soaker / 大貍, MaouCat Studio / 魔王貓工作室, MuGeNeon / 無限Acrossbeavers Studio/翻滾海貍工作室
699 Motesolo : No Girlfriend Since Birth Jun 9, 2021 $22.99N/A (N/A)50,000 .. 100,0000%00:00 (00:00)INDICAVA INTERACTIVEINDICAVA INTERACTIVE
700 Would you like to run an idol café? Jun 7, 2021 $9.99N/A (N/A)0 .. 20,0000%00:00 (00:00)StarlightTree GamesWinged Cloud
701 Rhythm Hero Jun 4, 2021 $3.99N/A (N/A)0 .. 20,0000%00:00 (00:00)WonTak GamesWonTak Games
702 Far Away Train Jun 3, 2021 $18.99N/A (N/A)0 .. 20,0000%00:00 (00:00)Tatamibeya 畳部屋Tatamibeya 畳部屋
703 The Kotonoha Sisters and the Legend of Lysant Island Jun 3, 2021 $16.99N/A (N/A)20,000 .. 50,0000%00:00 (00:00)DeskClub GamesDeskClub Games
704 WORDLAND 2 Jun 3, 2021 $1.99N/A (N/A)0 .. 20,0000%00:00 (00:00)Robotizar GamesRobotizar Games
705 Tennis Elbow Manager 2 Jun 2, 2021 $11.99N/A (N/A)0 .. 20,0000%00:00 (00:00)Mana GamesMana Games
706 Memories of East Coast Jun 1, 2021 $2.99N/A (N/A)0 .. 20,0000%00:00 (00:00)Roomah GamingRoomah Gaming
707 Setup Developer Tool 2021 May 31, 2021 $19.99N/A (N/A)0 .. 20,0000%00:00 (00:00)Tim McArthurMonkey Face Software LLC
708 The Blind Of The New World May 28, 2021 $9.99N/A (N/A)0 .. 20,0000%00:00 (00:00)TALESSHOP Co., Ltd.TALESSHOP Co., Ltd.
709 hallucination - 幻觉 May 28, 2021 $9.99N/A (N/A)0 .. 20,0000%00:00 (00:00)灰烬天国灰烬天国
710 VERSUS: The Deathscapes May 27, 2021 $5.99N/A (N/A)0 .. 20,0000%00:00 (00:00)Choice of GamesChoice of Games
711 Niinamigota Feb 21, 2021 $1.99N/A (N/A)0 .. 20,0000%00:00 (00:00)Colin Sandquist, Kadokawa Future Publishing, EnterbrainSandquist Games, Kadokawa Future Publishing, Enterbrain
712 Ichth.ys May 25, 2021 $9.99N/A (N/A)50,000 .. 100,0000%00:00 (00:00)Steganographia GamesSteganographia Games
713 Hiragana Katakana Ninja May 24, 2021 $3.99N/A (N/A)0 .. 20,0000%00:00 (00:00)Wholetone GamesWholetone Games
714 Realm of Night: The Forbidden Knowledge May 20, 2021 $13.99N/A (N/A)0 .. 20,0000%00:00 (00:00)Mitredel studioMitredel
715 If It Please the Court May 20, 2021 $6.99N/A (N/A)0 .. 20,0000%00:00 (00:00)Heart's ChoiceHeart's Choice
716 The Sin May 20, 2021 $4.99N/A (N/A)50,000 .. 100,0000%00:00 (00:00)Baba NuraBaba Nura, Feodosiy
717 Kosmo Laika : Guide to Space May 19, 2021 $1.99N/A (N/A)0 .. 20,0000%00:00 (00:00)Animalle StudioAnimalle Studio
718 Lady in Mystery May 15, 2021 $24.99N/A (N/A)0 .. 20,0000%00:00 (00:00)nolsoftnolsoft
719 JPN Burst May 14, 2021 $4.99N/A (N/A)0 .. 20,0000%00:00 (00:00)Thomas NgoThomas Ngo
720 Fantasy Tavern Sextet -Vol.3 Postlude Days- May 13, 2021 $12.99N/A (N/A)0 .. 20,0000%00:00 (00:00)iMel, qureatequreate
721 Redeliver May 10, 2021 $0.99N/A (N/A)0 .. 20,0000%00:00 (00:00)NyfariousNyfarious
722 Try To Remember May 7, 2021 $1.99N/A (N/A)0 .. 20,0000%00:00 (00:00)Sergi Monreal Ibañez, Miquel Villalobos Verde, Carlos Diaz Muñoz, Kainaris AlzabaarSergi Monreal Ibañez, Miquel Villalobos Verde, Carlos Diaz Muñoz, Kainaris Alzabaar
723 The Sekimeiya: Spun Glass May 6, 2021 $29.99N/A (N/A)0 .. 20,0000%00:00 (00:00)Trinitite TeamTrinitite Team
724 Lux, City of Secrets May 6, 2021 $7.99N/A (N/A)0 .. 20,0000%00:00 (00:00)Hosted GamesHosted Games
725 WORDLAND May 5, 2021 $1.99N/A (N/A)0 .. 20,0000%00:00 (00:00)Robotizar GamesRobotizar Games
726 Eternia: Pet Whisperer May 5, 2021 $2.99N/A (N/A)0 .. 20,0000%00:00 (00:00)Shirakumo GamesShirakumo Games
727 The Simplest Game May 5, 2021 $1.99N/A (N/A)0 .. 20,0000%00:00 (00:00)Simple StudioSimple Studio
728 Anachronism\> May 4, 2021 $0.99N/A (N/A)20,000 .. 50,0000%00:00 (00:00)Easy~ Interactive SoftwareEasy~ Interactive Software
729 My Dear Prince Apr 30, 2021 $9.99N/A (N/A)0 .. 20,0000%00:00 (00:00)ebi-himeebi-hime
730 Tales of Farhollow Apr 30, 2021 $1.99N/A (N/A)0 .. 20,0000%00:00 (00:00)Gabaghoul Games LLCGabaghoul Games LLC
731 喰人記 Apr 29, 2021 $11.99N/A (N/A)0 .. 20,0000%00:00 (00:00)SukoyakaMeteorSukoyakaMeteor
732 Before Began 开始之前 Apr 29, 2021 $2.99N/A (N/A)0 .. 20,0000%00:00 (00:00)TSW_HanTSW
733 大禹治水 Flood Fighting Hero Apr 28, 2021 $6.99N/A (N/A)20,000 .. 50,0000%00:00 (00:00)北京图之未来信息科技有限公司图之未来
734 铁道少女:梦想轨迹 2.0 Railway To Dream Apr 27, 2021 $6.99N/A (N/A)0 .. 20,0000%00:00 (00:00)39Softmoe north railway
735 Cinemoji: Oscar Apr 23, 2021 $0.99N/A (N/A)0 .. 20,0000%00:00 (00:00)Gray BossGray Boss
736 Aventura Pisicului Pierdut Apr 19, 2021 $2.99N/A (N/A)0 .. 20,0000%00:00 (00:00)Dragut Stefan, Aurora BorealaDragut Stefan
737 Sakura Forest Girls Apr 19, 2021 $9.99N/A (N/A)0 .. 20,0000%00:00 (00:00)Winged CloudWinged Cloud
738 Polgar: Magic detective Apr 15, 2021 $11.99N/A (N/A)0 .. 20,0000%00:00 (00:00)Cooking and PublishingCooking and Publishing
739 Day Repeat Day Apr 13, 2021 $7.99N/A (N/A)0 .. 20,0000%00:00 (00:00)Kimmo LahtinenKimmo Factor Oy
740 Curiosity Apr 11, 2021 $3.99N/A (N/A)0 .. 20,0000%00:00 (00:00)NonStandardCodeNonStandardCode
741 Girls in Glasses Apr 9, 2021 $9.99N/A (N/A)0 .. 20,0000%00:00 (00:00)nostalgiaSekai Project
742 Scarlet Hood and the Wicked Wood Apr 8, 2021 $14.99N/A (N/A)0 .. 20,0000%00:00 (00:00)Devespresso GamesHeadup, WhisperGames
743 Inkslinger Apr 8, 2021 $4.99N/A (N/A)0 .. 20,0000%00:00 (00:00)GatewayGateway
744 Cinemoji Apr 8, 2021 $0.99N/A (N/A)0 .. 20,0000%00:00 (00:00)Gray BossGray Boss
745 The Mermaid of Zennor Apr 8, 2021 $4.99N/A (N/A)0 .. 20,0000%00:00 (00:00)ebi-himeebi-hime
746 单身狗的最后机会 Apr 8, 2021 $0.99N/A (N/A)0 .. 20,0000%00:00 (00:00)小鱼工作室小鱼工作室
747 a guard walks into a tavern Mar 31, 2021 $5.99N/A (N/A)20,000 .. 50,0000%00:00 (00:00)SuQingSuQing
748 The Wild Case Apr 6, 2021 $8.99N/A (N/A)50,000 .. 100,0000%00:00 (00:00)Specialbit StudioSpecialbit Studio
749 Reconnect Apr 5, 2021 $1.99N/A (N/A)0 .. 20,0000%00:00 (00:00)HFOTAHFOTA
750 Transporter Manager Tycoon Apr 2, 2021 $9.99N/A (N/A)0 .. 20,0000%00:00 (00:00)Softwaves, New Games WavesSoftwaves Dist.
751 Keeper of the Day and Night Apr 1, 2021 $7.99N/A (N/A)0 .. 20,0000%00:00 (00:00)Hosted GamesHosted Games
752 StudyX - Save Game Codes & Study Any Subject Mar 31, 2021 $4.99N/A (N/A)0 .. 20,0000%00:00 (00:00)PlazSoftPlazSoft
753 Apollyon: River of Life Mar 31, 2021 $14.99N/A (N/A)0 .. 20,0000%00:00 (00:00)ThuynderThuynder
754 Pro Wrestling Sim Mar 29, 2021 $19.99N/A (N/A)0 .. 20,0000%00:00 (00:00)Pro Wrestling SimPro Wrestling Sim
755 Bed Survival! Mar 29, 2021 $0.99N/A (N/A)0 .. 20,0000%00:00 (00:00)AvoCavoAvoCavo
756 Paid Trade Mar 29, 2021 $0.99N/A (N/A)0 .. 20,0000%00:00 (00:00)Jonas TagJonas Tag
757 记得我 Mar 26, 2021 $2.99N/A (N/A)0 .. 20,0000%00:00 (00:00)七彩绘色游戏七彩绘色游戏
758 只是一座楼 Mar 24, 2021 $3.99N/A (N/A)0 .. 20,0000%00:00 (00:00)虾狐乱动画虾狐乱动画
759 PSweet Mar 15, 1999 $7.99N/A (N/A)50,000 .. 100,0000%00:00 (00:00)Future ProofFuture Proof
760 重叠·前夜谭:猫与少女 Mar 19, 2021 $1.99N/A (N/A)0 .. 20,0000%00:00 (00:00)顽童计划顽童计划
761 Venus: Improbable Dream Mar 19, 2021 $12.99N/A (N/A)0 .. 20,0000%00:00 (00:00)BorealisBorealis
762 Mini Words: Polyglot Mar 18, 2021 $1.99N/A (N/A)0 .. 20,0000%00:00 (00:00)Mens Sana InteractiveMens Sana Interactive
763 Deep Therapy Mar 15, 2021 $1.99N/A (N/A)0 .. 20,0000%00:00 (00:00)Difranal StudioDifranal Studio
764 Blobert Mar 13, 2021 $0.99N/A (N/A)0 .. 20,0000%00:00 (00:00)Dean CampagnoloDean Campagnolo
765 Occultism Limbo: The ritual of little nightmares Mar 11, 2021 $4.99N/A (N/A)0 .. 20,0000%00:00 (00:00)Trigger the MonsterCooking and Publishing
766 Raptors of SouthEdge Mar 9, 2021 $2.99N/A (N/A)50,000 .. 100,0000%00:00 (00:00)SouthEdge StudiosSouthEdge Studios
767 Textreme 2 Aug 6, 2020 $2.99N/A (N/A)0 .. 20,0000%00:00 (00:00)Ash K, Amber S. Fiddlemouth, Loboda MaksymAsh K
768 Bunker Down Feb 27, 2021 $1.99N/A (N/A)0 .. 20,0000%00:00 (00:00)Something Something GamesSomething Something Games
769 Majikoi! Love Me Seriously! Feb 26, 2021 $34.99N/A (N/A)0 .. 20,0000%00:00 (00:00)Minato SoftJAST USA
770 My Dear Frankenstein Feb 26, 2021 $4.99N/A (N/A)0 .. 20,0000%00:00 (00:00)NUMBER7NUMBER7
771 InfiniteCorp: Cyberpunk Cards Feb 22, 2021 $3.99N/A (N/A)0 .. 20,0000%00:00 (00:00)T-BullT-Bull
772 Endless Furry Clicker Feb 20, 2021 $0.99N/A (N/A)0 .. 20,0000%00:00 (00:00)Tegridy Made GamesTegridy Made Games
773 RONIN: Two Souls CHAPTER 1 Feb 18, 2021 $14.99N/A (N/A)50,000 .. 100,0000%00:00 (00:00)M11 StudioM11 Studio
774 Learn Programming: Python - Retro Feb 18, 2021 $2.99N/A (N/A)0 .. 20,0000%00:00 (00:00)Niema MoshiriNiema Moshiri
775 Buddy Simulator 1984 Feb 18, 2021 $9.99N/A (N/A)100,000 .. 200,0000%00:00 (00:00)Not a Sailor StudiosNot a Sailor Studios
776 Half Past Fate: Romantic Distancing Feb 14, 2021 $5.99N/A (N/A)0 .. 20,0000%00:00 (00:00)Serenity ForgeWay Down Deep
777 Suicide Countdown: 7 Days Feb 12, 2021 $2.99N/A (N/A)100,000 .. 200,0000%00:00 (00:00)致意致意
778 Distant Transmission Feb 12, 2021 $4.99N/A (N/A)0 .. 20,0000%00:00 (00:00)Caleb FossCaleb Foss
779 Aquadine Feb 11, 2021 $19.99N/A (N/A)20,000 .. 50,0000%00:00 (00:00)SoftColorsSoftColors
780 飞花令 春饼 Feb 11, 2021 $0.99N/A (N/A)0 .. 20,0000%00:00 (00:00)CHEN YUANJICHEN YUANJI
781 CELLAR | Roguelike + Quest Feb 10, 2021 $2.99N/A (N/A)20,000 .. 50,0000%00:00 (00:00)Pavel DivnenkoPavel Divnenko
782 第五件遗留物 Feb 8, 2021 $4.99N/A (N/A)20,000 .. 50,0000%00:00 (00:00)狼烟游戏studio, 雪糕棒NiceBoat, 狼烟游戏studio
783 Leap of Love - Safe Edition Feb 7, 2021 $6.99N/A (N/A)0 .. 20,0000%00:00 (00:00)Andrealphus GamesAndreaphus Games
784 Comet 64 Feb 5, 2021 $14.99N/A (N/A)0 .. 20,0000%00:00 (00:00)Onur Ayaswhat sorceress this
785 The Great Plague Exodus Feb 5, 2021 $7.99N/A (N/A)0 .. 20,0000%00:00 (00:00)Priory GamesPriory Games
786 Cartridge Monsters Feb 4, 2021 FreeN/A (N/A)20,000 .. 50,0000%00:00 (00:00)Happenstance GamesHappenstance Games
787 My Ten-day Girlfriend Feb 4, 2021 $3.99N/A (N/A)0 .. 20,0000%00:00 (00:00)NinePlus StudioSoma Games
788 Firework Feb 3, 2021 $9.99N/A (N/A)500,000 .. 1,000,0002.08%01:15 (00:25)Shiying StudioGamera Games
789 Dark Podval Feb 1, 2021 $9.99N/A (N/A)50,000 .. 100,0000%00:00 (00:00)ХаБеБуPiece Of Voxel
790 Coffee flavor of love 咖啡甜恋 Feb 1, 2021 $3.99N/A (N/A)0 .. 20,0000%00:00 (00:00)P.G.制作组, V.P. TEAM33ParadoX&igstore
791 The Sych story Feb 2, 2021 $0.99N/A (N/A)20,000 .. 50,0000%00:00 (00:00)Svyatoslav BurobinSvyatoslav Burobin
792 Annual Intruders Jan 30, 2021 N/AN/A (N/A)0 .. 20,0000%00:00 (00:00)ClickBuildGamesClickBuildGames
793 The USB Stick Found in the Grass Jan 29, 2021 $9.99N/A (N/A)50,000 .. 100,0000%00:00 (00:00)Marcin BorkowskiBPP
794 Gladiator Manager Jan 28, 2021 $7.99N/A (N/A)0 .. 20,0000%00:00 (00:00)Eternity GamesEternity Games
795 Fate of the Storm Gods Jan 28, 2021 $6.99N/A (N/A)20,000 .. 50,0000%00:00 (00:00)Choice of GamesChoice of Games
796 Ghost in the pool Jan 27, 2021 $4.99N/A (N/A)50,000 .. 100,0000%00:00 (00:00)CASCHA GAMESCASCHA GAMES
797 Memories of Tomorrow Jan 26, 2021 $1.99N/A (N/A)0 .. 20,0000%00:00 (00:00)Digital Bard GamesDigital Bard Games
798 Crossword City Chronicles Jan 25, 2021 $4.99N/A (N/A)0 .. 20,0000%00:00 (00:00)Trailblazer GamesTrailblazer Games
799 Open Sorcery: Sea++ Jan 25, 2021 $14.99N/A (N/A)0 .. 20,0000%00:00 (00:00)Abigail CorfmanOpen Sorcery Games
800 Typing Fingers - Enemy Jan 24, 2021 $14.99N/A (N/A)0 .. 20,0000%00:00 (00:00)Foriero s.r.o.Foriero s.r.o.
801 夏日的回忆 Jan 23, 2021 $10.99N/A (N/A)20,000 .. 50,0000%00:00 (00:00)Shao LeiShao Lei
802 Desktop NEKO Girl Jan 22, 2021 $5.99N/A (N/A)0 .. 20,0000%00:00 (00:00)moon soulmoon soul
803 The Zodiac Trial Jan 21, 2021 $14.99N/A (N/A)50,000 .. 100,0000%00:00 (00:00)ThemisianThemisian
804 No Lights Jan 21, 2021 $0.99N/A (N/A)0 .. 20,0000%00:00 (00:00)Master StudiosMaster Studios
805 Who Needs a Hero? Jan 21, 2021 $2.24N/A (N/A)50,000 .. 100,0000%00:00 (00:00)Henrique Faitta Chitolina, Pidro SoftBaby Stone Studios
806 Super Dango Jan 19, 2021 $2.99N/A (N/A)0 .. 20,0000%00:00 (00:00)Super RiceSuper Rice
807 Rebels - Under the Spell of Magic (Chapter 1) Jan 19, 2021 $3.99N/A (N/A)0 .. 20,0000%00:00 (00:00)BrotherWood GamesBrotherWood Games
808 戾谈 Jan 18, 2021 FreeN/A (N/A)100,000 .. 200,0000%00:00 (00:00)SPG MistarilleSPG Mistarille
809 Knights College Jan 15, 2021 $24.99N/A (N/A)50,000 .. 100,0000%00:00 (00:00)KAIJYU-09KAIJYU-09
810 Doomsday Room Jan 15, 2021 $19.99N/A (N/A)0 .. 20,0000%00:00 (00:00)Doubleton Game StudioDoubleton Game Studio
811 AI Dungeon—Traveler Edition Jan 15, 2021 FreeN/A (N/A)100,000 .. 200,0000%00:00 (00:00)LatitudeLatitude
812 Amazing Pyramids: Rebirth Jan 14, 2021 $6.99N/A (N/A)0 .. 20,0000%00:00 (00:00)Oleg SeredaOleg Sereda
813 흡혈귀의 연애방법 Jul 27, 2020 $17.99N/A (N/A)0 .. 20,0000%00:00 (00:00)BlackRoom Co., LtdBlackRoom Co., Ltd
814 Lotus Reverie: First Nexus Jan 14, 2021 $15.99N/A (N/A)0 .. 20,0000%00:00 (00:00)Keinart LobreKeinart Lobre
815 Quarantine: Global Pandemic Jan 13, 2021 $3.99N/A (N/A)20,000 .. 50,0000%00:00 (00:00)Buck StudiosBuck Studios
816 그랑 엠파이어 Jan 11, 2021 FreeN/A (N/A)0 .. 20,0000%00:00 (00:00)유진게임즈유진게임즈
817 Death off the Cuff Jan 11, 2021 $2.99N/A (N/A)20,000 .. 50,0000%00:00 (00:00)Simon ChristiansenSiChris Productions
818 The Labyrinth Jan 8, 2021 $4.99N/A (N/A)20,000 .. 50,0000%00:00 (00:00)Alexander SpillmanAlexander Spillman
819 Relics of the Lost Age Jan 7, 2021 $7.99N/A (N/A)0 .. 20,0000%00:00 (00:00)Hosted GamesHosted Games
820 Chat Millions - Stream Quiz Game Jan 1, 2021 $5.99N/A (N/A)0 .. 20,0000%00:00 (00:00)Britnet MediaBritnet Media
821 CRYPTIC Dec 25, 2020 $2.99N/A (N/A)0 .. 20,0000%00:00 (00:00)Shoho GamesShoho Games
822 约会模拟器:原型 Dec 24, 2020 $0.99N/A (N/A)0 .. 20,0000%00:00 (00:00)WW
823 像素男友 语音完整版 Dec 24, 2020 $3.99N/A (N/A)0 .. 20,0000%00:00 (00:00)HIROKO IMAKIPujia8 Studio
824 Yolo Space Hacker Dec 24, 2020 $24.99N/A (N/A)0 .. 20,0000%00:00 (00:00)BKNLabBKNLab
825 Think_ Dec 25, 2020 $1.99N/A (N/A)0 .. 20,0000%00:00 (00:00)MaxPIMaxPI
826 Sayonara Electric Dec 23, 2020 $9.99N/A (N/A)0 .. 20,0000%00:00 (00:00)KaminGamesKaminGames
827 Cinderella Phenomenon: Evermore Dec 22, 2020 $9.99N/A (N/A)0 .. 20,0000%00:00 (00:00)DicesukiDicesuki
828 Bloody Service Dec 22, 2020 $4.99N/A (N/A)20,000 .. 50,0000%00:00 (00:00)CASECASE
829 NETABOKU -A robot girl changes my life as a bedridden boy- Dec 17, 2020 $9.99N/A (N/A)0 .. 20,0000%00:00 (00:00)Atelier ATICAtelier ATIC
830 Unscripted Dec 17, 2020 $6.99N/A (N/A)20,000 .. 50,0000%00:00 (00:00)Marquis KurtMarquis Kurt
831 The Luminous Underground Dec 17, 2020 $7.99N/A (N/A)0 .. 20,0000%00:00 (00:00)Choice of GamesChoice of Games
832 Franchise Hockey Manager 7 Dec 16, 2020 $19.99N/A (N/A)0 .. 20,0000%00:00 (00:00)Out of the Park Developments, Minos GamesOut of the Park Developments
833 Playing Pride & Prejudice 1: An Austen Armoire Dec 15, 2020 $11.99N/A (N/A)0 .. 20,0000%00:00 (00:00)MInerva InteractiveMinerva Interactive
834 Ken ga Kimi: Momoyo Tsuzuri Dec 15, 2020 $49.99N/A (N/A)0 .. 20,0000%00:00 (00:00)RejetBeijing Happy Entertainment Technology
835 Orwell's Animal Farm Dec 10, 2020 $9.99N/A (N/A)50,000 .. 100,0000%00:00 (00:00)NerialThe Dairymen
836 Text Twisted Pro Dec 9, 2020 $0.99N/A (N/A)0 .. 20,0000%00:00 (00:00)Tuga StudiosTuga Studios
837 Super tanks RPG Dec 9, 2020 $9.99N/A (N/A)0 .. 20,0000%00:00 (00:00)SRV-gamePiece Of Voxel
838 Silmaris: Dice Kingdom Dec 3, 2020 $9.99N/A (N/A)0 .. 20,0000%00:00 (00:00)PyrogenMi-Clos Studio, Fractale
839 Control Over Dec 2, 2020 $1.49N/A (N/A)0 .. 20,0000%00:00 (00:00)AshcraftAshcraft
840 Wet steps Dec 2, 2020 $1.99N/A (N/A)20,000 .. 50,0000%00:00 (00:00)Orika NekoiMoonworks
841 The Wednesday Nov 30, 2020 N/AN/A (N/A)20,000 .. 50,0000%00:00 (00:00)GamBridzyGamBridzy
842 EndlessShinyBlues Nov 30, 2020 $1.99N/A (N/A)0 .. 20,0000%00:00 (00:00)YouthAndLoveYouthAndLove
843 吾光笔记Holimas Z Notebook Nov 29, 2020 $4.99N/A (N/A)20,000 .. 50,0000%00:00 (00:00)Static springStatic spring
844 Field Hospital: Dr. Taylor's Story Nov 27, 2020 $4.99N/A (N/A)0 .. 20,0000%00:00 (00:00)Gard InteractiveGard Interactive
845 Lighthouse Keeper Nov 22, 2020 $0.99N/A (N/A)50,000 .. 100,0000%00:00 (00:00)Nikita KafMissing Calm
846 Overslept Nov 22, 2020 $1.99N/A (N/A)0 .. 20,0000%00:00 (00:00)Justus YewJarze Games
847 The Prologue to a Dream of Home Nov 20, 2020 $0.99N/A (N/A)0 .. 20,0000%00:00 (00:00)KN1053KN1053
848 Twisted: A Dark Fairytale Oct 30, 2020 $9.99N/A (N/A)0 .. 20,0000%00:00 (00:00)Fablesoft StudiosFablesoft Studios
849 Silicon Valley Investor Nov 18, 2020 $2.99N/A (N/A)20,000 .. 50,0000%00:00 (00:00)Revolver NineRevolver Nine
850 狂潮-Staggering Through The Dark Nov 18, 2020 $1.99N/A (N/A)0 .. 20,0000%00:00 (00:00)Longxi ZhaoLongxi Zhao
851 Super Ultimatum Quiz Nov 16, 2020 $0.99N/A (N/A)0 .. 20,0000%00:00 (00:00)Ruskija Game ExperienceTero Lunkka
852 I'm Oh, So Busy...: A Week with Yoshimi Nov 13, 2020 $9.99N/A (N/A)0 .. 20,0000%00:00 (00:00)The Berry GuildThe Berry Guild
853 Seiga Kaku uses her amazing Taoist arts and gives you a life lesson Nov 13, 2020 $0.99N/A (N/A)20,000 .. 50,0000%00:00 (00:00)Skuhataagyall devSkuhataagyall dev
854 Jolly Good: Cakes and Ale Nov 12, 2020 $11.99N/A (N/A)0 .. 20,0000%00:00 (00:00)Choice of GamesChoice of Games
855 墨心:波云诡船 Nov 12, 2020 $2.99N/A (N/A)100,000 .. 200,0000%00:00 (00:00)1001 Studio1001 Studio
856 The Adventurer - Episode 2: New Dreams Nov 11, 2020 $0.99N/A (N/A)50,000 .. 100,0000%00:00 (00:00)ZemunBRESA Industry
857 Television Trivia Nov 6, 2020 $0.99N/A (N/A)0 .. 20,0000%00:00 (00:00)LoadUpGames.comLoadUpGames.com
858 Timequest Jan 1, 1993 $6.99N/A (N/A)0 .. 20,0000%00:00 (00:00)Legend EntertainmentZiggurat
859 Les Manley in: Search for the King Jan 1, 1990 $6.99N/A (N/A)100,000 .. 200,0000%00:00 (00:00)Accolade Inc.Ziggurat
860 1 For Yes, 0 For No Nov 6, 2020 N/AN/A (N/A)0 .. 20,0000%00:00 (00:00)Alyssa GenereauAlyssa Genereau
861 The Remission of Sins Nov 5, 2020 $11.99N/A (N/A)0 .. 20,0000%00:00 (00:00)KaminGamesTsukiakari Studios, KaminGames
862 Mini Words: Top Games Nov 5, 2020 $0.69N/A (N/A)0 .. 20,0000%00:00 (00:00)Mens Sana InteractiveMens Sana Interactive
863 Fateful End: True Case Files Nov 3, 2020 $9.99N/A (N/A)0 .. 20,0000%00:00 (00:00)GenuineGiiku Games
864 Choices That Matter: And The Sun Went Out Nov 3, 2020 $5.99N/A (N/A)20,000 .. 50,0000%00:00 (00:00)Tin Man GamesTin Man Games
865 Secret Agent Allan Martin in ... Phoenix Erupting Nov 3, 2020 $1.99N/A (N/A)50,000 .. 100,0000%00:00 (00:00)SC GamesSC Games
866 Lurkers Nov 2, 2020 $5.99N/A (N/A)0 .. 20,0000%00:00 (00:00)Ertal GamesErtal Games
867 Sakura Succubus 3 Nov 2, 2020 $9.99N/A (N/A)50,000 .. 100,0000%00:00 (00:00)Winged CloudWinged Cloud
868 恋爱绮谭~不存在的夏天~ Oct 31, 2020 $6.74N/A (N/A)50,000 .. 100,0000%00:00 (00:00)Never Knows BestNever Knows Best
869 The Hunter's Journals - Red Ripper Oct 31, 2020 $5.99N/A (N/A)0 .. 20,0000%00:00 (00:00)Grindwheel GamesGrindwheel Games
870 Starlight Shores Oct 30, 2020 $3.99N/A (N/A)0 .. 20,0000%00:00 (00:00)Delphinium InteractiveDelphinium Interactive
871 Touhou Gensokyo Visitor Oct 30, 2020 $3.99N/A (N/A)0 .. 20,0000%00:00 (00:00)GameGate69Gate
872 Maitetsu:Last Run!! Oct 30, 2020 $17.49N/A (N/A)50,000 .. 100,00014.29%00:48 (00:32)LoseHIKARI FIELD
873 Marcella Moon: Saboteurs on the River Oct 29, 2020 $7.99N/A (N/A)0 .. 20,0000%00:00 (00:00)Hidden Ocean GamesHidden Ocean Games
874 Who Wants To Be A Millionaire Oct 29, 2020 $11.99N/A (N/A)0 .. 20,0000%00:00 (00:00)Appeal StudiosMicroids
875 自西徂东 Oct 28, 2020 $5N/A (N/A)0 .. 20,0000%00:00 (00:00)为了共和开发团队为了共和发行团队
876 Fast Typing Master Oct 28, 2020 $0.99N/A (N/A)0 .. 20,0000%00:00 (00:00)Boogygames StudiosBoogygames Studios
877 PAGO FOREST: DRAGON'S REVENGE Oct 27, 2020 $5.99N/A (N/A)50,000 .. 100,0000%00:00 (00:00)FuturtechNova's Army
878 Monster Prom 2: Monster Camp Oct 23, 2020 $11.99N/A (N/A)200,000 .. 500,0000%00:00 (00:00)Beautiful GlitchBeautiful Glitch
879 Way Walkers: University 2 Oct 18, 2013 $5.99N/A (N/A)100,000 .. 200,0000%00:00 (00:00)Hosted GamesHosted Games
880 TEXT: Russia Oct 21, 2020 $2.99N/A (N/A)0 .. 20,0000%00:00 (00:00)Laush Dmitriy SergeevichLaush Studio
881 The Metamorphosis Oct 19, 2020 $7.99N/A (N/A)0 .. 20,0000%00:00 (00:00)Izmir Games CollectiveIzmir Games Collective
882 Stranded 2 Oct 19, 2020 $3.99N/A (N/A)0 .. 20,0000%00:00 (00:00)JimJams GamesJimJams Games
883 KIRO Oct 16, 2020 $2.99N/A (N/A)0 .. 20,0000%00:00 (00:00)BlekohBlekoh
884 10mg: SLASHER, Interrupted Oct 15, 2020 $1.99N/A (N/A)0 .. 20,0000%00:00 (00:00)Softerror Interactive10mg
885 Fox Spirit: A Two-Tailed Adventure Oct 15, 2020 $6.99N/A (N/A)0 .. 20,0000%00:00 (00:00)Choice of GamesChoice of Games
886 10mg: Cover Me In Leaves Oct 15, 2020 $1.99N/A (N/A)0 .. 20,0000%00:00 (00:00)Elliot Herriman10mg
887 The Haunted House of Doom Oct 13, 2020 $3.99N/A (N/A)0 .. 20,0000%00:00 (00:00)Paul BirdMarjupi Games
888 Unmemory Oct 13, 2020 $9.99N/A (N/A)100,000 .. 200,0000%00:00 (00:00)PATRONES & ESCONDITESPATRONES & ESCONDITES
889 Too Different Oct 9, 2020 $5.99N/A (N/A)20,000 .. 50,0000%00:00 (00:00)Hosted GamesHosted Games
890 Throw Me in the River Oct 5, 2020 $2.99N/A (N/A)0 .. 20,0000%00:00 (00:00)Side GroupSide Group
891 The HeartBeat Oct 5, 2020 $0.99N/A (N/A)20,000 .. 50,0000%00:00 (00:00)猫柚工作室猫柚工作室
892 Love's Sweet Garnish 2 Oct 2, 2020 $16.99N/A (N/A)0 .. 20,0000%00:00 (00:00)Canvas+GardenSekai Project
893 Draft Day Sports: Pro Football 2021 Oct 1, 2020 $19.99N/A (N/A)0 .. 20,0000%00:00 (00:00)Wolverine StudiosWolverine Studios
894 赛博侦探:艾尔塔特 Oct 1, 2020 $3.99N/A (N/A)0 .. 20,0000%00:00 (00:00)认真玩工作室认真玩工作室
895 Nice to NO you Oct 1, 2020 $4.99N/A (N/A)0 .. 20,0000%00:00 (00:00)QuaranTime GamesQuaranTime Games
896 BOT.vinnik Chess: Winning Patterns Sep 30, 2020 $0.99N/A (N/A)0 .. 20,0000%00:00 (00:00)Deep Green GamesAbyssal Studios
897 Takorita Meets Fries Sep 30, 2020 $3.49N/A (N/A)20,000 .. 50,0000%00:00 (00:00)ROSEVERTEROSEVERTE, Pleasant Rain Ltd
898 Cauldrons of War - Barbarossa Sep 25, 2020 $14.99N/A (N/A)0 .. 20,0000%00:00 (00:00)Maestro CinetikGaming at Work
899 Server is Down Sep 25, 2020 $6.99N/A (N/A)0 .. 20,0000%00:00 (00:00)DbVectra, AlexTykhDbVectra & AlexTykh
900 CLEARWORLD Sep 25, 2020 N/AN/A (N/A)0 .. 20,0000%00:00 (00:00)TOEI ANIMATION CO., LTD., Plus 81Yggdrasill Interactive
901 Vampire: The Masquerade — Night Road Sep 24, 2020 $11.99N/A (N/A)20,000 .. 50,0000%00:00 (00:00)Choice of GamesChoice of Games
902 LA FORET DE PAGO : LA VENGEANCE DU DRAGON Sep 24, 2020 $5.99N/A (N/A)20,000 .. 50,0000%00:00 (00:00)FuturtechNova's Army
903 Living in the Ending World Sep 22, 2020 $5.99N/A (N/A)0 .. 20,0000%00:00 (00:00)illuCalabSekai Project
904 My Vow to My Liege Sep 21, 2020 $9.99N/A (N/A)100,000 .. 200,0000%00:00 (00:00)YETU GAME方块游戏(CubeGame)
905 Journey of the Broken Circle Sep 18, 2020 $9.99N/A (N/A)0 .. 20,0000%00:00 (00:00)Lovable Hat CultNakana.io, Lovable Hat Cult
906 Chaotic Airport Construction Manager Sep 17, 2020 $7.99N/A (N/A)20,000 .. 50,0000%00:00 (00:00)Illusive ReflectionSteckenpferd Enterprises
907 Dallen Clicker Ultimate Sep 20, 2020 $0.99N/A (N/A)0 .. 20,0000%00:00 (00:00)LarsonsoftLarsonsoft
908 Hero or Villain: Battle Royale Sep 16, 2020 $6.99N/A (N/A)0 .. 20,0000%00:00 (00:00)Hosted GamesHosted Games
909 Morth Sep 16, 2020 $0.99N/A (N/A)100,000 .. 200,0000%00:00 (00:00)Hidden Crawlspace StudiosHidden Crawlspace Studios
910 Friendly Find Sep 4, 2020 $0.99N/A (N/A)20,000 .. 50,0000%00:00 (00:00)DgelioncelDgelioncel
911 Bleeding Moons Sep 3, 2020 $4.99N/A (N/A)0 .. 20,0000%00:00 (00:00)IAN GamesPhoenix Online Publishing
912 Cartomante – Fortune Teller Sep 1, 2020 $4.99N/A (N/A)20,000 .. 50,0000%00:00 (00:00)Garoa StudiosGaroa Studios
913 Alias Aug 31, 2020 $5.99N/A (N/A)0 .. 20,0000%00:00 (00:00)PotatoIndustriesPotatoIndustries
914 Roast Party Aug 28, 2020 FreeN/A (N/A)0 .. 20,0000%00:00 (00:00)FraccasDevFraccas
915 Move Code Lines Aug 28, 2020 $5.99N/A (N/A)0 .. 20,0000%00:00 (00:00)FewjixFewjix
916 Schastye Aug 27, 2020 $0.99N/A (N/A)20,000 .. 50,0000%00:00 (00:00)Garage HeathenMissing Calm
917 Dream Stone 2 Aug 26, 2020 $4.99N/A (N/A)20,000 .. 50,0000%00:00 (00:00)QuickSaveSA Industry
918 Milk inside a bag of milk inside a bag of milk Aug 26, 2020 $0.99N/A (N/A)200,000 .. 500,0004.76%00:24 (00:08)Nikita KryukovMissing Calm
919 A Lozenge Aug 26, 2020 $1.99N/A (N/A)0 .. 20,0000%00:00 (00:00)Party for IntrovertsParty for Introverts
920 Xtreme Typing Aug 25, 2020 $3.99N/A (N/A)0 .. 20,0000%00:00 (00:00)Individual SoftwareIndividual Software
921 The Call Centre Aug 22, 2020 $0.99N/A (N/A)0 .. 20,0000%00:00 (00:00)Junaid JavedJunaid Javed
922 Kidnapped! A Royal Birthday Aug 20, 2020 $4.99N/A (N/A)0 .. 20,0000%00:00 (00:00)Choice of GamesChoice of Games
923 《Curse of disaster spirit : Anecdotes of mansion》 Aug 11, 2020 $7.99N/A (N/A)0 .. 20,0000%00:00 (00:00)Kaili GongKaili Gong
924 To Be With You Aug 10, 2020 $2.99N/A (N/A)0 .. 20,0000%00:00 (00:00)Illus Seed GamesIllus Seed Games
925 灰烬行星与填鸭少女 Aug 8, 2020 $199.99N/A (N/A)0 .. 20,0000%00:00 (00:00)世界末日高考组Dmk
926 The Last Survey Aug 7, 2020 $4.99N/A (N/A)0 .. 20,0000%00:00 (00:00)Nicholas O'BrienNicholas O'Brien
927 The Floating City Aug 6, 2020 $4.99N/A (N/A)0 .. 20,0000%00:00 (00:00)Hosted GamesHosted Games
928 Starship Intruder Aug 4, 2020 $2.99N/A (N/A)20,000 .. 50,0000%00:00 (00:00)Isocube SoftwareIsocube Software
929 HEX Hacking Simulator Jul 31, 2020 $9.99N/A (N/A)0 .. 20,0000%00:00 (00:00)Solis StudiosSolis Studios
930 Love Mystery Club Jul 30, 2020 $0.99N/A (N/A)20,000 .. 50,0000%00:00 (00:00)GMatrixGMatrix
931 3 min per day! Improve your aged eyes(Presbyopia) Jul 30, 2020 $0.99N/A (N/A)0 .. 20,0000%00:00 (00:00)Hellshake YanoHellshake Yano.
932 Snowdome Jul 23, 2020 $6.99N/A (N/A)50,000 .. 100,0000%00:00 (00:00)Lunatic WorksLunatic Works, Kikai Digital
933 My Dangerous Life Jul 23, 2020 $12.99N/A (N/A)0 .. 20,0000%00:00 (00:00)HituzigumoGiiku Games
934 Werewolves 2: Pack Mentality Jul 23, 2020 $6.99N/A (N/A)0 .. 20,0000%00:00 (00:00)Choice of GamesChoice of Games
935 Quiz Pro - Guess Pictures Jul 22, 2020 $2.99N/A (N/A)0 .. 20,0000%00:00 (00:00)Boogygames StudiosBoogygames Studios
936 Divine Favor Jul 19, 2020 $0.99N/A (N/A)0 .. 20,0000%00:00 (00:00)Samantha ArehartSamantha Arehart
937 Power Of Language Jul 18, 2020 $1.99N/A (N/A)0 .. 20,0000%00:00 (00:00)ZAZA
938 迷雾之夏-The Vigilant Villa Jul 17, 2020 $7.99N/A (N/A)50,000 .. 100,0000%00:00 (00:00)知行合一游艺春秋
939 My Isekai After Life is an RPG!? Jul 17, 2020 $5.99N/A (N/A)20,000 .. 50,0000%00:00 (00:00)Nyanko GamesNyanko Games
940 Edge of Reality Jul 16, 2020 $1.99N/A (N/A)0 .. 20,0000%00:00 (00:00)Moon EclipsePhoenix_co
941 We should talk. Jul 16, 2020 $6.99N/A (N/A)0 .. 20,0000%00:00 (00:00)Insatiable CycleWhitethorn Games, Insatiable Cycle
942 Eternal Pain: Epiphany Jul 13, 2020 $2.99N/A (N/A)0 .. 20,0000%00:00 (00:00)GDOAD EIS DGDOAD EIS D
943 归途 Jul 12, 2020 $74.99N/A (N/A)0 .. 20,0000%00:00 (00:00)xuhuixuhui
944 Ephemera Jul 10, 2020 $7.99N/A (N/A)0 .. 20,0000%00:00 (00:00)Ashley MooreAshley Moore
945 The Wake: Mourning Father, Mourning Mother Jul 10, 2020 $4.99N/A (N/A)0 .. 20,0000%00:00 (00:00)SomiSomi, indienova
946 他人世界末 On-looker Jul 10, 2020 $8.99N/A (N/A)100,000 .. 200,0000%00:00 (00:00)8A studio昆布科技
947 180 Files: The Aegis Project Jul 9, 2020 $5.99N/A (N/A)0 .. 20,0000%00:00 (00:00)Choice of GamesChoice of Games
948 Surprise Party! Jun 30, 2020 FreeN/A (N/A)20,000 .. 50,0000%00:00 (00:00)Dylan RadovnikovicDylan Radovnikovic
949 The Door Of Redemption Jun 30, 2020 $0.99N/A (N/A)0 .. 20,0000%00:00 (00:00)地航者地航者
950 Space Court Jun 25, 2020 $2.99N/A (N/A)0 .. 20,0000%00:00 (00:00)Uphill PromiseUphill Promise
951 机忆 Jun 18, 2020 $0.99N/A (N/A)0 .. 20,0000%00:00 (00:00)futurelovegamefuturelovegame
952 Demonic Blade Jun 17, 2020 $4.99N/A (N/A)0 .. 20,0000%00:00 (00:00)Mikołaj SpychałMikołaj Spychał
953 Marcella Moon: Secret on the Hill Jun 15, 2020 $4.99N/A (N/A)20,000 .. 50,0000%00:00 (00:00)Hidden Ocean GamesHidden Ocean Games
954 KANAPOCALYPSE Jun 13, 2020 $2.99N/A (N/A)0 .. 20,0000%00:00 (00:00)PamPam StudioPamPam Studio
955 Light Years Apart Jun 11, 2020 $5.99N/A (N/A)0 .. 20,0000%00:00 (00:00)Choice of GamesChoice of Games
956 War for Magincia Jun 4, 2020 $5.99N/A (N/A)0 .. 20,0000%00:00 (00:00)Hosted GamesHosted Games
957 Swamp Castle Jul 29, 2016 $4.99N/A (N/A)0 .. 20,0000%00:00 (00:00)Hosted GamesHosted Games
958 Life of a Mercenary Jun 4, 2020 $6.99N/A (N/A)0 .. 20,0000%00:00 (00:00)Hosted GamesHosted Games
959 String Tyrant Jun 4, 2020 $4.99N/A (N/A)0 .. 20,0000%00:00 (00:00)Bottled StarlightBottled Starlight
960 My Mud Game May 29, 2020 $15.99N/A (N/A)0 .. 20,0000%00:00 (00:00)Red Cat StudioRed Cat Studio
961 The Hostage May 16, 2020 $0.99N/A (N/A)0 .. 20,0000%00:00 (00:00)Respect StudiosRespect Studios
962 Out of Shapes May 19, 2020 $8.99N/A (N/A)0 .. 20,0000%00:00 (00:00)One Percent Games LLCOne Percent Games LLC
963 Astonishing Baseball Manager 20 May 15, 2020 $7.99N/A (N/A)0 .. 20,0000%00:00 (00:00)AerilysZero One
964 A Squire's Tale May 14, 2020 $4.99N/A (N/A)0 .. 20,0000%00:00 (00:00)Choice of GamesChoice of Games
965 Real Life Plus Ver. Kaname Komatsuzaki May 8, 2020 $12.99N/A (N/A)0 .. 20,0000%00:00 (00:00)Fan-naSekai Project
966 My Wet Leto Comic May 8, 2020 $7.99N/A (N/A)50,000 .. 100,0000%00:00 (00:00)Fusen StudioFusen Studio, Limor Gaming
967 Wayhaven Chronicles: Book Two May 7, 2020 $8.99N/A (N/A)0 .. 20,0000%00:00 (00:00)Hosted GamesHosted Games
968 Mask of the Plague Doctor Apr 23, 2020 $7.99N/A (N/A)0 .. 20,0000%00:00 (00:00)Choice of GamesChoice of Games
969 Never Date Werewolves Apr 16, 2020 $4.99N/A (N/A)0 .. 20,0000%00:00 (00:00)Heart's ChoiceHeart's Choice
970 Project DeepWeb Apr 15, 2020 $4.99N/A (N/A)0 .. 20,0000%00:00 (00:00)NightCat StudiosNightCat Studios
971 Mini Words: Top Movies Apr 10, 2020 $0.99N/A (N/A)20,000 .. 50,0000%00:00 (00:00)Mens Sana InteractiveMens Sana Interactive
972 Blackstone Academy for the Magical Arts Apr 9, 2020 $5.99N/A (N/A)0 .. 20,0000%00:00 (00:00)Choice of GamesChoice of Games
973 Wanderlust: Transsiberian Apr 9, 2020 $1.49N/A (N/A)0 .. 20,0000%00:00 (00:00)Different TalesWalkabout
974 Chatventures Apr 9, 2020 $2.99N/A (N/A)0 .. 20,0000%00:00 (00:00)Sokpop CollectiveSokpop Collective
975 The Aegis Saga Apr 2, 2020 $7.99N/A (N/A)0 .. 20,0000%00:00 (00:00)Hosted GamesHosted Games
976 In Her Eyes Apr 1, 2020 $9.99N/A (N/A)0 .. 20,0000%00:00 (00:00)NotDeadLuna StudioNotDeadLuna Studio
977 This Is Not The End Mar 31, 2020 $4.99N/A (N/A)0 .. 20,0000%00:00 (00:00)Cracked EggCracked Egg
978 Over the Alps Mar 31, 2020 $12.99N/A (N/A)0 .. 20,0000%00:00 (00:00)Stave StudiosStave Studios
979 QUIZ PRO! - General Knowledge Mar 28, 2020 $2.99N/A (N/A)0 .. 20,0000%00:00 (00:00)Boogygames StudiosBoogygames Studios
980 Amairo Chocolate Mar 19, 2020 $24.99N/A (N/A)0 .. 20,0000%00:00 (00:00)Cabbage SoftSekai Project
981 ASCIIDENT Mar 18, 2020 $9.99N/A (N/A)0 .. 20,0000%00:00 (00:00)UAB Puzzle LabBlack Maple Games
982 The Travelyan Home Mar 12, 2020 $4.99N/A (N/A)0 .. 20,0000%00:00 (00:00)The Shepherd MoonThe Shepherd Moon
983 The Soul Stone War Mar 5, 2020 $7.99N/A (N/A)0 .. 20,0000%00:00 (00:00)Hosted GamesHosted Games
984 World Seed Classic Feb 28, 2020 $5.99N/A (N/A)20,000 .. 50,0000%00:00 (00:00)KortesApe Egg
985 Ironheart Feb 27, 2020 $6.99N/A (N/A)0 .. 20,0000%00:00 (00:00)Choice of GamesChoice of Games
986 Zip! Speedster of Valiant City Feb 20, 2020 $4.99N/A (N/A)0 .. 20,0000%00:00 (00:00)Choice of GamesChoice of Games
987 Survive In Russia Feb 17, 2020 $5.99N/A (N/A)0 .. 20,0000%00:00 (00:00)Alexander SablinAlexander Sablin
988 apartment: a separated place Feb 14, 2020 $14.99N/A (N/A)0 .. 20,0000%00:00 (00:00)The Elsewhere CompanyThe Elsewhere Company
989 El Remedio de Aldorf Feb 14, 2020 $3.99N/A (N/A)0 .. 20,0000%00:00 (00:00)Breakover InteractiveBreakover Interactive
990 A Player's Heart Feb 13, 2020 $5.99N/A (N/A)0 .. 20,0000%00:00 (00:00)Heart's ChoiceHeart's Choice
991 Naked News Feb 7, 2020 $0.99N/A (N/A)0 .. 20,0000%00:00 (00:00)Randumb StudiosRandumb Studios
992 The Shadow Society Feb 6, 2020 $8.99N/A (N/A)0 .. 20,0000%00:00 (00:00)Hosted GamesHosted Games
993 Alpacapaca Double Dash Jan 28, 2020 $5.99N/A (N/A)0 .. 20,0000%00:00 (00:00)Synnergy Circle GamesSynnergy Circle Games
994 Sky Pirates of Actorius Jan 23, 2020 $4.99N/A (N/A)0 .. 20,0000%00:00 (00:00)Choice of GamesChoice of Games
995 Little One - A Visual Novel Jan 14, 2020 $9.99N/A (N/A)0 .. 20,0000%00:00 (00:00)Dim Sum OneGiiku Games
996 Street Jam: The Rise Jan 9, 2020 $6.99N/A (N/A)0 .. 20,0000%00:00 (00:00)Hosted GamesHosted Games
997 Em-A-Li Jan 1, 2020 $1.99N/A (N/A)0 .. 20,0000%00:00 (00:00)YobobYobob Games
998 Medieval Monarch Jan 1, 2020 $9.99N/A (N/A)20,000 .. 50,0000%00:00 (00:00)Mr.LordyMr.Lordy
999 An Odyssey: Echoes of War Dec 26, 2019 $6.99N/A (N/A)0 .. 20,0000%00:00 (00:00)Choice of GamesChoice of Games
1000 The Magician's Workshop Dec 19, 2019 $5.99N/A (N/A)0 .. 20,0000%00:00 (00:00)Choice of GamesChoice of Games
1001 Photo Quiz - Animals Dec 13, 2019 $0.99N/A (N/A)0 .. 20,0000%00:00 (00:00)Boogygames StudiosBoogygames Studios
1002 Rocwood Academy Dec 13, 2019 $2.99N/A (N/A)0 .. 20,0000%00:00 (00:00)DigiLab InteractionDigiLab Interaction
1003 In the Service of Mrs. Claus Dec 12, 2019 $5.99N/A (N/A)0 .. 20,0000%00:00 (00:00)Choice of GamesChoice of Games
1004 Winter Polaris Dec 12, 2019 $14.99N/A (N/A)0 .. 20,0000%00:00 (00:00)stage-nanaSekai Project
1005 DIVINATION Dec 12, 2019 $1.99N/A (N/A)100,000 .. 200,0000%00:00 (00:00)MojikenMojiken
1006 Murder On The Island Dec 10, 2019 $2.99N/A (N/A)0 .. 20,0000%00:00 (00:00)Forever Young GamesForever Young Games
1007 A Pirate's Pleasure Dec 2, 2019 $6.99N/A (N/A)0 .. 20,0000%00:00 (00:00)Heart's ChoiceHeart's Choice
1008 Dawnfall Dec 2, 2019 $5.99N/A (N/A)0 .. 20,0000%00:00 (00:00)Heart's ChoiceHeart's Choice
1009 Jazz Age Dec 2, 2019 $4.99N/A (N/A)0 .. 20,0000%00:00 (00:00)Heart's ChoiceHeart's Choice
1010 Adventureland XL Dec 2, 2019 $4.99N/A (N/A)0 .. 20,0000%00:00 (00:00)Clopas LLCClopas LLC
1011 Creme de la Creme Nov 27, 2019 $7.99N/A (N/A)0 .. 20,0000%00:00 (00:00)Choice of GamesChoice of Games
1012 Markov Alg Nov 26, 2019 $2.99N/A (N/A)0 .. 20,0000%00:00 (00:00)FewjixFewjix
1013 BatMUD Nov 19, 2019 $4.99N/A (N/A)0 .. 20,0000%00:00 (00:00)Antti A. Luostarinen, Emil Nilimaa, Niklas Lindroos, Matti A. Virtanen, Riku-Ville Mäkelä, Lauri Holmas, Polar Night Software Sp. z o.o.Balanced Alternative Techniques ry
1014 A Familiar Fairytale Dyslexic Text Based Adventure Nov 18, 2019 $0.99N/A (N/A)0 .. 20,0000%00:00 (00:00)Alastair LowLowtek Games
1015 Kyle is Famous: Complete Edition Nov 18, 2019 $14.99N/A (N/A)100,000 .. 200,0000%00:00 (00:00)John SzymanskiJohn Szymanski
1016 The War for the West Nov 14, 2019 $7.99N/A (N/A)0 .. 20,0000%00:00 (00:00)Hosted GamesHosted Games
1017 Breach: The Archangel Job Nov 14, 2019 $8.99N/A (N/A)0 .. 20,0000%00:00 (00:00)Hosted GamesHosted Games
1018 Feels Nov 13, 2019 $3.99N/A (N/A)0 .. 20,0000%00:00 (00:00)Copper Heart FactoryCopper Heart Factory
1019 Grand Academy II: Attack of the Sequel Nov 7, 2019 $5.99N/A (N/A)0 .. 20,0000%00:00 (00:00)Choice of GamesChoice of Games
1020 [MISC] TIMELINES Nov 6, 2019 $0.99N/A (N/A)0 .. 20,0000%00:00 (00:00)Misc.261Misc.261
1021 Dimensionality 3.5 Nov 2, 2019 $0.99N/A (N/A)0 .. 20,0000%00:00 (00:00)NPC S StudioNPC S Studio
1022 The Hunter's Journals - Blissful Ignorance Oct 31, 2019 $5.99N/A (N/A)0 .. 20,0000%00:00 (00:00)Grindwheel GamesGrindwheel Games
1023 The Fog Knows Your Name Oct 24, 2019 $6.99N/A (N/A)0 .. 20,0000%00:00 (00:00)Choice of GamesChoice of Games
1024 Detective Kobayashi - A Visual Novel Oct 24, 2019 $12.99N/A (N/A)0 .. 20,0000%00:00 (00:00)GenuineGiiku Games
1025 Mini Words - minimalist puzzle Oct 24, 2019 $1.99N/A (N/A)0 .. 20,0000%00:00 (00:00)Mens Sana InteractiveMens Sana Interactive
1026 My Typing Skill Oct 18, 2019 $0.99N/A (N/A)0 .. 20,0000%00:00 (00:00)RewindAppRewindApp
1027 The Eye of Borrack Oct 17, 2019 $2.99N/A (N/A)0 .. 20,0000%00:00 (00:00)JimJams GamesJimJams Games
1028 R.U.B.Y.寻常交织的日常 Oct 15, 2019 $0.99N/A (N/A)0 .. 20,0000%00:00 (00:00)ShiinaYashiroShiinaYashiro
1029 Victoriana - Steampunk Text Adventure Oct 13, 2019 $2.99N/A (N/A)0 .. 20,0000%00:00 (00:00)Dr. Cyril SplutterworthDr. Cyril Splutterworth
1030 The Parenting Simulator Sep 30, 2019 $5.99N/A (N/A)0 .. 20,0000%00:00 (00:00)Hosted GamesHosted Games
1031 Nanairo Reincarnation Sep 27, 2019 $29.99N/A (N/A)0 .. 20,0000%00:00 (00:00)Silky's Plus Wasabi, Silky’s Plus AlphaSekai Project
1032 A Legionary's Life Sep 25, 2019 $7.99N/A (N/A)50,000 .. 100,0000%00:00 (00:00)Alessandro RobertiAlessandro Roberti
1033 Hero or Villain: Genesis Sep 19, 2019 $6.99N/A (N/A)0 .. 20,0000%00:00 (00:00)Hosted GamesHosted Games
1034 Sword of the Slayer Sep 12, 2019 $5.99N/A (N/A)0 .. 20,0000%00:00 (00:00)Choice of GamesChoice of Games
1035 Fit For a King Sep 5, 2019 $9.99N/A (N/A)0 .. 20,0000%00:00 (00:00)Brent Ellison, Tanya X. ShortKitfox Games
1036 Norman's Great Illusion Aug 29, 2019 $2.99N/A (N/A)0 .. 20,0000%00:00 (00:00)Civil SavagesCivil Savages
1037 Samurai of Hyuga Book 4 Aug 29, 2019 $6.99N/A (N/A)0 .. 20,0000%00:00 (00:00)Hosted GamesHosted Games
1038 A Wanderer's Adventure Aug 22, 2019 $1.99N/A (N/A)0 .. 20,0000%00:00 (00:00)A WandererWander Studios
1039 Psy High 2: High Summer Aug 15, 2019 $6.99N/A (N/A)0 .. 20,0000%00:00 (00:00)Choice of GamesChoice of Games
1040 Stone Story RPG Aug 8, 2019 $19.99N/A (N/A)0 .. 20,0000%00:00 (00:00)Martian Rex, standardcomboMartian Rex
1041 Keeper of the Sun and Moon Aug 8, 2019 $6.99N/A (N/A)0 .. 20,0000%00:00 (00:00)Hosted GamesHosted Games
1042 Gladiator: Road to the Colosseum Aug 8, 2019 $5.99N/A (N/A)0 .. 20,0000%00:00 (00:00)Hosted GamesHosted Games
1043 The Grim and I Aug 8, 2019 $5.99N/A (N/A)0 .. 20,0000%00:00 (00:00)Hosted GamesHosted Games
1044 Lightstep Chronicles Aug 1, 2019 $9.99N/A (N/A)0 .. 20,0000%00:00 (00:00)Eipix EntertainmentEipix Entertainment
1045 60 Seconds! Reatomized Jul 25, 2019 $9.99N/A (N/A)500,000 .. 1,000,0001.82%00:29 (00:19)Robot GentlemanRobot Gentleman
1046 Heroes of Myth Jul 25, 2019 $7.99N/A (N/A)0 .. 20,0000%00:00 (00:00)Choice of GamesChoice of Games
1047 Iseshima mystery annai: Itsuwari no Kuro shinnjyu Jul 24, 2019 $9.99N/A (N/A)0 .. 20,0000%00:00 (00:00)Happymeal Inc., ESQUADRA,inc.Flyhigh Works
1048 Nocked! True Tales of Robin Hood Jul 16, 2019 $19.99N/A (N/A)0 .. 20,0000%00:00 (00:00)Andrew G. SchneiderAndrew G. Schneider
1049 Round Rooms Jul 16, 2019 $0.99N/A (N/A)0 .. 20,0000%00:00 (00:00)The PsychiartistWeaponized Ed
1050 The Hunter's Journals - Vile Philosophy Jul 15, 2019 $5.99N/A (N/A)0 .. 20,0000%00:00 (00:00)Grindwheel GamesGrindwheel Games
1051 Welcome To... Chichester 3 : Plenty Of Time To Live Jul 11, 2019 $1.99N/A (N/A)0 .. 20,0000%00:00 (00:00)Triority Interactive NovelsTriority Interactive Novels
1052 Exile of the Gods Jul 11, 2019 $7.99N/A (N/A)0 .. 20,0000%00:00 (00:00)Choice of GamesChoice of Games
1053 Monsters of Little Haven Jul 9, 2019 $11.99N/A (N/A)0 .. 20,0000%00:00 (00:00)Nikita KafMissing Calm
1054 Zorg The Typing Warrior Jun 28, 2019 $0.99N/A (N/A)20,000 .. 50,0000%00:00 (00:00)SplendortekSplendortek
1055 The Hunter's Journals - Pale Harbour Jun 24, 2019 $5.99N/A (N/A)0 .. 20,0000%00:00 (00:00)Grindwheel GamesGrindwheel Games
1056 LuGame: Lunchtime Games Club! Jun 20, 2019 $9.99N/A (N/A)0 .. 20,0000%00:00 (00:00)H. Hochkins, Jellyfish ParadeUrban Meadows
1057 Asteroid Run: No Questions Asked Jun 20, 2019 $6.99N/A (N/A)0 .. 20,0000%00:00 (00:00)Choice of GamesChoice of Games
1058 Trivia Throwdown Jun 18, 2019 $4.99N/A (N/A)0 .. 20,0000%00:00 (00:00)Eclectic City GamesEclectic City Games
1059 Courage for a Kiss Jun 13, 2019 $9.99N/A (N/A)0 .. 20,0000%00:00 (00:00)Mikołaj SpychałMikołaj Spychał
1060 New England Detective: Breakfast in Boston Jun 7, 2019 $4.99N/A (N/A)0 .. 20,0000%00:00 (00:00)Little Black Book EntertainmentLittle Black Book Entertainment
1061 Sanator: Scarlet Scarf Jun 6, 2019 $9.99N/A (N/A)20,000 .. 50,0000%00:00 (00:00)Ignis SanatIgnis Sanat
1062 Ord. Jun 5, 2019 $1.99N/A (N/A)0 .. 20,0000%00:00 (00:00)Mujo Games, Stuffed WombatMujo Games
1063 Global Soccer: A Management Game 2019 May 31, 2019 $8.99N/A (N/A)0 .. 20,0000%00:00 (00:00)Forever Young GamesForever Young Games
1064 The Language of Love May 28, 2019 $11.99N/A (N/A)0 .. 20,0000%00:00 (00:00)ebi-himeebi-hime
1065 An Adventurer's Tale May 23, 2019 N/AN/A (N/A)0 .. 20,0000%00:00 (00:00)Epic WorksOther Ocean Group
1066 Fool! May 23, 2019 $7.99N/A (N/A)0 .. 20,0000%00:00 (00:00)Choice of GamesChoice of Games
1067 Happy Words May 16, 2019 $4.99N/A (N/A)0 .. 20,0000%00:00 (00:00)LAN - GAMES LTDLAN - GAMES LTD
1068 The Fifth Horseman May 16, 2019 $1.99N/A (N/A)0 .. 20,0000%00:00 (00:00)Angelo ParodiAngelo Parodi
1069 Adventure in Russia: Road to Harvetsky May 9, 2019 N/AN/A (N/A)0 .. 20,0000%00:00 (00:00)NewCo EntertainmentNewCo Entertainment
1070 Pon Para and the Great Southern Labyrinth May 9, 2019 $7.99N/A (N/A)0 .. 20,0000%00:00 (00:00)Choice of GamesChoice of Games
1071 The Psychiatrist: Major Depression May 3, 2019 $5.99N/A (N/A)0 .. 20,0000%00:00 (00:00)Demir LeylekDemir Leylek
1072 Fog of War: The Battle for Cerberus Apr 26, 2019 $4.99N/A (N/A)0 .. 20,0000%00:00 (00:00)Choice of GamesChoice of Games
1073 Beyond The Veil Apr 19, 2019 $4.99N/A (N/A)0 .. 20,0000%00:00 (00:00)Incubator CreationsIncubator Creations
1074 Totem Force Apr 4, 2019 $6.99N/A (N/A)0 .. 20,0000%00:00 (00:00)Hosted GamesHosted Games
1075 Ozapell Mystery Text Adventure Apr 1, 2019 $1.99N/A (N/A)0 .. 20,0000%00:00 (00:00)OzapellOzapell
1076 The Superlatives: Shattered Worlds Mar 28, 2019 $5.99N/A (N/A)0 .. 20,0000%00:00 (00:00)Choice of GamesChoice of Games
1077 Slave RPG Mar 27, 2019 $4.99N/A (N/A)0 .. 20,0000%00:00 (00:00)Rising Sun InteractiveRising Sun Interactive
1078 Spellcasting Collection Mar 18, 2019 $6.99N/A (N/A)0 .. 20,0000%00:00 (00:00)Legend EntertainmentZiggurat
1079 Drag Star! Mar 14, 2019 $4.99N/A (N/A)0 .. 20,0000%00:00 (00:00)Choice of GamesChoice of Games
1080 Trancelation Mar 12, 2019 $9.99N/A (N/A)0 .. 20,0000%00:00 (00:00)MythicOwlMythicOwl
1081 In.My.Mind Mar 12, 2019 $7.99N/A (N/A)0 .. 20,0000%00:00 (00:00)Scarlet StudioScarlet Studio
1082 Your Future Self Mar 8, 2019 $2.99N/A (N/A)0 .. 20,0000%00:00 (00:00)Contortionist GamesContortionist Games
1083 Sordwin: The Evertree Saga Mar 7, 2019 $7.99N/A (N/A)0 .. 20,0000%00:00 (00:00)Hosted GamesHosted Games
1084 1248 Mar 6, 2019 $1.99N/A (N/A)0 .. 20,0000%00:00 (00:00)taecgtaecg
1085 最后的47小时 - The Last 47 Hours Feb 28, 2019 $1.99N/A (N/A)20,000 .. 50,0000%00:00 (00:00)Lingtan StudioLingtan Studio
1086 Electric Sleep Feb 22, 2019 $4.99N/A (N/A)0 .. 20,0000%00:00 (00:00)Vlad Abadzhiev, Matthew Weekes, Jack Sanderson-Thwaite, Michael BeczeVlad Abadzhiev
1087 Dragon Racer Jan 31, 2019 $7.99N/A (N/A)0 .. 20,0000%00:00 (00:00)Hosted GamesHosted Games
1088 Tales of Ancient Nights Jan 29, 2019 $1.99N/A (N/A)0 .. 20,0000%00:00 (00:00)Demir LeylekDemir Leylek
1089 消灭魔王军 Destroy the demon army Jan 11, 2019 $0.99N/A (N/A)50,000 .. 100,0000%00:00 (00:00)幻想工房幻想工房
1090 Chronicon Apocalyptica Jan 11, 2019 $6.99N/A (N/A)0 .. 20,0000%00:00 (00:00)Choice of GamesChoice of Games
1091 Zeliria Sanctuary Jan 7, 2019 $9.99N/A (N/A)50,000 .. 100,0000%00:00 (00:00)Salangan GamesPhoenix_co
1092 Breacher Story Jan 2, 2019 $5.99N/A (N/A)0 .. 20,0000%00:00 (00:00)Doubleton Game StudioDoubleton Game Studio
1093 Timeflow – Life Sim Jan 2019 $9.99N/A (N/A)50,000 .. 100,0000%00:00 (00:00)Look Book IncLook Book Inc
1094 The Ghost of You Dec 21, 2018 $5.99N/A (N/A)0 .. 20,0000%00:00 (00:00)Noodletub GamesNoodletub Games
1095 Tower Behind the Moon Dec 20, 2018 $7.99N/A (N/A)0 .. 20,0000%00:00 (00:00)Choice of GamesChoice of Games
1096 The Aether: Life as a God Dec 18, 2018 $3.99N/A (N/A)0 .. 20,0000%00:00 (00:00)Hosted GamesHosted Games
1097 7th Sea: A Pirate's Pact Dec 14, 2018 $5.99N/A (N/A)0 .. 20,0000%00:00 (00:00)Choice of GamesChoice of Games
1098 Death Collector Dec 6, 2018 $6.99N/A (N/A)0 .. 20,0000%00:00 (00:00)Choice of GamesChoice of Games
1099 Weyrwood Nov 29, 2018 $5.99N/A (N/A)0 .. 20,0000%00:00 (00:00)Choice of GamesChoice of Games
1100 Beer Bar Nov 20, 2018 $0.99N/A (N/A)50,000 .. 100,0000%00:00 (00:00)BrainStorming Team, КиКоКиКо
1101 Whispering Flames Nov 17, 2018 $1.49N/A (N/A)20,000 .. 50,0000%00:00 (00:00)Red CattusRed Cattus
1102 The Lost Legends of Redwall: Escape the Gloomer Nov 16, 2018 $4.99N/A (N/A)0 .. 20,0000%00:00 (00:00)Soma Games, Clopas LLCSoma Games
1103 ARTé: Mecenas Nov 16, 2018 $9.99N/A (N/A)0 .. 20,0000%00:00 (00:00)TriseumTriseum
1104 Love at Elevation Nov 8, 2018 $6.99N/A (N/A)0 .. 20,0000%00:00 (00:00)Hosted GamesHosted Games
1105 A Gentlemanly Adventure Nov 2, 2018 $2.99N/A (N/A)0 .. 20,0000%00:00 (00:00)Not Chicken GamesNot Chicken Games
1106 Gilded Rails Nov 1, 2018 $6.99N/A (N/A)0 .. 20,0000%00:00 (00:00)Choice of GamesChoice of Games
1107 Nuclear Powered Toaster Oct 25, 2018 $4.99N/A (N/A)0 .. 20,0000%00:00 (00:00)Hosted GamesHosted Games
1108 The Watson-Scott Test Oct 19, 2018 $4.99N/A (N/A)50,000 .. 100,0000%00:00 (00:00)Normal Wholesome GamesNormal Wholesome Games
1109 TEXT Oct 18, 2018 $2.99N/A (N/A)0 .. 20,0000%00:00 (00:00)Laush Dmitriy SergeevichLaush Studio
1110 To Burn in Memory (Anniversary Edition) Oct 15, 2018 $2.99N/A (N/A)0 .. 20,0000%00:00 (00:00)OrihausOrihaus
1111 Terror for Two Oct 10, 2018 $0.99N/A (N/A)0 .. 20,0000%00:00 (00:00)Koala SquadKoala Squad
1112 The Martian Job Oct 5, 2018 $4.99N/A (N/A)0 .. 20,0000%00:00 (00:00)Choice of GamesChoice of Games
1113 The Twelve Trials Sep 27, 2018 $4.99N/A (N/A)0 .. 20,0000%00:00 (00:00)Hosted GamesHosted Games
1114 MMA Simulator Sep 17, 2018 $9.99N/A (N/A)0 .. 20,0000%00:00 (00:00)Zever GamesZever Games
1115 The Mysteries of Baroque Sep 20, 2018 $5.99N/A (N/A)0 .. 20,0000%00:00 (00:00)Choice of GamesChoice of Games
1116 The Dark Room Sep 19, 2018 $13.99N/A (N/A)0 .. 20,0000%00:00 (00:00)Developers At Large, John RobertsonJohn Robertson
1117 Help Me Escape! The Puzzle Maker's Office Sep 10, 2018 $4.99N/A (N/A)0 .. 20,0000%00:00 (00:00)Brahn GamesBrahn Communications, Inc.
1118 Choice of Broadsides: HMS Foraker Sep 6, 2018 $4.99N/A (N/A)0 .. 20,0000%00:00 (00:00)Choice of GamesChoice of Games
1119 Seul (Alone): The entrée Aug 31, 2018 $2.99N/A (N/A)0 .. 20,0000%00:00 (00:00)Paranormal GamesParanormal Games
1120 DinoKnights Aug 22, 2018 $5.99N/A (N/A)0 .. 20,0000%00:00 (00:00)Choice of GamesChoice of Games
1121 The Magician's Burden Aug 16, 2018 $5.99N/A (N/A)0 .. 20,0000%00:00 (00:00)Hosted GamesHosted Games
1122 Amulet Zero 零物语 - Optimize Aug 14, 2018 $0.99N/A (N/A)20,000 .. 50,0000%00:00 (00:00)ShiinaYashiroShiinaYashiro
1123 Retro Hacker Aug 13, 2018 $9.99N/A (N/A)0 .. 20,0000%00:00 (00:00)Matthew DiazMatthew Diaz
1124 Choice of Magics Aug 10, 2018 $7.99N/A (N/A)0 .. 20,0000%00:00 (00:00)Choice of GamesChoice of Games
1125 The Last Wizard Aug 3, 2018 $4.99N/A (N/A)0 .. 20,0000%00:00 (00:00)Hosted GamesHosted Games
1126 Answer The Question Aug 2, 2018 $0.99N/A (N/A)0 .. 20,0000%00:00 (00:00)Penny McDonaldSay Again Studio
1127 The Outpost Nine: Episode 1 Jul 27, 2018 $0.49N/A (N/A)0 .. 20,0000%00:00 (00:00)Benjy BatesSedoc LLC
1128 Werewolves: Haven Rising Jul 26, 2018 $6.99N/A (N/A)0 .. 20,0000%00:00 (00:00)Choice of GamesChoice of Games
1129 Adventures in the Light & Dark Jul 24, 2018 $0.99N/A (N/A)20,000 .. 50,0000%00:00 (00:00)Protoria StudiosProtoria Studios
1130 The Harbinger's Head Jul 19, 2018 $2.99N/A (N/A)0 .. 20,0000%00:00 (00:00)Hosted GamesHosted Games
1131 Unnatural Jul 19, 2018 $6.99N/A (N/A)0 .. 20,0000%00:00 (00:00)Hosted GamesHosted Games
1132 Blood Money Jul 12, 2018 $6.99N/A (N/A)0 .. 20,0000%00:00 (00:00)Choice of GamesChoice of Games
1133 Dust and Salt: The Battle for Murk Jul 11, 2018 $3.99N/A (N/A)0 .. 20,0000%00:00 (00:00)Prime GamesPrime Games
1134 Paper Shakespeare: Loves Labor(s) Lost Jul 5, 2018 $2.99N/A (N/A)0 .. 20,0000%00:00 (00:00)Stegalosaurus Game DevelopmentStegalosaurus Game Development
1135 Cryptozookeeper May 27, 2011 $5.99N/A (N/A)0 .. 20,0000%00:00 (00:00)Jolt CountryJolt Country
1136 Professor Watts Word Search: Yummy Foods Jul 2, 2018 $4.99N/A (N/A)0 .. 20,0000%00:00 (00:00)Ripknot SystemsRipknot Systems
1137 I, Cyborg Jun 28, 2018 $6.99N/A (N/A)0 .. 20,0000%00:00 (00:00)Choice of GamesChoice of Games
1138 Professor Watts Word Search: Pirates Life Jun 28, 2018 $4.99N/A (N/A)20,000 .. 50,0000%00:00 (00:00)Ripknot SystemsRipknot Systems
1139 Doomsday on Demand 2 Jun 26, 2018 $4.99N/A (N/A)0 .. 20,0000%00:00 (00:00)Hosted GamesHosted Games
1140 Doomsday on Demand Jun 26, 2018 $4.99N/A (N/A)0 .. 20,0000%00:00 (00:00)Hosted GamesHosted Games
1141 Professor Watts Word Search: Space Voyage Jun 25, 2018 $4.99N/A (N/A)20,000 .. 50,0000%00:00 (00:00)Ripknot SystemsRipknot Systems
1142 Trivia Vault: Music Trivia Jun 22, 2018 $9.99N/A (N/A)0 .. 20,0000%00:00 (00:00)Ripknot SystemsRipknot Systems
1143 Trivia Vault: Literature Trivia Jun 1, 2018 $9.99N/A (N/A)0 .. 20,0000%00:00 (00:00)Ripknot SystemsRipknot Systems
1144 Project Pastorate May 31, 2018 $1.99N/A (N/A)20,000 .. 50,0000%00:00 (00:00)PsyRobMeridian4
1145 Longest Monday: Unveiling May 30, 2018 N/AN/A (N/A)0 .. 20,0000%00:00 (00:00)GamenesisGamenesis
1146 Trivia Vault: Food Trivia May 30, 2018 $9.99N/A (N/A)0 .. 20,0000%00:00 (00:00)Ripknot SystemsRipknot Systems
1147 Tell Me Everything May 29, 2018 $0.99N/A (N/A)50,000 .. 100,0000%00:00 (00:00)LizardFactoryLizardFactory
1148 Tsundere Idol May 29, 2018 $4.99N/A (N/A)20,000 .. 50,0000%00:00 (00:00)NornCherry Kiss Games
1149 Trivia Vault: Toy Trivia May 25, 2018 $9.99N/A (N/A)0 .. 20,0000%00:00 (00:00)Ripknot SystemsRipknot Systems
1150 Rent-a-Vice May 24, 2018 $4.99N/A (N/A)0 .. 20,0000%00:00 (00:00)Choice of GamesChoice of Games
1151 Trivia Vault: Fashion Trivia May 24, 2018 $9.99N/A (N/A)0 .. 20,0000%00:00 (00:00)Ripknot SystemsRipknot Systems
1152 Disturbed: Beyond Aramor May 18, 2018 $4.99N/A (N/A)20,000 .. 50,0000%00:00 (00:00)iBlackpeniBlackpen
1153 Community College Hero: Knowledge is Power May 17, 2018 $5.99N/A (N/A)0 .. 20,0000%00:00 (00:00)Hosted GamesHosted Games
1154 Trivia Vault: Business Trivia May 17, 2018 $9.99N/A (N/A)0 .. 20,0000%00:00 (00:00)Ripknot SystemsRipknot Systems
1155 STAY May 16, 2018 $11.99N/A (N/A)20,000 .. 50,0000%00:00 (00:00)Appnormals TeamAppnormals Team
1156 Paper Shakespeare: Stick Merchant of Venice May 11, 2018 $1.99N/A (N/A)0 .. 20,0000%00:00 (00:00)Stegalosaurus Game DevelopmentStegalosaurus Game Development
1157 Trivia Vault: Art Trivia May 5, 2018 $9.99N/A (N/A)0 .. 20,0000%00:00 (00:00)Ripknot SystemsRipknot Systems
1158 Trivia Vault: TV Trivia May 3, 2018 $9.99N/A (N/A)0 .. 20,0000%00:00 (00:00)Ripknot SystemsRipknot Systems
1159 Trivia Vault: Celebrity Trivia May 2, 2018 $9.99N/A (N/A)0 .. 20,0000%00:00 (00:00)Ripknot SystemsRipknot Systems
1160 Austen Translation May 1, 2018 $6.99N/A (N/A)0 .. 20,0000%00:00 (00:00)Worthing & MoncrieffWorthing & Moncrieff
1161 Trivia Vault: Movie Trivia Apr 27, 2018 $9.99N/A (N/A)0 .. 20,0000%00:00 (00:00)Ripknot SystemsRipknot Systems
1162 The Road to Canterbury Apr 26, 2018 $5.99N/A (N/A)0 .. 20,0000%00:00 (00:00)Choice of GamesChoice of Games
1163 Trivia Vault: Soccer Trivia Apr 23, 2018 $9.99N/A (N/A)0 .. 20,0000%00:00 (00:00)Ripknot SystemsRipknot Systems
1164 Doodle Date Apr 19, 2018 $1.99N/A (N/A)20,000 .. 50,0000%00:00 (00:00)Nicholas LivesNicholas Lives
1165 Trivia Vault: Tennis Trivia Apr 19, 2018 $9.99N/A (N/A)0 .. 20,0000%00:00 (00:00)Ripknot SystemsRipknot Systems
1166 This Grand Life Apr 17, 2018 $11.99N/A (N/A)20,000 .. 50,0000%00:00 (00:00)Poking Water GamesPoking Water Games
1167 Silverworld Apr 12, 2018 $7.99N/A (N/A)0 .. 20,0000%00:00 (00:00)Choice of GamesChoice of Games
1168 The Hero Project: Open Season Apr 5, 2018 $5.99N/A (N/A)0 .. 20,0000%00:00 (00:00)Choice of GamesChoice of Games
1169 Trivia Vault: Hockey Trivia Apr 3, 2018 $9.99N/A (N/A)0 .. 20,0000%00:00 (00:00)Ripknot SystemsRipknot Systems
1170 Sudoku Zenkai Apr 2, 2018 $3.99N/A (N/A)0 .. 20,0000%00:00 (00:00)ImaginationOverflowImaginationOverflow
1171 Trivia Vault: Golf Trivia Mar 29, 2018 $9.99N/A (N/A)0 .. 20,0000%00:00 (00:00)Ripknot SystemsRipknot Systems
1172 Harmonium Mar 28, 2018 $4.99N/A (N/A)0 .. 20,0000%00:00 (00:00)From The BardFrom The Bard
1173 Trivia Vault: Auto Racing Trivia Mar 28, 2018 $9.99N/A (N/A)0 .. 20,0000%00:00 (00:00)Ripknot SystemsRipknot Systems
1174 Trivia Vault: Boxing Trivia Mar 24, 2018 $9.99N/A (N/A)0 .. 20,0000%00:00 (00:00)Ripknot SystemsRipknot Systems
1175 Fallen Hero: Rebirth Mar 15, 2018 $3.99N/A (N/A)0 .. 20,0000%00:00 (00:00)Hosted GamesHosted Games
1176 Highway Wars Mar 15, 2018 $5.99N/A (N/A)0 .. 20,0000%00:00 (00:00)Hosted GamesHosted Games
1177 Wayhaven Chronicles: Book One Mar 8, 2018 $7.99N/A (N/A)0 .. 20,0000%00:00 (00:00)Hosted GamesHosted Games
1178 TOMORROW DON'T COME - Puzzling Depression Mar 5, 2018 $2.99N/A (N/A)0 .. 20,0000%00:00 (00:00)Peace & Love GamesPeace & Love Games
1179 Omen Exitio: Plague Mar 5, 2018 $9.99N/A (N/A)20,000 .. 50,0000%00:00 (00:00)Tiny Bull StudiosTiny Bull Studios, 2P Games
1180 Trivia Vault Basketball Trivia Mar 3, 2018 $9.99N/A (N/A)0 .. 20,0000%00:00 (00:00)Ripknot SystemsRipknot Systems
1181 Trivia Vault Baseball Trivia Mar 2, 2018 $9.99N/A (N/A)0 .. 20,0000%00:00 (00:00)Ripknot SystemsRipknot Systems
1182 Trivia Vault Olympics Trivia Feb 28, 2018 $9.99N/A (N/A)0 .. 20,0000%00:00 (00:00)Ripknot SystemsRipknot Systems
1183 Trivia Vault Football Trivia Feb 27, 2018 $9.99N/A (N/A)0 .. 20,0000%00:00 (00:00)Ripknot SystemsRipknot Systems
1184 The Great Tournament 2 Feb 26, 2018 $6.99N/A (N/A)0 .. 20,0000%00:00 (00:00)Hosted GamesHosted Games
1185 The Fielder's Choice Feb 22, 2018 $4.99N/A (N/A)0 .. 20,0000%00:00 (00:00)Choice of GamesChoice of Games
1186 Bad Government Feb 16, 2018 $2.99N/A (N/A)20,000 .. 50,0000%00:00 (00:00)Free Time DevFree Time Dev
1187 Border of her Heart Feb 14, 2018 $0.99N/A (N/A)20,000 .. 50,0000%00:00 (00:00)Tuomo LaineTuomo's games
1188 Trivia Vault: Mixed Trivia 2 Feb 13, 2018 $14.99N/A (N/A)0 .. 20,0000%00:00 (00:00)Ripknot SystemsRipknot Systems
1189 Choice of the Vampire Aug 27, 2010 $5.99N/A (N/A)0 .. 20,0000%00:00 (00:00)Choice of GamesChoice of Games
1190 Choice of the Vampire: The Fall of Memphis Aug 2, 2013 $5.99N/A (N/A)0 .. 20,0000%00:00 (00:00)Choice of GamesChoice of Games
1191 The Great Tournament Mar 3, 2017 $5.99N/A (N/A)0 .. 20,0000%00:00 (00:00)Hosted GamesHosted Games
1192 Anchorhead Jan 31, 2018 $9.99N/A (N/A)0 .. 20,0000%00:00 (00:00)Michael GentryMichael Gentry
1193 Undercover Agent Jan 25, 2018 $4.99N/A (N/A)0 .. 20,0000%00:00 (00:00)Choice of GamesChoice of Games
1194 Trivia Vault: Health Trivia Deluxe Jan 23, 2018 $14.99N/A (N/A)0 .. 20,0000%00:00 (00:00)Ripknot SystemsRipknot Systems
1195 Showdown at Willow Creek Jan 18, 2018 $4.99N/A (N/A)0 .. 20,0000%00:00 (00:00)Choice of GamesChoice of Games
1196 Oh No! Ninjas! Jan 4, 2018 $1.99N/A (N/A)0 .. 20,0000%00:00 (00:00)Blot InteractiveBlot Interactive
1197 Zhulik.exe Dec 27, 2017 $0.49N/A (N/A)20,000 .. 50,0000%00:00 (00:00)DarkDes LabsDarkDes Labs
1198 The Cryptkeepers of Hallowford Dec 22, 2017 $7.99N/A (N/A)0 .. 20,0000%00:00 (00:00)Choice of GamesChoice of Games
1199 Trivia Vault: Technology Trivia Deluxe Dec 21, 2017 $14.99N/A (N/A)0 .. 20,0000%00:00 (00:00)Ripknot SystemsRipknot Systems
1200 Captive of Fortune Dec 19, 2017 $4.99N/A (N/A)0 .. 20,0000%00:00 (00:00)Hosted GamesHosted Games
1201 Trial of the Demon Hunter Dec 19, 2017 $3.99N/A (N/A)0 .. 20,0000%00:00 (00:00)Hosted GamesHosted Games
1202 Grey Hack Dec 14, 2017 $19.99N/A (N/A)50,000 .. 100,0000%00:00 (00:00)Loading HomeLoading Home
1203 Tally Ho Dec 14, 2017 $7.99N/A (N/A)0 .. 20,0000%00:00 (00:00)Choice of GamesChoice of Games
1204 T-Rex Time Machine Dec 7, 2017 $4.99N/A (N/A)0 .. 20,0000%00:00 (00:00)Choice of GamesChoice of Games
1205 Hostil Dec 1, 2017 $2.99N/A (N/A)0 .. 20,0000%00:00 (00:00)Eteru StudioEteru Studio
1206 Samurai of Hyuga Book 3 Dec 1, 2017 $5.99N/A (N/A)0 .. 20,0000%00:00 (00:00)Hosted GamesHosted Games
1207 Broadway: 1849 Nov 22, 2017 $4.99N/A (N/A)0 .. 20,0000%00:00 (00:00)Choice of GamesChoice of Games
1208 Wild Romance: Mofu Mofu Edition Nov 20, 2017 $14.99N/A (N/A)20,000 .. 50,0000%00:00 (00:00)NornCherry Kiss Games
1209 Choice of the Ninja Nov 17, 2017 $5.99N/A (N/A)0 .. 20,0000%00:00 (00:00)Choice of GamesChoice of Games
1210 Choice of the Rock Star Nov 17, 2017 $3.99N/A (N/A)0 .. 20,0000%00:00 (00:00)Choice of GamesChoice of Games
1211 NOLA is Burning Nov 17, 2017 $4.99N/A (N/A)0 .. 20,0000%00:00 (00:00)Choice of GamesChoice of Games
1212 Sorry, James Nov 10, 2017 $4.99N/A (N/A)50,000 .. 100,0000%00:00 (00:00)KonstructorsHook Games, GrabTheGames, WhisperGames
1213 Choice of Rebels: Uprising Nov 9, 2017 $7.99N/A (N/A)0 .. 20,0000%00:00 (00:00)Choice of GamesChoice of Games
1214 Cleansuit Nov 1, 2017 $3.99N/A (N/A)0 .. 20,0000%00:00 (00:00)Goblin CouncilGoblin Council
1215 The Ultimate Trivia Challenge Oct 27, 2017 $4.99N/A (N/A)0 .. 20,0000%00:00 (00:00)LoadUpGames.comLoadUpGames.com
1216 American Angst (Steam Deluxe Edition) Oct 26, 2017 $0.99N/A (N/A)0 .. 20,0000%00:00 (00:00)M3G1DD0M3G1DD0
1217 Heart of the House Oct 26, 2017 $6.99N/A (N/A)0 .. 20,0000%00:00 (00:00)Choice of GamesChoice of Games
1218 Trivia Vault: Video Game Trivia Deluxe Oct 24, 2017 $14.99N/A (N/A)0 .. 20,0000%00:00 (00:00)Ripknot SystemsRipknot Systems
1219 The Superlatives: Aetherfall Oct 19, 2017 $6.99N/A (N/A)0 .. 20,0000%00:00 (00:00)Choice of GamesChoice of Games
1220 Choice of Broadsides Apr 1, 2010 $4.99N/A (N/A)0 .. 20,0000%00:00 (00:00)Choice of GamesChoice of Games
1221 Thaumistry: In Charm's Way Oct 7, 2017 $3.99N/A (N/A)0 .. 20,0000%00:00 (00:00)Bobbates LLC.Bobbates LLC.
1222 Throne of Lies: Medieval Politics Sep 29, 2017 FreeN/A (N/A)200,000 .. 500,0000%00:00 (00:00)PT.farm Inc., Imperium42®, LLCPT.farm Inc.
1223 Highlands, Deep Waters Sep 28, 2017 $6.99N/A (N/A)0 .. 20,0000%00:00 (00:00)Hosted GamesHosted Games
1224 The Last Monster Master Sep 28, 2017 $6.99N/A (N/A)0 .. 20,0000%00:00 (00:00)Choice of GamesChoice of Games
1225 Choice of the Cat Sep 28, 2017 $7.99N/A (N/A)0 .. 20,0000%00:00 (00:00)Choice of GamesChoice of Games
1226 Trivia Vault: Mini Mixed Trivia 4 Sep 21, 2017 $9.99N/A (N/A)0 .. 20,0000%00:00 (00:00)Ripknot SystemsRipknot Systems
1227 Trivia Vault: Mini Mixed Trivia 3 Sep 19, 2017 $9.99N/A (N/A)0 .. 20,0000%00:00 (00:00)Ripknot SystemsRipknot Systems
1228 the Breath. Sep 19, 2017 $0.99N/A (N/A)0 .. 20,0000%00:00 (00:00)Rev2 sutdioRev2 studio
1229 "StockUp" Sep 8, 2017 $0.99N/A (N/A)0 .. 20,0000%00:00 (00:00)EcoGamesEcoGames
1230 Trivia Vault: Mini Mixed Trivia 2 Sep 17, 2017 $9.99N/A (N/A)0 .. 20,0000%00:00 (00:00)Ripknot SystemsRipknot Systems
1231 Trivia Vault: Mini Mixed Trivia Sep 15, 2017 $9.99N/A (N/A)0 .. 20,0000%00:00 (00:00)Ripknot SystemsRipknot Systems
1232 Grand Academy for Future Villains Sep 14, 2017 $5.99N/A (N/A)0 .. 20,0000%00:00 (00:00)Choice of GamesChoice of Games
1233 Epic Tavern Sep 13, 2017 $24.99N/A (N/A)0 .. 20,0000%00:00 (00:00)Hyperkinetic StudiosEpic Tavern Holdings
1234 Trackless Sep 12, 2017 $9.99N/A (N/A)0 .. 20,0000%00:00 (00:00)12 East Games12 East Games
1235 Trivia Vault: Super Heroes Trivia 2 Sep 12, 2017 $9.99N/A (N/A)0 .. 20,0000%00:00 (00:00)Ripknot SystemsRipknot Systems
1236 Code World Sep 11, 2017 $4.99N/A (N/A)0 .. 20,0000%00:00 (00:00)FewjixFewjix
1237 Star Story: The Horizon Escape Sep 5, 2017 $14.99N/A (N/A)0 .. 20,0000%00:00 (00:00)EvilCoGamesEvilCoGames
1238 All Haze Eve Sep 1, 2017 $2.99N/A (N/A)0 .. 20,0000%00:00 (00:00)xrrawvaxrrawva
1239 Trivia Vault: Science & History Trivia 2 Sep 1, 2017 $9.99N/A (N/A)0 .. 20,0000%00:00 (00:00)Ripknot SystemsRipknot Systems
1240 Trivia Vault: Classic Rock Trivia 2 Aug 23, 2017 $9.99N/A (N/A)0 .. 20,0000%00:00 (00:00)Ripknot SystemsRipknot Systems
1241 Trivia Vault: 1980's Trivia 2 Aug 22, 2017 $9.99N/A (N/A)20,000 .. 50,0000%00:00 (00:00)Ripknot SystemsRipknot Systems
1242 Trivia Vault: Classic Rock Trivia Aug 17, 2017 $9.99N/A (N/A)0 .. 20,0000%00:00 (00:00)Ripknot SystemsRipknot Systems
1243 Trivia Vault: 1980's Trivia Aug 16, 2017 $9.99N/A (N/A)0 .. 20,0000%00:00 (00:00)Ripknot SystemsRipknot Systems
1244 Trivia Vault: Super Heroes Trivia Aug 15, 2017 $9.99N/A (N/A)0 .. 20,0000%00:00 (00:00)Ripknot SystemsRipknot Systems
1245 Trivia Vault: Science & History Trivia Aug 14, 2017 $9.99N/A (N/A)0 .. 20,0000%00:00 (00:00)Ripknot SystemsRipknot Systems
1246 Code 7: A Story-Driven Hacking Adventure Aug 11, 2017 $5.99N/A (N/A)0 .. 20,0000%00:00 (00:00)Goodwolf StudioGoodwolf Studio
1247 Trivia Vault: Mixed Trivia Aug 11, 2017 $14.99N/A (N/A)0 .. 20,0000%00:00 (00:00)Ripknot SystemsRipknot Systems
1248 Trials of the Thief-Taker Aug 10, 2017 $4.99N/A (N/A)0 .. 20,0000%00:00 (00:00)Choice of GamesChoice of Games
1249 The Hero Unmasked! Jul 27, 2017 $6.99N/A (N/A)0 .. 20,0000%00:00 (00:00)Choice of GamesChoice of Games
1250 Professor Watts Word Search: Into The Ocean Jul 16, 2017 $4.99N/A (N/A)0 .. 20,0000%00:00 (00:00)Ripknot SystemsRipknot Systems
1251 Sorcerer's Dream Jul 13, 2017 $2.99N/A (N/A)20,000 .. 50,0000%00:00 (00:00)Arai Koh Create OfficeYOX-Project
1252 All You Can Eat Jul 13, 2017 $1.99N/A (N/A)20,000 .. 50,0000%00:00 (00:00)GamechuckGamechuck
1253 Thomaz Jul 10, 2017 $0.99N/A (N/A)0 .. 20,0000%00:00 (00:00)FürstFürst
1254 Avatar of the Wolf Jun 22, 2017 $4.99N/A (N/A)0 .. 20,0000%00:00 (00:00)Choice of GamesChoice of Games
1255 Pixel Painter Jun 19, 2017 $0.99N/A (N/A)1,000,000 .. 2,000,0000%00:00 (00:00)Dio Alias GamesDio Alias Games
1256 Choice of the Star Captain Sep 26, 2012 $4.99N/A (N/A)0 .. 20,0000%00:00 (00:00)Choice of GamesChoice of Games
1257 Reckless Space Pirates Dec 6, 2013 $4.99N/A (N/A)0 .. 20,0000%00:00 (00:00)Choice of GamesChoice of Games
1258 The Fleet Nov 30, 2012 $4.99N/A (N/A)0 .. 20,0000%00:00 (00:00)Choice of GamesChoice of Games
1259 Demon Mark: A Russian Saga Jun 1, 2017 $5.99N/A (N/A)0 .. 20,0000%00:00 (00:00)Choice of GamesChoice of Games
1260 Zarya-1: Mystery on the Moon May 30, 2017 $0.79N/A (N/A)0 .. 20,0000%00:00 (00:00)Your Story InteractivePlug In Digital
1261 LoveKami -Useless Goddess- May 29, 2017 $2.59N/A (N/A)20,000 .. 50,0000%00:00 (00:00)MoeNovelMoeNovel
1262 Creatures Such as We Dec 12, 2014 $4.99N/A (N/A)0 .. 20,0000%00:00 (00:00)Choice of GamesChoice of Games
1263 Neighbourhood Necromancer May 16, 2014 $4.99N/A (N/A)0 .. 20,0000%00:00 (00:00)Choice of GamesChoice of Games
1264 Welcome to Moreytown May 5, 2017 $4.99N/A (N/A)0 .. 20,0000%00:00 (00:00)Choice of GamesChoice of Games
1265 Academagia: The Making of Mages Aug 13, 2010 $15.99N/A (N/A)20,000 .. 50,0000%00:00 (00:00)Black Chicken Studios, inc.Black Chicken Studios, inc.
1266 Paradigm City Aug 22, 2019 $4.99N/A (N/A)0 .. 20,0000%00:00 (00:00)Hosted GamesHosted Games
1267 The Eagle's Heir Mar 30, 2017 $5.99N/A (N/A)0 .. 20,0000%00:00 (00:00)Choice of GamesChoice of Games
1268 "MakeThatMoney" Mar 22, 2017 $0.99N/A (N/A)0 .. 20,0000%00:00 (00:00)EcoGamesEcoGames
1269 Life of a Wizard Feb 27, 2013 $2.99N/A (N/A)0 .. 20,0000%00:00 (00:00)Hosted GamesHosted Games
1270 Life of a Mobster Jul 11, 2014 $2.99N/A (N/A)0 .. 20,0000%00:00 (00:00)Hosted GamesHosted Games
1271 The Lost Heir 3: Demon War Mar 17, 2017 $4.99N/A (N/A)0 .. 20,0000%00:00 (00:00)Hosted GamesHosted Games
1272 The Filmmaker - A Text Adventure Mar 7, 2017 $2.99N/A (N/A)0 .. 20,0000%00:00 (00:00)Storycentric WorldsUnimatrix Productions
1273 Runt of the Litter Feb 23, 2017 $4.99N/A (N/A)0 .. 20,0000%00:00 (00:00)Choice of GamesChoice of Games
1274 Open Sorcery Feb 22, 2017 $3.99N/A (N/A)0 .. 20,0000%00:00 (00:00)Abigail CorfmanOpen Sorcery Games
1275 20something Jan 26, 2017 $2.99N/A (N/A)0 .. 20,0000%00:00 (00:00)Jake TuckerJake Tucker
1276 Evertree Inn Jan 20, 2017 $6.99N/A (N/A)0 .. 20,0000%00:00 (00:00)Hosted GamesHosted Games
1277 VERSUS: The Elite Trials Dec 16, 2016 $4.99N/A (N/A)0 .. 20,0000%00:00 (00:00)Choice of GamesChoice of Games
1278 Tokyo Wizard Dec 16, 2016 $4.99N/A (N/A)0 .. 20,0000%00:00 (00:00)Hosted GamesHosted Games
1279 LoveKami -Divinity Stage- Dec 15, 2016 $12.99N/A (N/A)20,000 .. 50,0000%00:00 (00:00)MoeNovelMoeNovel
1280 Cannonfire Concerto Dec 8, 2016 $5.99N/A (N/A)0 .. 20,0000%00:00 (00:00)Choice of GamesChoice of Games
1281 Empyrean Dec 1, 2016 $6.99N/A (N/A)0 .. 20,0000%00:00 (00:00)Choice of GamesChoice of Games
1282 Publisher Tycoon Nov 28, 2016 $6.99N/A (N/A)0 .. 20,0000%00:00 (00:00)14Dimension Enterprise14Dimension Enterprise
1283 Saga of the North Wind Nov 17, 2016 $6.99N/A (N/A)0 .. 20,0000%00:00 (00:00)Choice of GamesChoice of Games
1284 Zombie Exodus: Safe Haven Oct 28, 2016 $7.99N/A (N/A)0 .. 20,0000%00:00 (00:00)Hosted GamesHosted Games
1285 Congresswolf Oct 28, 2016 $4.99N/A (N/A)0 .. 20,0000%00:00 (00:00)Choice of GamesChoice of Games
1286 Shady Brook - A Dark Mystery Text Adventure Aug 1, 2016 $2.99N/A (N/A)0 .. 20,0000%00:00 (00:00)Storycentric WorldsUnimatrix Productions
1287 Tennis Elbow Manager Feb 19, 2009 $2.99N/A (N/A)20,000 .. 50,0000%00:00 (00:00)Mana GamesMana Games
1288 Sorcery Is for Saps Oct 14, 2016 $5.99N/A (N/A)0 .. 20,0000%00:00 (00:00)Choice of GamesChoice of Games
1289 hackmud Sep 22, 2016 $19.99N/A (N/A)20,000 .. 50,0000%00:00 (00:00)Drizzly BearDrizzly Bear
1290 Fatehaven Aug 8, 2014 $4.99N/A (N/A)0 .. 20,0000%00:00 (00:00)Hosted GamesHosted Games
1291 Samurai of Hyuga Jul 17, 2015 $4.99N/A (N/A)0 .. 20,0000%00:00 (00:00)Hosted GamesHosted Games
1292 Samurai of Hyuga Book 2 Sep 16, 2016 $5.99N/A (N/A)0 .. 20,0000%00:00 (00:00)Hosted GamesHosted Games
1293 Space Rangers: Quest Sep 5, 2016 $9.99N/A (N/A)0 .. 20,0000%00:00 (00:00)SNK GamesFulqrum Publishing
1294 A Midsummer Night's Choice Aug 25, 2016 $5.99N/A (N/A)0 .. 20,0000%00:00 (00:00)Choice of GamesChoice of Games
1295 Machinations: Fog of War Aug 19, 2016 $4.99N/A (N/A)0 .. 20,0000%00:00 (00:00)Hosted GamesHosted Games
1296 The Away Team: Lost Exodus Jul 22, 2016 $8N/A (N/A)20,000 .. 50,0000%00:00 (00:00)Underflow StudiostinyBuild
1297 Empty Horizons Jul 19, 2016 $2.99N/A (N/A)20,000 .. 50,0000%00:00 (00:00)ebi-himeebi-hime
1298 e-River Cabin Journal Jul 15, 2016 $9.99N/A (N/A)20,000 .. 50,0000%00:00 (00:00)Wilderness Journal GamesWilderness Journal Games
1299 Killing Time at Lightspeed: Enhanced Edition Jul 5, 2016 $9.99N/A (N/A)0 .. 20,0000%00:00 (00:00)GritfishGreen Stripe Snake
1300 Hadean Lands Oct 30, 2014 $11.99N/A (N/A)0 .. 20,0000%00:00 (00:00)Zarfhome SoftwareZarfhome Software
1301 Choice of Alexandria Jun 10, 2016 $3.99N/A (N/A)0 .. 20,0000%00:00 (00:00)Choice of GamesChoice of Games
1302 PataNoir Jun 1, 2016 $6.99N/A (N/A)0 .. 20,0000%00:00 (00:00)Simon ChristiansenSiChris Productions
1303 Choice of the Pirate May 20, 2016 $4.99N/A (N/A)0 .. 20,0000%00:00 (00:00)Choice of GamesChoice of Games
1304 Lifestream - A Haunting Text Adventure Sep 19, 2016 $2.99N/A (N/A)0 .. 20,0000%00:00 (00:00)Storycentric WorldsUnimatrix Productions
1305 It's Killing Time Apr 22, 2016 $4.99N/A (N/A)0 .. 20,0000%00:00 (00:00)Choice of GamesChoice of Games
1306 The Sea Eternal Apr 22, 2016 $6.99N/A (N/A)0 .. 20,0000%00:00 (00:00)Choice of GamesChoice of Games
1307 Best of Us Apr 22, 2016 $4.99N/A (N/A)0 .. 20,0000%00:00 (00:00)Hosted GamesHosted Games
1308 Typefighters (Steam Edition) Apr 18, 2016 $1.99N/A (N/A)20,000 .. 50,0000%00:00 (00:00)Christian ReuterChristian Reuter
1309 The Hero Project: Redemption Season Apr 8, 2016 $4.99N/A (N/A)0 .. 20,0000%00:00 (00:00)Choice of GamesChoice of Games
1310 Sabres of Infinity Jun 21, 2013 $5.99N/A (N/A)0 .. 20,0000%00:00 (00:00)Hosted GamesHosted Games
1311 Guns of Infinity Mar 29, 2016 $7.99N/A (N/A)0 .. 20,0000%00:00 (00:00)Hosted GamesHosted Games
1312 Sixth Grade Detective Dec 21, 2015 $4.99N/A (N/A)0 .. 20,0000%00:00 (00:00)Choice of GamesChoice of Games
1313 MetaHuman Inc. Dec 18, 2015 $6.99N/A (N/A)0 .. 20,0000%00:00 (00:00)Choice of GamesChoice of Games
1314 The ORPHEUS Ruse Dec 1, 2013 $4.99N/A (N/A)0 .. 20,0000%00:00 (00:00)Choice of GamesChoice of Games
1315 Monsterland Dec 14, 2015 $1.99N/A (N/A)20,000 .. 50,0000%00:00 (00:00)Second Variety GamesSecond Variety Games
1316 Choice of Kung Fu Dec 19, 2012 $4.99N/A (N/A)0 .. 20,0000%00:00 (00:00)Choice of GamesChoice of Games
1317 Diabolical Nov 6, 2015 $4.99N/A (N/A)0 .. 20,0000%00:00 (00:00)Choice of GamesChoice of Games
1318 Deathless: The City's Thirst Oct 23, 2015 $4.99N/A (N/A)0 .. 20,0000%00:00 (00:00)Choice of GamesChoice of Games
1319 Zombie Exodus Dec 4, 2011 $19.99N/A (N/A)0 .. 20,0000%00:00 (00:00)Hosted GamesHosted Games
1320 This Book Is A Dungeon Oct 9, 2015 $0.49N/A (N/A)100,000 .. 200,0000%00:00 (00:00)Nathan MeunierPlug In Digital
1321 Ratings War Oct 2, 2015 $4.99N/A (N/A)0 .. 20,0000%00:00 (00:00)Choice of GamesChoice of Games
1322 A Wise Use of Time Sep 4, 2015 $6.99N/A (N/A)0 .. 20,0000%00:00 (00:00)Choice of GamesChoice of Games
1323 VERSUS: The Lost Ones Aug 21, 2015 $4.99N/A (N/A)0 .. 20,0000%00:00 (00:00)Choice of GamesChoice of Games
1324 King of Dragon Pass Jul 28, 2015 $11.99N/A (N/A)20,000 .. 50,0000%00:00 (00:00)A SharpHeroCraft PC
1325 Champion of the Gods Jul 17, 2015 $5.99N/A (N/A)0 .. 20,0000%00:00 (00:00)Choice of GamesChoice of Games
1326 SpaceCorn Aug 30, 2012 $0.99N/A (N/A)50,000 .. 100,0000%00:00 (00:00)Henrique Pegacha, Rafael Lima, Nuno GuerreiroGentlemen in Tuxedos
1327 Hack RUN Jun 17, 2015 $2.99N/A (N/A)20,000 .. 50,0000%00:00 (00:00)i273 LLCi273 LLC
1328 Tin Star Feb 21, 2014 $11.99N/A (N/A)0 .. 20,0000%00:00 (00:00)Hosted GamesHosted Games
1329 60 Seconds! May 25, 2015 $8.99N/A (N/A)500,000 .. 1,000,0000%00:00 (00:00)Robot GentlemanRobot Gentleman
1330 An Assassin in Orlandes May 12, 2015 $4.99N/A (N/A)0 .. 20,0000%00:00 (00:00)Tin Man GamesTin Man Games
1331 Hollywood Visionary May 1, 2015 $4.99N/A (N/A)0 .. 20,0000%00:00 (00:00)Choice of GamesChoice of Games
1332 Choice of the Petal Throne Apr 10, 2015 $4.99N/A (N/A)0 .. 20,0000%00:00 (00:00)Choice of GamesChoice of Games
1333 The Hero of Kendrickstone Mar 13, 2015 $5.99N/A (N/A)0 .. 20,0000%00:00 (00:00)Choice of GamesChoice of Games
1334 Zombien Mar 6, 2015 $6.99N/A (N/A)0 .. 20,0000%00:00 (00:00)Hosted GamesHosted Games
1335 The Lost Heir: The Fall of Daria Feb 20, 2015 $2.99N/A (N/A)0 .. 20,0000%00:00 (00:00)Hosted GamesHosted Games
1336 SanctuaryRPG: Black Edition Feb 13, 2015 $0.79N/A (N/A)100,000 .. 200,0000%00:00 (00:00)Black Shell MediaPlug In Digital
1337 SLAMMED! Jun 28, 2013 $6.99N/A (N/A)0 .. 20,0000%00:00 (00:00)Choice of GamesChoice of Games
1338 Psy High Dec 12, 2014 $5.99N/A (N/A)0 .. 20,0000%00:00 (00:00)Choice of GamesChoice of Games
1339 Choice of Robots Dec 19, 2014 $6.99N/A (N/A)50,000 .. 100,0000%00:00 (00:00)Choice of GamesChoice of Games
1340 Mecha Ace Jun 13, 2014 $5.99N/A (N/A)0 .. 20,0000%00:00 (00:00)Choice of GamesChoice of Games
1341 Global ATC Simulator Nov 10, 2014 $29.99N/A (N/A)0 .. 20,0000%00:00 (00:00)Robert MiroszewskiAerosoft GmbH
1342 Thieves' Gambit: The Curse of the Black Cat Oct 17, 2014 $4.99N/A (N/A)0 .. 20,0000%00:00 (00:00)Choice of GamesChoice of Games
1343 Yeti's Parole Officer Sep 26, 2014 $4.99N/A (N/A)0 .. 20,0000%00:00 (00:00)Choice of GamesChoice of Games
1344 Choice of the Deathless Dec 20, 2013 $4.99N/A (N/A)0 .. 20,0000%00:00 (00:00)Choice of GamesChoice of Games
1345 Heroes Rise: HeroFall Jul 11, 2014 $4.99N/A (N/A)0 .. 20,0000%00:00 (00:00)Choice of GamesChoice of Games
1346 Heroes Rise: The Prodigy Jul 13, 2012 $4.99N/A (N/A)20,000 .. 50,0000%00:00 (00:00)Choice of GamesChoice of Games
1347 Bot Colony Jun 16, 2014 $14.99N/A (N/A)0 .. 20,0000%00:00 (00:00)North SideNorth Side
1348 Social Justice Warriors May 12, 2014 $7.99N/A (N/A)50,000 .. 100,0000%00:00 (00:00)Nonadecimal CreativeNonadecimal Creative
1349 99 Spirits May 31, 2013 $9.99N/A (N/A)200,000 .. 500,0000%00:00 (00:00)TORaIKIFruitbat Factory
1350 Type:Rider Nov 6, 2013 $4.99N/A (N/A)200,000 .. 500,0000%00:00 (00:00)Ex Nihilo, ARTE FranceARTE France
1351 Heroes Rise: The Hero Project Sep 20, 2013 $5.99N/A (N/A)0 .. 20,0000%00:00 (00:00)Choice of GamesChoice of Games
1352 Zafehouse: Diaries Sep 6, 2013 $1.99N/A (N/A)50,000 .. 100,0000%00:00 (00:00)Screwfly StudiosScrewfly Studios
1353 Affairs of the Court: Choice of Romance Aug 16, 2013 $8.99N/A (N/A)0 .. 20,0000%00:00 (00:00)Choice of GamesChoice of Games
1354 7 Grand Steps: What Ancients Begat Jun 7, 2013 $19.99N/A (N/A)50,000 .. 100,0000%00:00 (00:00)MousechiefMousechief
1355 The Treasure Seekers of Lady Luck Apr 12, 2013 $4.99N/A (N/A)0 .. 20,0000%00:00 (00:00)Choice of GamesChoice of Games
1356 Monster Loves You! Mar 18, 2013 $9.99N/A (N/A)200,000 .. 500,0000%00:00 (00:00)Radial Games Corp, Dejobaan Games, LLCRadial Games Corp
1357 To the City of the Clouds Oct 26, 2012 $4.99N/A (N/A)0 .. 20,0000%00:00 (00:00)Choice of GamesChoice of Games
1358 For Rent: Haunted House Aug 31, 2012 $4.99N/A (N/A)0 .. 20,0000%00:00 (00:00)Choice of GamesChoice of Games
1359 Way Walkers: University Aug 31, 2012 $5.99N/A (N/A)20,000 .. 50,0000%00:00 (00:00)Hosted GamesHosted Games
1360 Tsukumogami May 31, 2012 $29.99N/A (N/A)20,000 .. 50,0000%00:00 (00:00)TORaIKIFruitbat Factory
1361 Magikiras Mar 11, 2011 $11.99N/